<?xml version="1.0" encoding="UTF-8" standalone="no" ?>
<gpx xmlns="http://www.topografix.com/GPX/1/1" xmlns:xsi="http://www.w3.org/2001/XMLSchema-instance" xsi:schemaLocation="http://www.topografix.com/GPX/1/1 http://www.topografix.com/GPX/1/1/gpx.xsd" version="1.1" creator="VisuGPX - https://www.visugpx.com">
  <metadata>
    <name>Montcam Estats par Subra</name>
    <desc><![CDATA[[url]https://plus.google.com/photos/105108571230570121986/albums#photos/105108571230570121986/albums/5774619482287248577[/url
[img]https://lh5.googleusercontent.com/-1-bwjhWBBxw/UCOTwKlq4tI/AAAAAAAAJoI/g_O71MLL46k/s603/2012.08.07 Montcalm Estats %2826%29.jpg[/img]
[img]https://lh6.googleusercontent.com/-iJKRNOIjxz8/UCOTfkpLlxI/AAAAAAAAJno/xmsbU4vzv58/s603/2012.08.07 Montcalm Estats %2822%29.jpg[/img]]]></desc>
  </metadata>
  <trk>
    <name><![CDATA[Montcam Estats par Subra]]></name>
    <trkseg>
      <trkpt lat="42.71218" lon="1.43351">
        <ele>1162</ele>
      </trkpt>
      <trkpt lat="42.71211" lon="1.43354">
        <ele>1133.051025</ele>
        <time>2012-08-07T06:56:20Z</time>
      </trkpt>
      <trkpt lat="42.71209" lon="1.43348">
        <ele>1136.415771</ele>
        <time>2012-08-07T06:56:26Z</time>
      </trkpt>
      <trkpt lat="42.71209" lon="1.43343">
        <ele>1137.857666</ele>
        <time>2012-08-07T06:56:43Z</time>
      </trkpt>
      <trkpt lat="42.71201" lon="1.43336">
        <ele>1139.780273</ele>
        <time>2012-08-07T06:57:01Z</time>
      </trkpt>
      <trkpt lat="42.71188" lon="1.43329">
        <ele>1143.625488</ele>
        <time>2012-08-07T06:57:40Z</time>
      </trkpt>
      <trkpt lat="42.71177" lon="1.43326">
        <ele>1145.067383</ele>
        <time>2012-08-07T06:57:56Z</time>
      </trkpt>
      <trkpt lat="42.7115" lon="1.433">
        <ele>1153.23877</ele>
        <time>2012-08-07T06:58:38Z</time>
      </trkpt>
      <trkpt lat="42.71139" lon="1.4329">
        <ele>1155.64209</ele>
        <time>2012-08-07T06:59:02Z</time>
      </trkpt>
      <trkpt lat="42.71115" lon="1.43269">
        <ele>1158.525879</ele>
        <time>2012-08-07T06:59:34Z</time>
      </trkpt>
      <trkpt lat="42.711" lon="1.43269">
        <ele>1164.774658</ele>
        <time>2012-08-07T07:00:03Z</time>
      </trkpt>
      <trkpt lat="42.71097" lon="1.43262">
        <ele>1167.177979</ele>
        <time>2012-08-07T07:00:10Z</time>
      </trkpt>
      <trkpt lat="42.71093" lon="1.43257">
        <ele>1168.619873</ele>
        <time>2012-08-07T07:00:15Z</time>
      </trkpt>
      <trkpt lat="42.71092" lon="1.43254">
        <ele>1169.100586</ele>
        <time>2012-08-07T07:00:17Z</time>
      </trkpt>
      <trkpt lat="42.71082" lon="1.43247">
        <ele>1172.465088</ele>
        <time>2012-08-07T07:00:34Z</time>
      </trkpt>
      <trkpt lat="42.71069" lon="1.43246">
        <ele>1175.82959</ele>
        <time>2012-08-07T07:00:56Z</time>
      </trkpt>
      <trkpt lat="42.71051" lon="1.43242">
        <ele>1178.23291</ele>
        <time>2012-08-07T07:01:24Z</time>
      </trkpt>
      <trkpt lat="42.71034" lon="1.43228">
        <ele>1182.559082</ele>
        <time>2012-08-07T07:01:41Z</time>
      </trkpt>
      <trkpt lat="42.71028" lon="1.43215">
        <ele>1185.923584</ele>
        <time>2012-08-07T07:02:06Z</time>
      </trkpt>
      <trkpt lat="42.71016" lon="1.43207">
        <ele>1185.442871</ele>
        <time>2012-08-07T07:02:40Z</time>
      </trkpt>
      <trkpt lat="42.71013" lon="1.43204">
        <ele>1184.962402</ele>
        <time>2012-08-07T07:02:49Z</time>
      </trkpt>
      <trkpt lat="42.71007" lon="1.43191">
        <ele>1181.117188</ele>
        <time>2012-08-07T07:03:02Z</time>
      </trkpt>
      <trkpt lat="42.70996" lon="1.4318">
        <ele>1179.194092</ele>
        <time>2012-08-07T07:03:16Z</time>
      </trkpt>
      <trkpt lat="42.70986" lon="1.43165">
        <ele>1175.348877</ele>
        <time>2012-08-07T07:03:38Z</time>
      </trkpt>
      <trkpt lat="42.70972" lon="1.43162">
        <ele>1179.674805</ele>
        <time>2012-08-07T07:03:54Z</time>
      </trkpt>
      <trkpt lat="42.70952" lon="1.43158">
        <ele>1192.652832</ele>
        <time>2012-08-07T07:04:57Z</time>
      </trkpt>
      <trkpt lat="42.70947" lon="1.43143">
        <ele>1201.304688</ele>
        <time>2012-08-07T07:05:14Z</time>
      </trkpt>
      <trkpt lat="42.70947" lon="1.43133">
        <ele>1204.188721</ele>
        <time>2012-08-07T07:05:24Z</time>
      </trkpt>
      <trkpt lat="42.70946" lon="1.4313">
        <ele>1205.630615</ele>
        <time>2012-08-07T07:05:27Z</time>
      </trkpt>
      <trkpt lat="42.70937" lon="1.43134">
        <ele>1211.87915</ele>
        <time>2012-08-07T07:05:44Z</time>
      </trkpt>
      <trkpt lat="42.70934" lon="1.43124">
        <ele>1213.801758</ele>
        <time>2012-08-07T07:06:13Z</time>
      </trkpt>
      <trkpt lat="42.70919" lon="1.43079">
        <ele>1226.779541</ele>
        <time>2012-08-07T07:07:21Z</time>
      </trkpt>
      <trkpt lat="42.70912" lon="1.43072">
        <ele>1230.144287</ele>
        <time>2012-08-07T07:07:48Z</time>
      </trkpt>
      <trkpt lat="42.70891" lon="1.43075">
        <ele>1232.547607</ele>
        <time>2012-08-07T07:08:02Z</time>
      </trkpt>
      <trkpt lat="42.70886" lon="1.43069">
        <ele>1233.989502</ele>
        <time>2012-08-07T07:08:10Z</time>
      </trkpt>
      <trkpt lat="42.70885" lon="1.43063">
        <ele>1234.470215</ele>
        <time>2012-08-07T07:08:15Z</time>
      </trkpt>
      <trkpt lat="42.70884" lon="1.43059">
        <ele>1234.470215</ele>
        <time>2012-08-07T07:08:19Z</time>
      </trkpt>
      <trkpt lat="42.70876" lon="1.43045">
        <ele>1234.950928</ele>
        <time>2012-08-07T07:08:32Z</time>
      </trkpt>
      <trkpt lat="42.70874" lon="1.43042">
        <ele>1235.431396</ele>
        <time>2012-08-07T07:08:35Z</time>
      </trkpt>
      <trkpt lat="42.70862" lon="1.43033">
        <ele>1238.796143</ele>
        <time>2012-08-07T07:08:49Z</time>
      </trkpt>
      <trkpt lat="42.70858" lon="1.43033">
        <ele>1241.679932</ele>
        <time>2012-08-07T07:09:36Z</time>
      </trkpt>
      <trkpt lat="42.70837" lon="1.43018">
        <ele>1246.486816</ele>
        <time>2012-08-07T07:10:22Z</time>
      </trkpt>
      <trkpt lat="42.7083" lon="1.42995">
        <ele>1253.21582</ele>
        <time>2012-08-07T07:10:50Z</time>
      </trkpt>
      <trkpt lat="42.70818" lon="1.42973">
        <ele>1263.790283</ele>
        <time>2012-08-07T07:11:23Z</time>
      </trkpt>
      <trkpt lat="42.70814" lon="1.42963">
        <ele>1269.55835</ele>
        <time>2012-08-07T07:11:37Z</time>
      </trkpt>
      <trkpt lat="42.70797" lon="1.42936">
        <ele>1280.613525</ele>
        <time>2012-08-07T07:12:24Z</time>
      </trkpt>
      <trkpt lat="42.70787" lon="1.42921">
        <ele>1285.419922</ele>
        <time>2012-08-07T07:13:03Z</time>
      </trkpt>
      <trkpt lat="42.70775" lon="1.42902">
        <ele>1295.033203</ele>
        <time>2012-08-07T07:13:34Z</time>
      </trkpt>
      <trkpt lat="42.70769" lon="1.42894">
        <ele>1297.436523</ele>
        <time>2012-08-07T07:13:45Z</time>
      </trkpt>
      <trkpt lat="42.70766" lon="1.42885">
        <ele>1298.878418</ele>
        <time>2012-08-07T07:13:55Z</time>
      </trkpt>
      <trkpt lat="42.70764" lon="1.42883">
        <ele>1298.878418</ele>
        <time>2012-08-07T07:13:57Z</time>
      </trkpt>
      <trkpt lat="42.70755" lon="1.42877">
        <ele>1299.839844</ele>
        <time>2012-08-07T07:14:13Z</time>
      </trkpt>
      <trkpt lat="42.70756" lon="1.42875">
        <ele>1299.839844</ele>
        <time>2012-08-07T07:14:15Z</time>
      </trkpt>
      <trkpt lat="42.70757" lon="1.42865">
        <ele>1298.878418</ele>
        <time>2012-08-07T07:14:30Z</time>
      </trkpt>
      <trkpt lat="42.70752" lon="1.42848">
        <ele>1303.685059</ele>
        <time>2012-08-07T07:15:17Z</time>
      </trkpt>
      <trkpt lat="42.7074" lon="1.42826">
        <ele>1308.01123</ele>
        <time>2012-08-07T07:15:58Z</time>
      </trkpt>
      <trkpt lat="42.70732" lon="1.42819">
        <ele>1308.491699</ele>
        <time>2012-08-07T07:16:11Z</time>
      </trkpt>
      <trkpt lat="42.70729" lon="1.42819">
        <ele>1308.491699</ele>
        <time>2012-08-07T07:16:14Z</time>
      </trkpt>
      <trkpt lat="42.70721" lon="1.42822">
        <ele>1309.933594</ele>
        <time>2012-08-07T07:16:29Z</time>
      </trkpt>
      <trkpt lat="42.70705" lon="1.42823">
        <ele>1322.430664</ele>
        <time>2012-08-07T07:17:32Z</time>
      </trkpt>
      <trkpt lat="42.70706" lon="1.42813">
        <ele>1326.276123</ele>
        <time>2012-08-07T07:17:52Z</time>
      </trkpt>
      <trkpt lat="42.70712" lon="1.42791">
        <ele>1326.756836</ele>
        <time>2012-08-07T07:18:14Z</time>
      </trkpt>
      <trkpt lat="42.70701" lon="1.42737">
        <ele>1333.005127</ele>
        <time>2012-08-07T07:19:46Z</time>
      </trkpt>
      <trkpt lat="42.70645" lon="1.42655">
        <ele>1352.231445</ele>
        <time>2012-08-07T07:24:15Z</time>
      </trkpt>
      <trkpt lat="42.70627" lon="1.42646">
        <ele>1362.325439</ele>
        <time>2012-08-07T07:24:42Z</time>
      </trkpt>
      <trkpt lat="42.70588" lon="1.42616">
        <ele>1386.358398</ele>
        <time>2012-08-07T07:26:34Z</time>
      </trkpt>
      <trkpt lat="42.70577" lon="1.42608">
        <ele>1388.761963</ele>
        <time>2012-08-07T07:26:50Z</time>
      </trkpt>
      <trkpt lat="42.70569" lon="1.4259">
        <ele>1389.723145</ele>
        <time>2012-08-07T07:27:14Z</time>
      </trkpt>
      <trkpt lat="42.70557" lon="1.42575">
        <ele>1388.761963</ele>
        <time>2012-08-07T07:27:32Z</time>
      </trkpt>
      <trkpt lat="42.70544" lon="1.42562">
        <ele>1390.684326</ele>
        <time>2012-08-07T07:27:48Z</time>
      </trkpt>
      <trkpt lat="42.70534" lon="1.42549">
        <ele>1393.087646</ele>
        <time>2012-08-07T07:28:03Z</time>
      </trkpt>
      <trkpt lat="42.70523" lon="1.42538">
        <ele>1395.010254</ele>
        <time>2012-08-07T07:28:15Z</time>
      </trkpt>
      <trkpt lat="42.7047" lon="1.42511">
        <ele>1410.87207</ele>
        <time>2012-08-07T07:30:12Z</time>
      </trkpt>
      <trkpt lat="42.70444" lon="1.42492">
        <ele>1430.579102</ele>
        <time>2012-08-07T07:30:58Z</time>
      </trkpt>
      <trkpt lat="42.70426" lon="1.42478">
        <ele>1439.71167</ele>
        <time>2012-08-07T07:31:27Z</time>
      </trkpt>
      <trkpt lat="42.70379" lon="1.42454">
        <ele>1465.667236</ele>
        <time>2012-08-07T07:32:39Z</time>
      </trkpt>
      <trkpt lat="42.70366" lon="1.42446">
        <ele>1474.319092</ele>
        <time>2012-08-07T07:33:14Z</time>
      </trkpt>
      <trkpt lat="42.70356" lon="1.42448">
        <ele>1475.760986</ele>
        <time>2012-08-07T07:33:40Z</time>
      </trkpt>
      <trkpt lat="42.70349" lon="1.42449">
        <ele>1474.799805</ele>
        <time>2012-08-07T07:33:47Z</time>
      </trkpt>
      <trkpt lat="42.70346" lon="1.42447">
        <ele>1474.319092</ele>
        <time>2012-08-07T07:33:50Z</time>
      </trkpt>
      <trkpt lat="42.7034" lon="1.42438">
        <ele>1473.35791</ele>
        <time>2012-08-07T07:34:04Z</time>
      </trkpt>
      <trkpt lat="42.70315" lon="1.42416">
        <ele>1471.435059</ele>
        <time>2012-08-07T07:34:49Z</time>
      </trkpt>
      <trkpt lat="42.70298" lon="1.42406">
        <ele>1472.877197</ele>
        <time>2012-08-07T07:35:06Z</time>
      </trkpt>
      <trkpt lat="42.70294" lon="1.42406">
        <ele>1472.877197</ele>
        <time>2012-08-07T07:35:10Z</time>
      </trkpt>
      <trkpt lat="42.70285" lon="1.4239">
        <ele>1473.35791</ele>
        <time>2012-08-07T07:35:38Z</time>
      </trkpt>
      <trkpt lat="42.70273" lon="1.42383">
        <ele>1476.722412</ele>
        <time>2012-08-07T07:37:19Z</time>
      </trkpt>
      <trkpt lat="42.70249" lon="1.42365">
        <ele>1484.413086</ele>
        <time>2012-08-07T07:38:23Z</time>
      </trkpt>
      <trkpt lat="42.70234" lon="1.42346">
        <ele>1488.739014</ele>
        <time>2012-08-07T07:39:06Z</time>
      </trkpt>
      <trkpt lat="42.70237" lon="1.4235">
        <ele>1492.584229</ele>
        <time>2012-08-07T07:39:49Z</time>
      </trkpt>
      <trkpt lat="42.70244" lon="1.42363">
        <ele>1493.064697</ele>
        <time>2012-08-07T07:40:08Z</time>
      </trkpt>
      <trkpt lat="42.70255" lon="1.42381">
        <ele>1489.219482</ele>
        <time>2012-08-07T07:40:37Z</time>
      </trkpt>
      <trkpt lat="42.7026" lon="1.42399">
        <ele>1484.413086</ele>
        <time>2012-08-07T07:41:11Z</time>
      </trkpt>
      <trkpt lat="42.7026" lon="1.424">
        <ele>1483.451416</ele>
        <time>2012-08-07T07:41:14Z</time>
      </trkpt>
      <trkpt lat="42.70268" lon="1.42416">
        <ele>1489.700195</ele>
        <time>2012-08-07T07:42:00Z</time>
      </trkpt>
      <trkpt lat="42.70255" lon="1.42423">
        <ele>1494.506592</ele>
        <time>2012-08-07T07:43:26Z</time>
      </trkpt>
      <trkpt lat="42.70239" lon="1.42427">
        <ele>1499.793945</ele>
        <time>2012-08-07T07:43:55Z</time>
      </trkpt>
      <trkpt lat="42.70232" lon="1.42439">
        <ele>1507.003906</ele>
        <time>2012-08-07T07:44:21Z</time>
      </trkpt>
      <trkpt lat="42.7023" lon="1.42437">
        <ele>1507.965332</ele>
        <time>2012-08-07T07:44:24Z</time>
      </trkpt>
      <trkpt lat="42.70223" lon="1.42428">
        <ele>1520.462402</ele>
        <time>2012-08-07T07:44:39Z</time>
      </trkpt>
      <trkpt lat="42.7022" lon="1.42425">
        <ele>1522.865723</ele>
        <time>2012-08-07T07:44:48Z</time>
      </trkpt>
      <trkpt lat="42.70207" lon="1.42415">
        <ele>1516.617188</ele>
        <time>2012-08-07T07:45:11Z</time>
      </trkpt>
      <trkpt lat="42.70189" lon="1.42424">
        <ele>1512.771729</ele>
        <time>2012-08-07T07:45:44Z</time>
      </trkpt>
      <trkpt lat="42.70186" lon="1.42425">
        <ele>1513.252441</ele>
        <time>2012-08-07T07:46:08Z</time>
      </trkpt>
      <trkpt lat="42.70179" lon="1.42423">
        <ele>1514.213623</ele>
        <time>2012-08-07T07:46:25Z</time>
      </trkpt>
      <trkpt lat="42.70166" lon="1.42426">
        <ele>1517.578369</ele>
        <time>2012-08-07T07:46:49Z</time>
      </trkpt>
      <trkpt lat="42.70151" lon="1.42421">
        <ele>1522.865723</ele>
        <time>2012-08-07T07:47:36Z</time>
      </trkpt>
      <trkpt lat="42.7015" lon="1.42422">
        <ele>1523.346436</ele>
        <time>2012-08-07T07:47:37Z</time>
      </trkpt>
      <trkpt lat="42.7014" lon="1.42426">
        <ele>1526.230225</ele>
        <time>2012-08-07T07:47:52Z</time>
      </trkpt>
      <trkpt lat="42.70138" lon="1.42429">
        <ele>1527.672119</ele>
        <time>2012-08-07T07:47:58Z</time>
      </trkpt>
      <trkpt lat="42.70136" lon="1.4243">
        <ele>1528.633545</ele>
        <time>2012-08-07T07:48:00Z</time>
      </trkpt>
      <trkpt lat="42.7013" lon="1.42433">
        <ele>1536.804688</ele>
        <time>2012-08-07T07:48:13Z</time>
      </trkpt>
      <trkpt lat="42.70119" lon="1.42438">
        <ele>1546.417969</ele>
        <time>2012-08-07T07:48:31Z</time>
      </trkpt>
      <trkpt lat="42.7011" lon="1.42437">
        <ele>1555.069824</ele>
        <time>2012-08-07T07:48:55Z</time>
      </trkpt>
      <trkpt lat="42.70103" lon="1.42436">
        <ele>1555.069824</ele>
        <time>2012-08-07T07:49:09Z</time>
      </trkpt>
      <trkpt lat="42.70102" lon="1.42436">
        <ele>1555.069824</ele>
        <time>2012-08-07T07:49:11Z</time>
      </trkpt>
      <trkpt lat="42.70096" lon="1.42435">
        <ele>1554.589111</ele>
        <time>2012-08-07T07:49:18Z</time>
      </trkpt>
      <trkpt lat="42.70085" lon="1.42436">
        <ele>1553.147217</ele>
        <time>2012-08-07T07:49:33Z</time>
      </trkpt>
      <trkpt lat="42.70084" lon="1.42438">
        <ele>1553.147217</ele>
        <time>2012-08-07T07:49:35Z</time>
      </trkpt>
      <trkpt lat="42.70071" lon="1.42439">
        <ele>1552.666504</ele>
        <time>2012-08-07T07:49:56Z</time>
      </trkpt>
      <trkpt lat="42.70063" lon="1.42439">
        <ele>1554.589111</ele>
        <time>2012-08-07T07:50:13Z</time>
      </trkpt>
      <trkpt lat="42.70062" lon="1.42438">
        <ele>1555.069824</ele>
        <time>2012-08-07T07:50:15Z</time>
      </trkpt>
      <trkpt lat="42.70055" lon="1.42434">
        <ele>1558.915039</ele>
        <time>2012-08-07T07:50:38Z</time>
      </trkpt>
      <trkpt lat="42.7005" lon="1.42433">
        <ele>1561.799072</ele>
        <time>2012-08-07T07:51:18Z</time>
      </trkpt>
      <trkpt lat="42.70039" lon="1.4243">
        <ele>1565.163818</ele>
        <time>2012-08-07T07:51:36Z</time>
      </trkpt>
      <trkpt lat="42.70032" lon="1.42438">
        <ele>1570.450928</ele>
        <time>2012-08-07T07:52:01Z</time>
      </trkpt>
      <trkpt lat="42.70026" lon="1.42447">
        <ele>1571.412109</ele>
        <time>2012-08-07T07:52:16Z</time>
      </trkpt>
      <trkpt lat="42.70019" lon="1.42441">
        <ele>1573.81543</ele>
        <time>2012-08-07T07:52:31Z</time>
      </trkpt>
      <trkpt lat="42.70011" lon="1.42433">
        <ele>1580.544922</ele>
        <time>2012-08-07T07:52:53Z</time>
      </trkpt>
      <trkpt lat="42.69999" lon="1.42431">
        <ele>1587.754639</ele>
        <time>2012-08-07T07:53:21Z</time>
      </trkpt>
      <trkpt lat="42.69991" lon="1.42427">
        <ele>1593.041748</ele>
        <time>2012-08-07T07:53:35Z</time>
      </trkpt>
      <trkpt lat="42.69983" lon="1.42419">
        <ele>1595.925781</ele>
        <time>2012-08-07T07:53:48Z</time>
      </trkpt>
      <trkpt lat="42.69977" lon="1.42412">
        <ele>1598.809814</ele>
        <time>2012-08-07T07:54:00Z</time>
      </trkpt>
      <trkpt lat="42.69968" lon="1.42409">
        <ele>1602.655029</ele>
        <time>2012-08-07T07:54:18Z</time>
      </trkpt>
      <trkpt lat="42.69957" lon="1.42405">
        <ele>1604.097168</ele>
        <time>2012-08-07T07:54:32Z</time>
      </trkpt>
      <trkpt lat="42.69948" lon="1.42406">
        <ele>1606.019531</ele>
        <time>2012-08-07T07:54:48Z</time>
      </trkpt>
      <trkpt lat="42.69937" lon="1.42407">
        <ele>1608.903564</ele>
        <time>2012-08-07T07:55:08Z</time>
      </trkpt>
      <trkpt lat="42.69929" lon="1.42411">
        <ele>1610.826172</ele>
        <time>2012-08-07T07:55:22Z</time>
      </trkpt>
      <trkpt lat="42.69922" lon="1.42415">
        <ele>1613.229736</ele>
        <time>2012-08-07T07:55:40Z</time>
      </trkpt>
      <trkpt lat="42.69913" lon="1.42415">
        <ele>1614.190918</ele>
        <time>2012-08-07T07:55:59Z</time>
      </trkpt>
      <trkpt lat="42.69901" lon="1.42414">
        <ele>1618.036133</ele>
        <time>2012-08-07T07:56:29Z</time>
      </trkpt>
      <trkpt lat="42.69891" lon="1.42411">
        <ele>1622.842773</ele>
        <time>2012-08-07T07:56:43Z</time>
      </trkpt>
      <trkpt lat="42.6988" lon="1.42413">
        <ele>1628.61084</ele>
        <time>2012-08-07T07:57:04Z</time>
      </trkpt>
      <trkpt lat="42.69871" lon="1.42416">
        <ele>1634.378662</ele>
        <time>2012-08-07T07:57:24Z</time>
      </trkpt>
      <trkpt lat="42.69864" lon="1.42412">
        <ele>1640.626953</ele>
        <time>2012-08-07T07:57:43Z</time>
      </trkpt>
      <trkpt lat="42.69854" lon="1.4241">
        <ele>1643.991699</ele>
        <time>2012-08-07T07:58:01Z</time>
      </trkpt>
      <trkpt lat="42.69842" lon="1.42403">
        <ele>1646.395264</ele>
        <time>2012-08-07T07:58:27Z</time>
      </trkpt>
      <trkpt lat="42.69829" lon="1.42398">
        <ele>1648.79834</ele>
        <time>2012-08-07T07:58:54Z</time>
      </trkpt>
      <trkpt lat="42.6982" lon="1.42399">
        <ele>1651.20166</ele>
        <time>2012-08-07T07:59:10Z</time>
      </trkpt>
      <trkpt lat="42.69808" lon="1.42399">
        <ele>1653.60498</ele>
        <time>2012-08-07T07:59:35Z</time>
      </trkpt>
      <trkpt lat="42.69806" lon="1.42399">
        <ele>1653.60498</ele>
        <time>2012-08-07T07:59:38Z</time>
      </trkpt>
      <trkpt lat="42.69796" lon="1.424">
        <ele>1655.527588</ele>
        <time>2012-08-07T07:59:53Z</time>
      </trkpt>
      <trkpt lat="42.69786" lon="1.42397">
        <ele>1660.334229</ele>
        <time>2012-08-07T08:00:13Z</time>
      </trkpt>
      <trkpt lat="42.69777" lon="1.42402">
        <ele>1666.582764</ele>
        <time>2012-08-07T08:00:57Z</time>
      </trkpt>
      <trkpt lat="42.69769" lon="1.42402">
        <ele>1669.947266</ele>
        <time>2012-08-07T08:01:13Z</time>
      </trkpt>
      <trkpt lat="42.69759" lon="1.42404">
        <ele>1675.234375</ele>
        <time>2012-08-07T08:01:40Z</time>
      </trkpt>
      <trkpt lat="42.69757" lon="1.42405">
        <ele>1676.196045</ele>
        <time>2012-08-07T08:01:44Z</time>
      </trkpt>
      <trkpt lat="42.69746" lon="1.42406">
        <ele>1678.599365</ele>
        <time>2012-08-07T08:02:00Z</time>
      </trkpt>
      <trkpt lat="42.69736" lon="1.42406">
        <ele>1682.44458</ele>
        <time>2012-08-07T08:02:19Z</time>
      </trkpt>
      <trkpt lat="42.69725" lon="1.42395">
        <ele>1688.693115</ele>
        <time>2012-08-07T08:02:50Z</time>
      </trkpt>
      <trkpt lat="42.69716" lon="1.42394">
        <ele>1691.576904</ele>
        <time>2012-08-07T08:03:19Z</time>
      </trkpt>
      <trkpt lat="42.69706" lon="1.42386">
        <ele>1694.94165</ele>
        <time>2012-08-07T08:03:45Z</time>
      </trkpt>
      <trkpt lat="42.69701" lon="1.42372">
        <ele>1698.786865</ele>
        <time>2012-08-07T08:04:08Z</time>
      </trkpt>
      <trkpt lat="42.69695" lon="1.42361">
        <ele>1699.267578</ele>
        <time>2012-08-07T08:04:40Z</time>
      </trkpt>
      <trkpt lat="42.69693" lon="1.42344">
        <ele>1700.229004</ele>
        <time>2012-08-07T08:04:59Z</time>
      </trkpt>
      <trkpt lat="42.69692" lon="1.42337">
        <ele>1701.190186</ele>
        <time>2012-08-07T08:05:05Z</time>
      </trkpt>
      <trkpt lat="42.69692" lon="1.42329">
        <ele>1701.190186</ele>
        <time>2012-08-07T08:05:12Z</time>
      </trkpt>
      <trkpt lat="42.69696" lon="1.42311">
        <ele>1700.229004</ele>
        <time>2012-08-07T08:05:26Z</time>
      </trkpt>
      <trkpt lat="42.69697" lon="1.42305">
        <ele>1700.709473</ele>
        <time>2012-08-07T08:05:32Z</time>
      </trkpt>
      <trkpt lat="42.69704" lon="1.42297">
        <ele>1703.112793</ele>
        <time>2012-08-07T08:05:47Z</time>
      </trkpt>
      <trkpt lat="42.69705" lon="1.42296">
        <ele>1703.112793</ele>
        <time>2012-08-07T08:05:49Z</time>
      </trkpt>
      <trkpt lat="42.6971" lon="1.42278">
        <ele>1706.477295</ele>
        <time>2012-08-07T08:06:10Z</time>
      </trkpt>
      <trkpt lat="42.6971" lon="1.42276">
        <ele>1707.438721</ele>
        <time>2012-08-07T08:06:16Z</time>
      </trkpt>
      <trkpt lat="42.69703" lon="1.4227">
        <ele>1708.880859</ele>
        <time>2012-08-07T08:06:27Z</time>
      </trkpt>
      <trkpt lat="42.69697" lon="1.42272">
        <ele>1711.28418</ele>
        <time>2012-08-07T08:06:40Z</time>
      </trkpt>
      <trkpt lat="42.69687" lon="1.42273">
        <ele>1714.648682</ele>
        <time>2012-08-07T08:06:56Z</time>
      </trkpt>
      <trkpt lat="42.69683" lon="1.42271">
        <ele>1716.571289</ele>
        <time>2012-08-07T08:07:22Z</time>
      </trkpt>
      <trkpt lat="42.69683" lon="1.42268">
        <ele>1717.052002</ele>
        <time>2012-08-07T08:08:12Z</time>
      </trkpt>
      <trkpt lat="42.69683" lon="1.42261">
        <ele>1715.610107</ele>
        <time>2012-08-07T08:08:33Z</time>
      </trkpt>
      <trkpt lat="42.69679" lon="1.4226">
        <ele>1713.206787</ele>
        <time>2012-08-07T08:08:58Z</time>
      </trkpt>
      <trkpt lat="42.6968" lon="1.4226">
        <ele>1713.206787</ele>
        <time>2012-08-07T08:09:50Z</time>
      </trkpt>
      <trkpt lat="42.69681" lon="1.42261">
        <ele>1712.245361</ele>
        <time>2012-08-07T08:17:44Z</time>
      </trkpt>
      <trkpt lat="42.69681" lon="1.42263">
        <ele>1712.726074</ele>
        <time>2012-08-07T08:18:06Z</time>
      </trkpt>
      <trkpt lat="42.69678" lon="1.42269">
        <ele>1712.245361</ele>
        <time>2012-08-07T08:18:36Z</time>
      </trkpt>
      <trkpt lat="42.69671" lon="1.42275">
        <ele>1715.129395</ele>
        <time>2012-08-07T08:18:49Z</time>
      </trkpt>
      <trkpt lat="42.69664" lon="1.42275">
        <ele>1716.571289</ele>
        <time>2012-08-07T08:18:57Z</time>
      </trkpt>
      <trkpt lat="42.69654" lon="1.42276">
        <ele>1718.493896</ele>
        <time>2012-08-07T08:19:10Z</time>
      </trkpt>
      <trkpt lat="42.69651" lon="1.42276">
        <ele>1718.974609</ele>
        <time>2012-08-07T08:19:13Z</time>
      </trkpt>
      <trkpt lat="42.69645" lon="1.42274">
        <ele>1720.416504</ele>
        <time>2012-08-07T08:19:19Z</time>
      </trkpt>
      <trkpt lat="42.69645" lon="1.42272">
        <ele>1720.897217</ele>
        <time>2012-08-07T08:19:21Z</time>
      </trkpt>
      <trkpt lat="42.69638" lon="1.4227">
        <ele>1723.300537</ele>
        <time>2012-08-07T08:19:28Z</time>
      </trkpt>
      <trkpt lat="42.69633" lon="1.42269">
        <ele>1724.261963</ele>
        <time>2012-08-07T08:19:34Z</time>
      </trkpt>
      <trkpt lat="42.69624" lon="1.42275">
        <ele>1729.549072</ele>
        <time>2012-08-07T08:19:51Z</time>
      </trkpt>
      <trkpt lat="42.69619" lon="1.42281">
        <ele>1732.913574</ele>
        <time>2012-08-07T08:20:05Z</time>
      </trkpt>
      <trkpt lat="42.69614" lon="1.42289">
        <ele>1737.239502</ele>
        <time>2012-08-07T08:20:21Z</time>
      </trkpt>
      <trkpt lat="42.69603" lon="1.42294">
        <ele>1740.123779</ele>
        <time>2012-08-07T08:20:44Z</time>
      </trkpt>
      <trkpt lat="42.69598" lon="1.42299">
        <ele>1741.084961</ele>
        <time>2012-08-07T08:21:01Z</time>
      </trkpt>
      <trkpt lat="42.69593" lon="1.42307">
        <ele>1742.046387</ele>
        <time>2012-08-07T08:21:16Z</time>
      </trkpt>
      <trkpt lat="42.69592" lon="1.4231">
        <ele>1742.5271</ele>
        <time>2012-08-07T08:21:21Z</time>
      </trkpt>
      <trkpt lat="42.69586" lon="1.42319">
        <ele>1745.891602</ele>
        <time>2012-08-07T08:21:36Z</time>
      </trkpt>
      <trkpt lat="42.69582" lon="1.42322">
        <ele>1746.852783</ele>
        <time>2012-08-07T08:21:43Z</time>
      </trkpt>
      <trkpt lat="42.69577" lon="1.42324">
        <ele>1747.814209</ele>
        <time>2012-08-07T08:21:49Z</time>
      </trkpt>
      <trkpt lat="42.69566" lon="1.42322">
        <ele>1750.217529</ele>
        <time>2012-08-07T08:22:08Z</time>
      </trkpt>
      <trkpt lat="42.69557" lon="1.42318">
        <ele>1752.139893</ele>
        <time>2012-08-07T08:22:23Z</time>
      </trkpt>
      <trkpt lat="42.69548" lon="1.42319">
        <ele>1755.023926</ele>
        <time>2012-08-07T08:22:37Z</time>
      </trkpt>
      <trkpt lat="42.69535" lon="1.42321">
        <ele>1758.388672</ele>
        <time>2012-08-07T08:22:55Z</time>
      </trkpt>
      <trkpt lat="42.69531" lon="1.42319">
        <ele>1759.350098</ele>
        <time>2012-08-07T08:23:01Z</time>
      </trkpt>
      <trkpt lat="42.69519" lon="1.42316">
        <ele>1760.791992</ele>
        <time>2012-08-07T08:23:18Z</time>
      </trkpt>
      <trkpt lat="42.69513" lon="1.42319">
        <ele>1764.156494</ele>
        <time>2012-08-07T08:23:39Z</time>
      </trkpt>
      <trkpt lat="42.69502" lon="1.42318">
        <ele>1766.079102</ele>
        <time>2012-08-07T08:23:55Z</time>
      </trkpt>
      <trkpt lat="42.69492" lon="1.42323">
        <ele>1767.040527</ele>
        <time>2012-08-07T08:24:10Z</time>
      </trkpt>
      <trkpt lat="42.69489" lon="1.42328">
        <ele>1768.001709</ele>
        <time>2012-08-07T08:24:29Z</time>
      </trkpt>
      <trkpt lat="42.6948" lon="1.42335">
        <ele>1771.846924</ele>
        <time>2012-08-07T08:24:43Z</time>
      </trkpt>
      <trkpt lat="42.69471" lon="1.42334">
        <ele>1774.250488</ele>
        <time>2012-08-07T08:24:55Z</time>
      </trkpt>
      <trkpt lat="42.6946" lon="1.42326">
        <ele>1774.731201</ele>
        <time>2012-08-07T08:25:11Z</time>
      </trkpt>
      <trkpt lat="42.6945" lon="1.42325">
        <ele>1775.692383</ele>
        <time>2012-08-07T08:25:26Z</time>
      </trkpt>
      <trkpt lat="42.69447" lon="1.42333">
        <ele>1776.653809</ele>
        <time>2012-08-07T08:25:43Z</time>
      </trkpt>
      <trkpt lat="42.69435" lon="1.4234">
        <ele>1779.056885</ele>
        <time>2012-08-07T08:26:00Z</time>
      </trkpt>
      <trkpt lat="42.69426" lon="1.4234">
        <ele>1780.979736</ele>
        <time>2012-08-07T08:26:11Z</time>
      </trkpt>
      <trkpt lat="42.69423" lon="1.42342">
        <ele>1781.940918</ele>
        <time>2012-08-07T08:26:16Z</time>
      </trkpt>
      <trkpt lat="42.6941" lon="1.42343">
        <ele>1786.266846</ele>
        <time>2012-08-07T08:26:33Z</time>
      </trkpt>
      <trkpt lat="42.69399" lon="1.42344">
        <ele>1787.70874</ele>
        <time>2012-08-07T08:26:50Z</time>
      </trkpt>
      <trkpt lat="42.69388" lon="1.4234">
        <ele>1788.67041</ele>
        <time>2012-08-07T08:27:06Z</time>
      </trkpt>
      <trkpt lat="42.69378" lon="1.42337">
        <ele>1788.67041</ele>
        <time>2012-08-07T08:27:18Z</time>
      </trkpt>
      <trkpt lat="42.69375" lon="1.42336">
        <ele>1788.67041</ele>
        <time>2012-08-07T08:27:45Z</time>
      </trkpt>
      <trkpt lat="42.69374" lon="1.42337">
        <ele>1789.150879</ele>
        <time>2012-08-07T08:27:47Z</time>
      </trkpt>
      <trkpt lat="42.6936" lon="1.4234">
        <ele>1792.996094</ele>
        <time>2012-08-07T08:28:03Z</time>
      </trkpt>
      <trkpt lat="42.69359" lon="1.4234">
        <ele>1793.476807</ele>
        <time>2012-08-07T08:28:05Z</time>
      </trkpt>
      <trkpt lat="42.69351" lon="1.42348">
        <ele>1795.880127</ele>
        <time>2012-08-07T08:28:19Z</time>
      </trkpt>
      <trkpt lat="42.69348" lon="1.42349">
        <ele>1797.322021</ele>
        <time>2012-08-07T08:28:23Z</time>
      </trkpt>
      <trkpt lat="42.69345" lon="1.42352">
        <ele>1799.244629</ele>
        <time>2012-08-07T08:28:27Z</time>
      </trkpt>
      <trkpt lat="42.69335" lon="1.42354">
        <ele>1802.609131</ele>
        <time>2012-08-07T08:28:40Z</time>
      </trkpt>
      <trkpt lat="42.69328" lon="1.42352">
        <ele>1805.973877</ele>
        <time>2012-08-07T08:28:55Z</time>
      </trkpt>
      <trkpt lat="42.69314" lon="1.4235">
        <ele>1810.780518</ele>
        <time>2012-08-07T08:29:15Z</time>
      </trkpt>
      <trkpt lat="42.69308" lon="1.42347">
        <ele>1811.741943</ele>
        <time>2012-08-07T08:29:23Z</time>
      </trkpt>
      <trkpt lat="42.69297" lon="1.42348">
        <ele>1812.703125</ele>
        <time>2012-08-07T08:29:39Z</time>
      </trkpt>
      <trkpt lat="42.69296" lon="1.42348">
        <ele>1812.703125</ele>
        <time>2012-08-07T08:29:40Z</time>
      </trkpt>
      <trkpt lat="42.69294" lon="1.4235">
        <ele>1812.703125</ele>
        <time>2012-08-07T08:29:45Z</time>
      </trkpt>
      <trkpt lat="42.69288" lon="1.42352">
        <ele>1814.14502</ele>
        <time>2012-08-07T08:29:53Z</time>
      </trkpt>
      <trkpt lat="42.69286" lon="1.42348">
        <ele>1815.106445</ele>
        <time>2012-08-07T08:29:56Z</time>
      </trkpt>
      <trkpt lat="42.69282" lon="1.42344">
        <ele>1817.509521</ele>
        <time>2012-08-07T08:30:06Z</time>
      </trkpt>
      <trkpt lat="42.69274" lon="1.42339">
        <ele>1820.874512</ele>
        <time>2012-08-07T08:30:25Z</time>
      </trkpt>
      <trkpt lat="42.69266" lon="1.42336">
        <ele>1821.835693</ele>
        <time>2012-08-07T08:30:38Z</time>
      </trkpt>
      <trkpt lat="42.69253" lon="1.42331">
        <ele>1822.316406</ele>
        <time>2012-08-07T08:30:56Z</time>
      </trkpt>
      <trkpt lat="42.69242" lon="1.42332">
        <ele>1822.316406</ele>
        <time>2012-08-07T08:31:14Z</time>
      </trkpt>
      <trkpt lat="42.69238" lon="1.42332">
        <ele>1823.277832</ele>
        <time>2012-08-07T08:31:21Z</time>
      </trkpt>
      <trkpt lat="42.69229" lon="1.42329">
        <ele>1825.680908</ele>
        <time>2012-08-07T08:31:39Z</time>
      </trkpt>
      <trkpt lat="42.69224" lon="1.42328">
        <ele>1825.200195</ele>
        <time>2012-08-07T08:31:46Z</time>
      </trkpt>
      <trkpt lat="42.69212" lon="1.42328">
        <ele>1826.642334</ele>
        <time>2012-08-07T08:32:01Z</time>
      </trkpt>
      <trkpt lat="42.69208" lon="1.42327">
        <ele>1827.123047</ele>
        <time>2012-08-07T08:32:05Z</time>
      </trkpt>
      <trkpt lat="42.69205" lon="1.42324">
        <ele>1827.603516</ele>
        <time>2012-08-07T08:32:10Z</time>
      </trkpt>
      <trkpt lat="42.692" lon="1.42321">
        <ele>1828.564941</ele>
        <time>2012-08-07T08:32:26Z</time>
      </trkpt>
      <trkpt lat="42.69199" lon="1.42321">
        <ele>1829.04541</ele>
        <time>2012-08-07T08:32:30Z</time>
      </trkpt>
      <trkpt lat="42.69189" lon="1.42321">
        <ele>1830.487549</ele>
        <time>2012-08-07T08:32:45Z</time>
      </trkpt>
      <trkpt lat="42.69181" lon="1.42327">
        <ele>1831.929443</ele>
        <time>2012-08-07T08:32:57Z</time>
      </trkpt>
      <trkpt lat="42.69172" lon="1.42338">
        <ele>1835.293945</ele>
        <time>2012-08-07T08:33:20Z</time>
      </trkpt>
      <trkpt lat="42.69167" lon="1.42343">
        <ele>1836.255615</ele>
        <time>2012-08-07T08:33:31Z</time>
      </trkpt>
      <trkpt lat="42.69165" lon="1.42342">
        <ele>1836.736084</ele>
        <time>2012-08-07T08:33:35Z</time>
      </trkpt>
      <trkpt lat="42.69158" lon="1.42346">
        <ele>1838.658936</ele>
        <time>2012-08-07T08:33:45Z</time>
      </trkpt>
      <trkpt lat="42.69151" lon="1.42351">
        <ele>1840.581299</ele>
        <time>2012-08-07T08:33:56Z</time>
      </trkpt>
      <trkpt lat="42.69144" lon="1.42353">
        <ele>1842.984619</ele>
        <time>2012-08-07T08:34:09Z</time>
      </trkpt>
      <trkpt lat="42.69142" lon="1.42353">
        <ele>1843.465332</ele>
        <time>2012-08-07T08:34:12Z</time>
      </trkpt>
      <trkpt lat="42.69131" lon="1.42356">
        <ele>1845.868652</ele>
        <time>2012-08-07T08:34:30Z</time>
      </trkpt>
      <trkpt lat="42.69125" lon="1.42357">
        <ele>1846.829834</ele>
        <time>2012-08-07T08:34:38Z</time>
      </trkpt>
      <trkpt lat="42.69117" lon="1.42355">
        <ele>1847.79126</ele>
        <time>2012-08-07T08:34:52Z</time>
      </trkpt>
      <trkpt lat="42.69116" lon="1.42353">
        <ele>1847.79126</ele>
        <time>2012-08-07T08:34:54Z</time>
      </trkpt>
      <trkpt lat="42.69111" lon="1.4235">
        <ele>1848.271729</ele>
        <time>2012-08-07T08:34:59Z</time>
      </trkpt>
      <trkpt lat="42.69107" lon="1.42345">
        <ele>1847.79126</ele>
        <time>2012-08-07T08:35:05Z</time>
      </trkpt>
      <trkpt lat="42.69102" lon="1.4234">
        <ele>1846.829834</ele>
        <time>2012-08-07T08:35:11Z</time>
      </trkpt>
      <trkpt lat="42.69097" lon="1.42336">
        <ele>1845.868652</ele>
        <time>2012-08-07T08:35:16Z</time>
      </trkpt>
      <trkpt lat="42.69094" lon="1.42334">
        <ele>1845.387939</ele>
        <time>2012-08-07T08:35:19Z</time>
      </trkpt>
      <trkpt lat="42.6908" lon="1.42333">
        <ele>1845.387939</ele>
        <time>2012-08-07T08:35:36Z</time>
      </trkpt>
      <trkpt lat="42.69074" lon="1.42333">
        <ele>1847.310547</ele>
        <time>2012-08-07T08:35:48Z</time>
      </trkpt>
      <trkpt lat="42.69066" lon="1.42324">
        <ele>1849.233154</ele>
        <time>2012-08-07T08:36:08Z</time>
      </trkpt>
      <trkpt lat="42.6906" lon="1.42316">
        <ele>1851.155762</ele>
        <time>2012-08-07T08:36:23Z</time>
      </trkpt>
      <trkpt lat="42.69048" lon="1.42305">
        <ele>1854.520508</ele>
        <time>2012-08-07T08:36:59Z</time>
      </trkpt>
      <trkpt lat="42.69045" lon="1.42302">
        <ele>1854.520508</ele>
        <time>2012-08-07T08:37:02Z</time>
      </trkpt>
      <trkpt lat="42.69036" lon="1.42299">
        <ele>1855.962402</ele>
        <time>2012-08-07T08:37:14Z</time>
      </trkpt>
      <trkpt lat="42.69029" lon="1.42299">
        <ele>1858.365723</ele>
        <time>2012-08-07T08:37:25Z</time>
      </trkpt>
      <trkpt lat="42.69029" lon="1.423">
        <ele>1858.365723</ele>
        <time>2012-08-07T08:37:32Z</time>
      </trkpt>
      <trkpt lat="42.69024" lon="1.42296">
        <ele>1859.327148</ele>
        <time>2012-08-07T08:37:39Z</time>
      </trkpt>
      <trkpt lat="42.69023" lon="1.42295">
        <ele>1859.807617</ele>
        <time>2012-08-07T08:37:41Z</time>
      </trkpt>
      <trkpt lat="42.69015" lon="1.42295">
        <ele>1861.730469</ele>
        <time>2012-08-07T08:37:49Z</time>
      </trkpt>
      <trkpt lat="42.6901" lon="1.42296">
        <ele>1862.69165</ele>
        <time>2012-08-07T08:37:55Z</time>
      </trkpt>
      <trkpt lat="42.69001" lon="1.42298">
        <ele>1865.094971</ele>
        <time>2012-08-07T08:38:06Z</time>
      </trkpt>
      <trkpt lat="42.68997" lon="1.42296">
        <ele>1865.575684</ele>
        <time>2012-08-07T08:38:11Z</time>
      </trkpt>
      <trkpt lat="42.68984" lon="1.42295">
        <ele>1867.017578</ele>
        <time>2012-08-07T08:38:26Z</time>
      </trkpt>
      <trkpt lat="42.68975" lon="1.42291">
        <ele>1868.459717</ele>
        <time>2012-08-07T08:38:37Z</time>
      </trkpt>
      <trkpt lat="42.68968" lon="1.42285">
        <ele>1869.901611</ele>
        <time>2012-08-07T08:38:46Z</time>
      </trkpt>
      <trkpt lat="42.68956" lon="1.42277">
        <ele>1873.266357</ele>
        <time>2012-08-07T08:39:02Z</time>
      </trkpt>
      <trkpt lat="42.68951" lon="1.42275">
        <ele>1873.266357</ele>
        <time>2012-08-07T08:39:14Z</time>
      </trkpt>
      <trkpt lat="42.68938" lon="1.42269">
        <ele>1870.863037</ele>
        <time>2012-08-07T08:39:51Z</time>
      </trkpt>
      <trkpt lat="42.68934" lon="1.42267">
        <ele>1870.382324</ele>
        <time>2012-08-07T08:39:55Z</time>
      </trkpt>
      <trkpt lat="42.68924" lon="1.4226">
        <ele>1868.94043</ele>
        <time>2012-08-07T08:40:06Z</time>
      </trkpt>
      <trkpt lat="42.68917" lon="1.42258">
        <ele>1868.459717</ele>
        <time>2012-08-07T08:40:14Z</time>
      </trkpt>
      <trkpt lat="42.68909" lon="1.42253">
        <ele>1867.498047</ele>
        <time>2012-08-07T08:40:26Z</time>
      </trkpt>
      <trkpt lat="42.68905" lon="1.42244">
        <ele>1867.498047</ele>
        <time>2012-08-07T08:40:38Z</time>
      </trkpt>
      <trkpt lat="42.689" lon="1.42242">
        <ele>1867.498047</ele>
        <time>2012-08-07T08:40:49Z</time>
      </trkpt>
      <trkpt lat="42.68895" lon="1.42246">
        <ele>1867.498047</ele>
        <time>2012-08-07T08:40:56Z</time>
      </trkpt>
      <trkpt lat="42.68883" lon="1.42245">
        <ele>1869.421143</ele>
        <time>2012-08-07T08:41:13Z</time>
      </trkpt>
      <trkpt lat="42.68873" lon="1.42244">
        <ele>1874.708252</ele>
        <time>2012-08-07T08:41:34Z</time>
      </trkpt>
      <trkpt lat="42.68864" lon="1.42242">
        <ele>1878.553467</ele>
        <time>2012-08-07T08:41:47Z</time>
      </trkpt>
      <trkpt lat="42.68859" lon="1.42239">
        <ele>1880.476074</ele>
        <time>2012-08-07T08:41:57Z</time>
      </trkpt>
      <trkpt lat="42.68848" lon="1.42235">
        <ele>1884.321533</ele>
        <time>2012-08-07T08:42:19Z</time>
      </trkpt>
      <trkpt lat="42.68842" lon="1.42233">
        <ele>1887.205322</ele>
        <time>2012-08-07T08:42:28Z</time>
      </trkpt>
      <trkpt lat="42.68836" lon="1.42226">
        <ele>1891.050537</ele>
        <time>2012-08-07T08:42:43Z</time>
      </trkpt>
      <trkpt lat="42.68829" lon="1.42223">
        <ele>1894.415039</ele>
        <time>2012-08-07T08:42:58Z</time>
      </trkpt>
      <trkpt lat="42.68818" lon="1.42217">
        <ele>1899.22168</ele>
        <time>2012-08-07T08:43:24Z</time>
      </trkpt>
      <trkpt lat="42.68808" lon="1.42213">
        <ele>1904.028564</ele>
        <time>2012-08-07T08:43:44Z</time>
      </trkpt>
      <trkpt lat="42.68802" lon="1.4221">
        <ele>1905.950928</ele>
        <time>2012-08-07T08:44:04Z</time>
      </trkpt>
      <trkpt lat="42.68792" lon="1.42206">
        <ele>1909.315674</ele>
        <time>2012-08-07T08:44:27Z</time>
      </trkpt>
      <trkpt lat="42.68784" lon="1.42203">
        <ele>1911.718994</ele>
        <time>2012-08-07T08:44:46Z</time>
      </trkpt>
      <trkpt lat="42.68775" lon="1.422">
        <ele>1913.641357</ele>
        <time>2012-08-07T08:45:00Z</time>
      </trkpt>
      <trkpt lat="42.68773" lon="1.42203">
        <ele>1914.602783</ele>
        <time>2012-08-07T08:45:05Z</time>
      </trkpt>
      <trkpt lat="42.68771" lon="1.4221">
        <ele>1915.564209</ele>
        <time>2012-08-07T08:45:12Z</time>
      </trkpt>
      <trkpt lat="42.6876" lon="1.42214">
        <ele>1916.525635</ele>
        <time>2012-08-07T08:45:27Z</time>
      </trkpt>
      <trkpt lat="42.68749" lon="1.42208">
        <ele>1916.525635</ele>
        <time>2012-08-07T08:45:42Z</time>
      </trkpt>
      <trkpt lat="42.6874" lon="1.42207">
        <ele>1917.006348</ele>
        <time>2012-08-07T08:45:55Z</time>
      </trkpt>
      <trkpt lat="42.68733" lon="1.42201">
        <ele>1917.486816</ele>
        <time>2012-08-07T08:46:07Z</time>
      </trkpt>
      <trkpt lat="42.68725" lon="1.42202">
        <ele>1918.928955</ele>
        <time>2012-08-07T08:46:22Z</time>
      </trkpt>
      <trkpt lat="42.68718" lon="1.42202">
        <ele>1920.851562</ele>
        <time>2012-08-07T08:46:32Z</time>
      </trkpt>
      <trkpt lat="42.68714" lon="1.42204">
        <ele>1921.812744</ele>
        <time>2012-08-07T08:46:39Z</time>
      </trkpt>
      <trkpt lat="42.6871" lon="1.42205">
        <ele>1922.293457</ele>
        <time>2012-08-07T08:46:43Z</time>
      </trkpt>
      <trkpt lat="42.68701" lon="1.42199">
        <ele>1923.735352</ele>
        <time>2012-08-07T08:46:56Z</time>
      </trkpt>
      <trkpt lat="42.68694" lon="1.42195">
        <ele>1924.696777</ele>
        <time>2012-08-07T08:47:11Z</time>
      </trkpt>
      <trkpt lat="42.68689" lon="1.42195">
        <ele>1925.657959</ele>
        <time>2012-08-07T08:47:25Z</time>
      </trkpt>
      <trkpt lat="42.68683" lon="1.42197">
        <ele>1926.619385</ele>
        <time>2012-08-07T08:47:33Z</time>
      </trkpt>
      <trkpt lat="42.68675" lon="1.42189">
        <ele>1927.580566</ele>
        <time>2012-08-07T08:47:52Z</time>
      </trkpt>
      <trkpt lat="42.68663" lon="1.42196">
        <ele>1932.387451</ele>
        <time>2012-08-07T08:48:16Z</time>
      </trkpt>
      <trkpt lat="42.68662" lon="1.42195">
        <ele>1932.86792</ele>
        <time>2012-08-07T08:48:20Z</time>
      </trkpt>
      <trkpt lat="42.68654" lon="1.422">
        <ele>1937.674561</ele>
        <time>2012-08-07T08:48:35Z</time>
      </trkpt>
      <trkpt lat="42.68652" lon="1.42201">
        <ele>1938.155273</ele>
        <time>2012-08-07T08:48:37Z</time>
      </trkpt>
      <trkpt lat="42.68642" lon="1.42204">
        <ele>1938.635986</ele>
        <time>2012-08-07T08:48:51Z</time>
      </trkpt>
      <trkpt lat="42.68636" lon="1.42207">
        <ele>1939.597168</ele>
        <time>2012-08-07T08:48:59Z</time>
      </trkpt>
      <trkpt lat="42.68625" lon="1.42212">
        <ele>1942.481201</ele>
        <time>2012-08-07T08:49:13Z</time>
      </trkpt>
      <trkpt lat="42.68617" lon="1.42212">
        <ele>1944.403564</ele>
        <time>2012-08-07T08:49:27Z</time>
      </trkpt>
      <trkpt lat="42.68608" lon="1.42212">
        <ele>1945.36499</ele>
        <time>2012-08-07T08:49:43Z</time>
      </trkpt>
      <trkpt lat="42.68608" lon="1.42212">
        <ele>1945.845703</ele>
        <time>2012-08-07T08:49:44Z</time>
      </trkpt>
      <trkpt lat="42.68604" lon="1.42211">
        <ele>1946.806885</ele>
        <time>2012-08-07T08:49:48Z</time>
      </trkpt>
      <trkpt lat="42.68592" lon="1.42211">
        <ele>1948.729736</ele>
        <time>2012-08-07T08:50:01Z</time>
      </trkpt>
      <trkpt lat="42.68591" lon="1.42211">
        <ele>1948.729736</ele>
        <time>2012-08-07T08:50:02Z</time>
      </trkpt>
      <trkpt lat="42.68583" lon="1.42209">
        <ele>1947.768311</ele>
        <time>2012-08-07T08:50:11Z</time>
      </trkpt>
      <trkpt lat="42.68574" lon="1.42208">
        <ele>1947.768311</ele>
        <time>2012-08-07T08:50:19Z</time>
      </trkpt>
      <trkpt lat="42.68566" lon="1.42206">
        <ele>1948.249023</ele>
        <time>2012-08-07T08:50:26Z</time>
      </trkpt>
      <trkpt lat="42.68556" lon="1.42206">
        <ele>1949.691162</ele>
        <time>2012-08-07T08:50:39Z</time>
      </trkpt>
      <trkpt lat="42.68544" lon="1.42207">
        <ele>1951.133057</ele>
        <time>2012-08-07T08:50:53Z</time>
      </trkpt>
      <trkpt lat="42.68543" lon="1.42206">
        <ele>1951.61377</ele>
        <time>2012-08-07T08:50:55Z</time>
      </trkpt>
      <trkpt lat="42.68533" lon="1.42206">
        <ele>1951.133057</ele>
        <time>2012-08-07T08:51:08Z</time>
      </trkpt>
      <trkpt lat="42.68523" lon="1.42207">
        <ele>1952.094238</ele>
        <time>2012-08-07T08:51:18Z</time>
      </trkpt>
      <trkpt lat="42.68512" lon="1.42205">
        <ele>1954.01709</ele>
        <time>2012-08-07T08:51:31Z</time>
      </trkpt>
      <trkpt lat="42.68499" lon="1.42201">
        <ele>1956.900879</ele>
        <time>2012-08-07T08:51:45Z</time>
      </trkpt>
      <trkpt lat="42.68487" lon="1.42197">
        <ele>1958.823486</ele>
        <time>2012-08-07T08:52:00Z</time>
      </trkpt>
      <trkpt lat="42.68482" lon="1.42191">
        <ele>1958.823486</ele>
        <time>2012-08-07T08:52:07Z</time>
      </trkpt>
      <trkpt lat="42.68471" lon="1.42186">
        <ele>1959.784668</ele>
        <time>2012-08-07T08:52:19Z</time>
      </trkpt>
      <trkpt lat="42.68462" lon="1.42179">
        <ele>1960.746094</ele>
        <time>2012-08-07T08:52:33Z</time>
      </trkpt>
      <trkpt lat="42.68462" lon="1.42176">
        <ele>1961.226807</ele>
        <time>2012-08-07T08:54:37Z</time>
      </trkpt>
      <trkpt lat="42.68462" lon="1.42173">
        <ele>1960.746094</ele>
        <time>2012-08-07T08:57:13Z</time>
      </trkpt>
      <trkpt lat="42.68455" lon="1.42173">
        <ele>1960.746094</ele>
        <time>2012-08-07T08:59:01Z</time>
      </trkpt>
      <trkpt lat="42.68455" lon="1.42169">
        <ele>1960.265381</ele>
        <time>2012-08-07T08:59:16Z</time>
      </trkpt>
      <trkpt lat="42.6845" lon="1.42168">
        <ele>1960.746094</ele>
        <time>2012-08-07T08:59:20Z</time>
      </trkpt>
      <trkpt lat="42.68445" lon="1.42157">
        <ele>1961.70752</ele>
        <time>2012-08-07T08:59:33Z</time>
      </trkpt>
      <trkpt lat="42.68442" lon="1.42119">
        <ele>1968.91748</ele>
        <time>2012-08-07T09:00:26Z</time>
      </trkpt>
      <trkpt lat="42.68427" lon="1.42099">
        <ele>1980.934082</ele>
        <time>2012-08-07T09:01:24Z</time>
      </trkpt>
      <trkpt lat="42.68426" lon="1.42084">
        <ele>1983.817871</ele>
        <time>2012-08-07T09:01:56Z</time>
      </trkpt>
      <trkpt lat="42.68426" lon="1.42069">
        <ele>1986.70166</ele>
        <time>2012-08-07T09:02:18Z</time>
      </trkpt>
      <trkpt lat="42.68426" lon="1.42064">
        <ele>1988.624512</ele>
        <time>2012-08-07T09:02:26Z</time>
      </trkpt>
      <trkpt lat="42.68428" lon="1.42052">
        <ele>1992.469727</ele>
        <time>2012-08-07T09:02:46Z</time>
      </trkpt>
      <trkpt lat="42.68407" lon="1.42023">
        <ele>2009.292725</ele>
        <time>2012-08-07T09:04:45Z</time>
      </trkpt>
      <trkpt lat="42.68397" lon="1.42022">
        <ele>2011.696045</ele>
        <time>2012-08-07T09:05:02Z</time>
      </trkpt>
      <trkpt lat="42.68386" lon="1.42007">
        <ele>2016.502686</ele>
        <time>2012-08-07T09:05:45Z</time>
      </trkpt>
      <trkpt lat="42.68367" lon="1.41989">
        <ele>2025.154297</ele>
        <time>2012-08-07T09:06:45Z</time>
      </trkpt>
      <trkpt lat="42.68351" lon="1.41983">
        <ele>2034.287109</ele>
        <time>2012-08-07T09:07:25Z</time>
      </trkpt>
      <trkpt lat="42.68349" lon="1.4198">
        <ele>2035.248291</ele>
        <time>2012-08-07T09:07:30Z</time>
      </trkpt>
      <trkpt lat="42.6834" lon="1.41976">
        <ele>2038.613037</ele>
        <time>2012-08-07T09:07:46Z</time>
      </trkpt>
      <trkpt lat="42.6833" lon="1.41976">
        <ele>2041.016113</ele>
        <time>2012-08-07T09:08:00Z</time>
      </trkpt>
      <trkpt lat="42.68322" lon="1.41972">
        <ele>2043.419434</ele>
        <time>2012-08-07T09:08:28Z</time>
      </trkpt>
      <trkpt lat="42.6833" lon="1.41957">
        <ele>2048.226074</ele>
        <time>2012-08-07T09:08:57Z</time>
      </trkpt>
      <trkpt lat="42.68336" lon="1.41946">
        <ele>2052.552002</ele>
        <time>2012-08-07T09:09:28Z</time>
      </trkpt>
      <trkpt lat="42.68334" lon="1.41932">
        <ele>2056.87793</ele>
        <time>2012-08-07T09:10:04Z</time>
      </trkpt>
      <trkpt lat="42.68326" lon="1.41924">
        <ele>2060.242676</ele>
        <time>2012-08-07T09:10:46Z</time>
      </trkpt>
      <trkpt lat="42.68333" lon="1.41911">
        <ele>2061.204102</ele>
        <time>2012-08-07T09:11:15Z</time>
      </trkpt>
      <trkpt lat="42.68327" lon="1.41893">
        <ele>2071.77832</ele>
        <time>2012-08-07T09:12:15Z</time>
      </trkpt>
      <trkpt lat="42.68316" lon="1.4189">
        <ele>2077.065918</ele>
        <time>2012-08-07T09:12:47Z</time>
      </trkpt>
      <trkpt lat="42.68308" lon="1.41877">
        <ele>2081.391602</ele>
        <time>2012-08-07T09:13:26Z</time>
      </trkpt>
      <trkpt lat="42.68289" lon="1.41874">
        <ele>2101.579346</ele>
        <time>2012-08-07T09:16:13Z</time>
      </trkpt>
      <trkpt lat="42.68281" lon="1.41875">
        <ele>2107.347168</ele>
        <time>2012-08-07T09:16:48Z</time>
      </trkpt>
      <trkpt lat="42.68272" lon="1.41875">
        <ele>2116.479736</ele>
        <time>2012-08-07T09:17:25Z</time>
      </trkpt>
      <trkpt lat="42.6826" lon="1.41873">
        <ele>2124.651123</ele>
        <time>2012-08-07T09:18:08Z</time>
      </trkpt>
      <trkpt lat="42.68251" lon="1.41869">
        <ele>2126.093018</ele>
        <time>2012-08-07T09:18:24Z</time>
      </trkpt>
      <trkpt lat="42.68232" lon="1.41864">
        <ele>2144.838623</ele>
        <time>2012-08-07T09:19:50Z</time>
      </trkpt>
      <trkpt lat="42.6821" lon="1.41853">
        <ele>2148.683838</ele>
        <time>2012-08-07T09:21:16Z</time>
      </trkpt>
      <trkpt lat="42.68199" lon="1.41851">
        <ele>2154.45166</ele>
        <time>2012-08-07T09:21:45Z</time>
      </trkpt>
      <trkpt lat="42.68194" lon="1.41849">
        <ele>2159.739014</ele>
        <time>2012-08-07T09:22:01Z</time>
      </trkpt>
      <trkpt lat="42.68191" lon="1.41848">
        <ele>2162.623047</ele>
        <time>2012-08-07T09:22:18Z</time>
      </trkpt>
      <trkpt lat="42.68185" lon="1.41847">
        <ele>2167.910156</ele>
        <time>2012-08-07T09:22:40Z</time>
      </trkpt>
      <trkpt lat="42.68174" lon="1.41844">
        <ele>2176.081543</ele>
        <time>2012-08-07T09:23:04Z</time>
      </trkpt>
      <trkpt lat="42.68168" lon="1.41843">
        <ele>2178.00415</ele>
        <time>2012-08-07T09:23:25Z</time>
      </trkpt>
      <trkpt lat="42.6816" lon="1.41843">
        <ele>2177.523438</ele>
        <time>2012-08-07T09:23:46Z</time>
      </trkpt>
      <trkpt lat="42.68153" lon="1.41842">
        <ele>2180.407471</ele>
        <time>2012-08-07T09:24:05Z</time>
      </trkpt>
      <trkpt lat="42.68153" lon="1.41838">
        <ele>2181.368652</ele>
        <time>2012-08-07T09:24:27Z</time>
      </trkpt>
      <trkpt lat="42.68147" lon="1.41835">
        <ele>2187.136475</ele>
        <time>2012-08-07T09:24:47Z</time>
      </trkpt>
      <trkpt lat="42.68142" lon="1.41833">
        <ele>2189.540039</ele>
        <time>2012-08-07T09:25:05Z</time>
      </trkpt>
      <trkpt lat="42.68139" lon="1.41828">
        <ele>2191.943359</ele>
        <time>2012-08-07T09:25:22Z</time>
      </trkpt>
      <trkpt lat="42.6813" lon="1.4182">
        <ele>2194.346436</ele>
        <time>2012-08-07T09:25:41Z</time>
      </trkpt>
      <trkpt lat="42.68126" lon="1.41818">
        <ele>2195.307861</ele>
        <time>2012-08-07T09:26:05Z</time>
      </trkpt>
      <trkpt lat="42.68123" lon="1.41815">
        <ele>2197.230469</ele>
        <time>2012-08-07T09:26:26Z</time>
      </trkpt>
      <trkpt lat="42.6812" lon="1.41809">
        <ele>2202.036865</ele>
        <time>2012-08-07T09:26:51Z</time>
      </trkpt>
      <trkpt lat="42.68117" lon="1.41806">
        <ele>2204.921143</ele>
        <time>2012-08-07T09:27:13Z</time>
      </trkpt>
      <trkpt lat="42.6811" lon="1.41804">
        <ele>2208.285645</ele>
        <time>2012-08-07T09:27:37Z</time>
      </trkpt>
      <trkpt lat="42.68105" lon="1.41803">
        <ele>2210.688965</ele>
        <time>2012-08-07T09:27:57Z</time>
      </trkpt>
      <trkpt lat="42.68103" lon="1.41799">
        <ele>2210.688965</ele>
        <time>2012-08-07T09:28:15Z</time>
      </trkpt>
      <trkpt lat="42.68103" lon="1.41795">
        <ele>2213.092285</ele>
        <time>2012-08-07T09:28:38Z</time>
      </trkpt>
      <trkpt lat="42.68095" lon="1.41789">
        <ele>2215.014893</ele>
        <time>2012-08-07T09:28:53Z</time>
      </trkpt>
      <trkpt lat="42.68091" lon="1.41784">
        <ele>2217.417969</ele>
        <time>2012-08-07T09:29:26Z</time>
      </trkpt>
      <trkpt lat="42.68089" lon="1.41779">
        <ele>2218.379395</ele>
        <time>2012-08-07T09:29:44Z</time>
      </trkpt>
      <trkpt lat="42.68084" lon="1.41775">
        <ele>2221.744141</ele>
        <time>2012-08-07T09:29:58Z</time>
      </trkpt>
      <trkpt lat="42.68076" lon="1.41768">
        <ele>2223.186279</ele>
        <time>2012-08-07T09:30:13Z</time>
      </trkpt>
      <trkpt lat="42.68065" lon="1.41759">
        <ele>2229.43457</ele>
        <time>2012-08-07T09:30:46Z</time>
      </trkpt>
      <trkpt lat="42.68055" lon="1.41756">
        <ele>2231.837891</ele>
        <time>2012-08-07T09:31:12Z</time>
      </trkpt>
      <trkpt lat="42.68048" lon="1.41753">
        <ele>2231.837891</ele>
        <time>2012-08-07T09:31:36Z</time>
      </trkpt>
      <trkpt lat="42.68044" lon="1.41748">
        <ele>2235.202393</ele>
        <time>2012-08-07T09:31:55Z</time>
      </trkpt>
      <trkpt lat="42.68041" lon="1.41747">
        <ele>2238.567383</ele>
        <time>2012-08-07T09:32:42Z</time>
      </trkpt>
      <trkpt lat="42.68036" lon="1.4175">
        <ele>2237.125244</ele>
        <time>2012-08-07T09:33:12Z</time>
      </trkpt>
      <trkpt lat="42.68036" lon="1.41754">
        <ele>2240.489746</ele>
        <time>2012-08-07T09:39:50Z</time>
      </trkpt>
      <trkpt lat="42.68036" lon="1.41752">
        <ele>2240.489746</ele>
        <time>2012-08-07T09:43:09Z</time>
      </trkpt>
      <trkpt lat="42.68036" lon="1.41751">
        <ele>2240.009277</ele>
        <time>2012-08-07T09:43:24Z</time>
      </trkpt>
      <trkpt lat="42.68034" lon="1.41755">
        <ele>2239.528564</ele>
        <time>2012-08-07T09:43:46Z</time>
      </trkpt>
      <trkpt lat="42.68029" lon="1.41758">
        <ele>2240.489746</ele>
        <time>2012-08-07T09:44:10Z</time>
      </trkpt>
      <trkpt lat="42.68024" lon="1.41765">
        <ele>2240.970459</ele>
        <time>2012-08-07T09:44:21Z</time>
      </trkpt>
      <trkpt lat="42.68015" lon="1.41773">
        <ele>2244.334961</ele>
        <time>2012-08-07T09:44:47Z</time>
      </trkpt>
      <trkpt lat="42.68009" lon="1.41774">
        <ele>2249.141602</ele>
        <time>2012-08-07T09:45:25Z</time>
      </trkpt>
      <trkpt lat="42.67999" lon="1.41772">
        <ele>2249.622314</ele>
        <time>2012-08-07T09:45:51Z</time>
      </trkpt>
      <trkpt lat="42.67989" lon="1.41773">
        <ele>2252.987061</ele>
        <time>2012-08-07T09:46:14Z</time>
      </trkpt>
      <trkpt lat="42.67979" lon="1.41775">
        <ele>2256.832275</ele>
        <time>2012-08-07T09:46:43Z</time>
      </trkpt>
      <trkpt lat="42.67959" lon="1.41785">
        <ele>2273.174805</ele>
        <time>2012-08-07T09:47:52Z</time>
      </trkpt>
      <trkpt lat="42.67962" lon="1.4178">
        <ele>2287.11377</ele>
        <time>2012-08-07T09:48:59Z</time>
      </trkpt>
      <trkpt lat="42.67958" lon="1.41772">
        <ele>2290.478271</ele>
        <time>2012-08-07T09:50:03Z</time>
      </trkpt>
      <trkpt lat="42.67955" lon="1.41771">
        <ele>2292.401123</ele>
        <time>2012-08-07T09:50:34Z</time>
      </trkpt>
      <trkpt lat="42.67951" lon="1.41772">
        <ele>2292.881592</ele>
        <time>2012-08-07T09:50:39Z</time>
      </trkpt>
      <trkpt lat="42.67949" lon="1.41771">
        <ele>2293.843018</ele>
        <time>2012-08-07T09:50:48Z</time>
      </trkpt>
      <trkpt lat="42.67948" lon="1.4177">
        <ele>2298.649414</ele>
        <time>2012-08-07T09:51:05Z</time>
      </trkpt>
      <trkpt lat="42.67943" lon="1.41775">
        <ele>2305.859375</ele>
        <time>2012-08-07T09:51:21Z</time>
      </trkpt>
      <trkpt lat="42.67932" lon="1.41778">
        <ele>2314.51123</ele>
        <time>2012-08-07T09:52:55Z</time>
      </trkpt>
      <trkpt lat="42.67922" lon="1.41766">
        <ele>2318.837402</ele>
        <time>2012-08-07T09:53:40Z</time>
      </trkpt>
      <trkpt lat="42.67921" lon="1.41757">
        <ele>2325.085693</ele>
        <time>2012-08-07T09:54:18Z</time>
      </trkpt>
      <trkpt lat="42.67912" lon="1.41762">
        <ele>2330.85376</ele>
        <time>2012-08-07T09:55:07Z</time>
      </trkpt>
      <trkpt lat="42.67906" lon="1.41746">
        <ele>2337.583008</ele>
        <time>2012-08-07T09:56:57Z</time>
      </trkpt>
      <trkpt lat="42.67904" lon="1.4174">
        <ele>2342.870117</ele>
        <time>2012-08-07T09:57:24Z</time>
      </trkpt>
      <trkpt lat="42.67899" lon="1.41743">
        <ele>2347.196045</ele>
        <time>2012-08-07T09:57:50Z</time>
      </trkpt>
      <trkpt lat="42.67894" lon="1.41747">
        <ele>2350.080322</ele>
        <time>2012-08-07T09:58:09Z</time>
      </trkpt>
      <trkpt lat="42.67888" lon="1.41737">
        <ele>2352.483398</ele>
        <time>2012-08-07T09:58:53Z</time>
      </trkpt>
      <trkpt lat="42.6788" lon="1.41734">
        <ele>2358.731934</ele>
        <time>2012-08-07T09:59:16Z</time>
      </trkpt>
      <trkpt lat="42.67884" lon="1.41724">
        <ele>2363.057861</ele>
        <time>2012-08-07T09:59:36Z</time>
      </trkpt>
      <trkpt lat="42.6788" lon="1.41717">
        <ele>2363.53833</ele>
        <time>2012-08-07T09:59:55Z</time>
      </trkpt>
      <trkpt lat="42.67871" lon="1.41704">
        <ele>2366.90332</ele>
        <time>2012-08-07T10:00:33Z</time>
      </trkpt>
      <trkpt lat="42.6787" lon="1.41701">
        <ele>2369.306641</ele>
        <time>2012-08-07T10:00:55Z</time>
      </trkpt>
      <trkpt lat="42.67874" lon="1.41682">
        <ele>2375.554932</ele>
        <time>2012-08-07T10:01:22Z</time>
      </trkpt>
      <trkpt lat="42.67865" lon="1.4167">
        <ele>2381.322998</ele>
        <time>2012-08-07T10:02:34Z</time>
      </trkpt>
      <trkpt lat="42.67855" lon="1.41666">
        <ele>2391.897461</ele>
        <time>2012-08-07T10:03:14Z</time>
      </trkpt>
      <trkpt lat="42.67861" lon="1.41662">
        <ele>2403.914062</ele>
        <time>2012-08-07T10:03:36Z</time>
      </trkpt>
      <trkpt lat="42.67859" lon="1.41652">
        <ele>2403.914062</ele>
        <time>2012-08-07T10:04:00Z</time>
      </trkpt>
      <trkpt lat="42.67864" lon="1.41639">
        <ele>2403.914062</ele>
        <time>2012-08-07T10:04:21Z</time>
      </trkpt>
      <trkpt lat="42.67863" lon="1.41624">
        <ele>2405.355957</ele>
        <time>2012-08-07T10:04:51Z</time>
      </trkpt>
      <trkpt lat="42.67865" lon="1.41615">
        <ele>2409.681641</ele>
        <time>2012-08-07T10:05:15Z</time>
      </trkpt>
      <trkpt lat="42.67868" lon="1.41611">
        <ele>2418.33374</ele>
        <time>2012-08-07T10:05:32Z</time>
      </trkpt>
      <trkpt lat="42.67867" lon="1.41597">
        <ele>2429.869629</ele>
        <time>2012-08-07T10:06:36Z</time>
      </trkpt>
      <trkpt lat="42.67871" lon="1.41573">
        <ele>2431.792236</ele>
        <time>2012-08-07T10:08:07Z</time>
      </trkpt>
      <trkpt lat="42.67875" lon="1.41565">
        <ele>2430.831055</ele>
        <time>2012-08-07T10:08:32Z</time>
      </trkpt>
      <trkpt lat="42.67892" lon="1.41553">
        <ele>2431.311523</ele>
        <time>2012-08-07T10:09:34Z</time>
      </trkpt>
      <trkpt lat="42.67916" lon="1.41532">
        <ele>2439.482666</ele>
        <time>2012-08-07T10:10:27Z</time>
      </trkpt>
      <trkpt lat="42.67918" lon="1.4153">
        <ele>2439.963379</ele>
        <time>2012-08-07T10:10:29Z</time>
      </trkpt>
      <trkpt lat="42.67922" lon="1.41521">
        <ele>2441.885986</ele>
        <time>2012-08-07T10:10:49Z</time>
      </trkpt>
      <trkpt lat="42.67931" lon="1.41512">
        <ele>2445.250732</ele>
        <time>2012-08-07T10:11:04Z</time>
      </trkpt>
      <trkpt lat="42.67942" lon="1.41506">
        <ele>2450.537842</ele>
        <time>2012-08-07T10:11:24Z</time>
      </trkpt>
      <trkpt lat="42.67937" lon="1.41496">
        <ele>2457.747803</ele>
        <time>2012-08-07T10:16:20Z</time>
      </trkpt>
      <trkpt lat="42.67935" lon="1.4149">
        <ele>2462.07373</ele>
        <time>2012-08-07T10:16:57Z</time>
      </trkpt>
      <trkpt lat="42.67928" lon="1.41481">
        <ele>2465.438477</ele>
        <time>2012-08-07T10:17:34Z</time>
      </trkpt>
      <trkpt lat="42.67925" lon="1.41476">
        <ele>2471.206055</ele>
        <time>2012-08-07T10:17:52Z</time>
      </trkpt>
      <trkpt lat="42.67921" lon="1.41475">
        <ele>2475.531982</ele>
        <time>2012-08-07T10:18:09Z</time>
      </trkpt>
      <trkpt lat="42.67918" lon="1.4147">
        <ele>2480.81958</ele>
        <time>2012-08-07T10:18:51Z</time>
      </trkpt>
      <trkpt lat="42.67916" lon="1.4147">
        <ele>2481.300049</ele>
        <time>2012-08-07T10:18:54Z</time>
      </trkpt>
      <trkpt lat="42.67913" lon="1.4147">
        <ele>2482.261475</ele>
        <time>2012-08-07T10:18:59Z</time>
      </trkpt>
      <trkpt lat="42.67911" lon="1.41474">
        <ele>2483.703369</ele>
        <time>2012-08-07T10:19:04Z</time>
      </trkpt>
      <trkpt lat="42.67909" lon="1.41472">
        <ele>2486.106689</ele>
        <time>2012-08-07T10:19:40Z</time>
      </trkpt>
      <trkpt lat="42.67908" lon="1.41472">
        <ele>2487.067871</ele>
        <time>2012-08-07T10:19:51Z</time>
      </trkpt>
      <trkpt lat="42.67904" lon="1.41477">
        <ele>2489.471191</ele>
        <time>2012-08-07T10:20:09Z</time>
      </trkpt>
      <trkpt lat="42.67898" lon="1.41478">
        <ele>2491.393799</ele>
        <time>2012-08-07T10:20:38Z</time>
      </trkpt>
      <trkpt lat="42.67897" lon="1.41471">
        <ele>2494.277832</ele>
        <time>2012-08-07T10:21:17Z</time>
      </trkpt>
      <trkpt lat="42.67896" lon="1.41468">
        <ele>2495.719971</ele>
        <time>2012-08-07T10:21:39Z</time>
      </trkpt>
      <trkpt lat="42.67896" lon="1.41468">
        <ele>2495.719971</ele>
        <time>2012-08-07T10:21:45Z</time>
      </trkpt>
      <trkpt lat="42.6789" lon="1.41464">
        <ele>2498.60376</ele>
        <time>2012-08-07T10:22:08Z</time>
      </trkpt>
      <trkpt lat="42.67888" lon="1.41456">
        <ele>2504.371582</ele>
        <time>2012-08-07T10:22:36Z</time>
      </trkpt>
      <trkpt lat="42.67888" lon="1.41451">
        <ele>2505.333008</ele>
        <time>2012-08-07T10:23:02Z</time>
      </trkpt>
      <trkpt lat="42.67893" lon="1.41441">
        <ele>2509.178467</ele>
        <time>2012-08-07T10:23:44Z</time>
      </trkpt>
      <trkpt lat="42.67892" lon="1.41438">
        <ele>2510.139648</ele>
        <time>2012-08-07T10:23:57Z</time>
      </trkpt>
      <trkpt lat="42.67887" lon="1.41429">
        <ele>2515.427002</ele>
        <time>2012-08-07T10:24:14Z</time>
      </trkpt>
      <trkpt lat="42.67887" lon="1.41429">
        <ele>2515.427002</ele>
        <time>2012-08-07T10:24:15Z</time>
      </trkpt>
      <trkpt lat="42.67882" lon="1.41424">
        <ele>2521.675293</ele>
        <time>2012-08-07T10:24:40Z</time>
      </trkpt>
      <trkpt lat="42.67877" lon="1.41406">
        <ele>2526.482178</ele>
        <time>2012-08-07T10:25:10Z</time>
      </trkpt>
      <trkpt lat="42.67867" lon="1.41401">
        <ele>2529.365967</ele>
        <time>2012-08-07T10:25:40Z</time>
      </trkpt>
      <trkpt lat="42.67863" lon="1.41401">
        <ele>2529.84668</ele>
        <time>2012-08-07T10:25:47Z</time>
      </trkpt>
      <trkpt lat="42.67855" lon="1.41401">
        <ele>2531.288574</ele>
        <time>2012-08-07T10:26:01Z</time>
      </trkpt>
      <trkpt lat="42.67851" lon="1.41399">
        <ele>2531.769287</ele>
        <time>2012-08-07T10:26:06Z</time>
      </trkpt>
      <trkpt lat="42.67843" lon="1.41391">
        <ele>2534.172607</ele>
        <time>2012-08-07T10:26:27Z</time>
      </trkpt>
      <trkpt lat="42.6783" lon="1.41378">
        <ele>2535.133789</ele>
        <time>2012-08-07T10:27:19Z</time>
      </trkpt>
      <trkpt lat="42.67817" lon="1.41378">
        <ele>2539.459717</ele>
        <time>2012-08-07T10:28:18Z</time>
      </trkpt>
      <trkpt lat="42.67814" lon="1.41376">
        <ele>2541.382568</ele>
        <time>2012-08-07T10:28:55Z</time>
      </trkpt>
      <trkpt lat="42.67812" lon="1.41375">
        <ele>2541.863281</ele>
        <time>2012-08-07T10:28:57Z</time>
      </trkpt>
      <trkpt lat="42.67801" lon="1.41371">
        <ele>2546.189209</ele>
        <time>2012-08-07T10:29:11Z</time>
      </trkpt>
      <trkpt lat="42.67795" lon="1.41367">
        <ele>2549.072998</ele>
        <time>2012-08-07T10:29:27Z</time>
      </trkpt>
      <trkpt lat="42.67785" lon="1.41363">
        <ele>2551.476318</ele>
        <time>2012-08-07T10:29:47Z</time>
      </trkpt>
      <trkpt lat="42.67776" lon="1.41367">
        <ele>2555.321533</ele>
        <time>2012-08-07T10:30:14Z</time>
      </trkpt>
      <trkpt lat="42.6777" lon="1.41378">
        <ele>2563.492676</ele>
        <time>2012-08-07T10:30:48Z</time>
      </trkpt>
      <trkpt lat="42.67764" lon="1.41382">
        <ele>2567.337891</ele>
        <time>2012-08-07T10:31:00Z</time>
      </trkpt>
      <trkpt lat="42.67762" lon="1.41387">
        <ele>2567.818604</ele>
        <time>2012-08-07T10:31:07Z</time>
      </trkpt>
      <trkpt lat="42.67755" lon="1.41402">
        <ele>2568.299316</ele>
        <time>2012-08-07T10:31:21Z</time>
      </trkpt>
      <trkpt lat="42.67749" lon="1.41413">
        <ele>2568.780029</ele>
        <time>2012-08-07T10:31:32Z</time>
      </trkpt>
      <trkpt lat="42.67741" lon="1.41419">
        <ele>2569.260742</ele>
        <time>2012-08-07T10:31:46Z</time>
      </trkpt>
      <trkpt lat="42.67742" lon="1.41421">
        <ele>2569.260742</ele>
        <time>2012-08-07T10:31:48Z</time>
      </trkpt>
      <trkpt lat="42.67742" lon="1.41428">
        <ele>2570.702637</ele>
        <time>2012-08-07T10:32:00Z</time>
      </trkpt>
      <trkpt lat="42.67728" lon="1.41427">
        <ele>2571.663818</ele>
        <time>2012-08-07T10:32:15Z</time>
      </trkpt>
      <trkpt lat="42.67721" lon="1.41422">
        <ele>2574.067383</ele>
        <time>2012-08-07T10:32:27Z</time>
      </trkpt>
      <trkpt lat="42.6771" lon="1.41413">
        <ele>2574.548096</ele>
        <time>2012-08-07T10:32:40Z</time>
      </trkpt>
      <trkpt lat="42.677" lon="1.41408">
        <ele>2575.509277</ele>
        <time>2012-08-07T10:32:56Z</time>
      </trkpt>
      <trkpt lat="42.67691" lon="1.41411">
        <ele>2577.912598</ele>
        <time>2012-08-07T10:33:12Z</time>
      </trkpt>
      <trkpt lat="42.67691" lon="1.41415">
        <ele>2578.873779</ele>
        <time>2012-08-07T10:33:16Z</time>
      </trkpt>
      <trkpt lat="42.67681" lon="1.41418">
        <ele>2580.796631</ele>
        <time>2012-08-07T10:33:35Z</time>
      </trkpt>
      <trkpt lat="42.67671" lon="1.41419">
        <ele>2580.315918</ele>
        <time>2012-08-07T10:34:03Z</time>
      </trkpt>
      <trkpt lat="42.67669" lon="1.41418">
        <ele>2580.315918</ele>
        <time>2012-08-07T10:34:05Z</time>
      </trkpt>
      <trkpt lat="42.67658" lon="1.41415">
        <ele>2577.431885</ele>
        <time>2012-08-07T10:34:24Z</time>
      </trkpt>
      <trkpt lat="42.67654" lon="1.41412">
        <ele>2575.98999</ele>
        <time>2012-08-07T10:34:36Z</time>
      </trkpt>
      <trkpt lat="42.67639" lon="1.41412">
        <ele>2580.315918</ele>
        <time>2012-08-07T10:34:51Z</time>
      </trkpt>
      <trkpt lat="42.67639" lon="1.41415">
        <ele>2581.757812</ele>
        <time>2012-08-07T10:35:14Z</time>
      </trkpt>
      <trkpt lat="42.67639" lon="1.41419">
        <ele>2582.238525</ele>
        <time>2012-08-07T10:35:26Z</time>
      </trkpt>
      <trkpt lat="42.67645" lon="1.41431">
        <ele>2582.718994</ele>
        <time>2012-08-07T10:35:46Z</time>
      </trkpt>
      <trkpt lat="42.67647" lon="1.41432">
        <ele>2582.718994</ele>
        <time>2012-08-07T10:35:48Z</time>
      </trkpt>
      <trkpt lat="42.6764" lon="1.41437">
        <ele>2587.525635</ele>
        <time>2012-08-07T10:36:25Z</time>
      </trkpt>
      <trkpt lat="42.67613" lon="1.41423">
        <ele>2594.254883</ele>
        <time>2012-08-07T10:37:48Z</time>
      </trkpt>
      <trkpt lat="42.67609" lon="1.41413">
        <ele>2597.138672</ele>
        <time>2012-08-07T10:38:04Z</time>
      </trkpt>
      <trkpt lat="42.67605" lon="1.41401">
        <ele>2599.061523</ele>
        <time>2012-08-07T10:38:32Z</time>
      </trkpt>
      <trkpt lat="42.67603" lon="1.41398">
        <ele>2600.022949</ele>
        <time>2012-08-07T10:39:13Z</time>
      </trkpt>
      <trkpt lat="42.67603" lon="1.41398">
        <ele>2600.984375</ele>
        <time>2012-08-07T10:39:54Z</time>
      </trkpt>
      <trkpt lat="42.67603" lon="1.414">
        <ele>2601.945312</ele>
        <time>2012-08-07T10:40:38Z</time>
      </trkpt>
      <trkpt lat="42.67601" lon="1.41396">
        <ele>2602.42627</ele>
        <time>2012-08-07T10:40:44Z</time>
      </trkpt>
      <trkpt lat="42.67597" lon="1.41394">
        <ele>2601.945312</ele>
        <time>2012-08-07T10:40:48Z</time>
      </trkpt>
      <trkpt lat="42.67593" lon="1.41389">
        <ele>2604.829102</ele>
        <time>2012-08-07T10:41:07Z</time>
      </trkpt>
      <trkpt lat="42.67585" lon="1.4139">
        <ele>2610.116699</ele>
        <time>2012-08-07T10:41:28Z</time>
      </trkpt>
      <trkpt lat="42.67582" lon="1.41388">
        <ele>2612.039551</ele>
        <time>2012-08-07T10:41:37Z</time>
      </trkpt>
      <trkpt lat="42.67575" lon="1.41387">
        <ele>2614.442871</ele>
        <time>2012-08-07T10:41:53Z</time>
      </trkpt>
      <trkpt lat="42.67566" lon="1.41398">
        <ele>2621.652832</ele>
        <time>2012-08-07T10:42:37Z</time>
      </trkpt>
      <trkpt lat="42.67566" lon="1.41401">
        <ele>2623.094727</ele>
        <time>2012-08-07T10:42:45Z</time>
      </trkpt>
      <trkpt lat="42.6757" lon="1.41407">
        <ele>2624.536621</ele>
        <time>2012-08-07T10:43:02Z</time>
      </trkpt>
      <trkpt lat="42.67552" lon="1.41401">
        <ele>2632.227051</ele>
        <time>2012-08-07T10:44:07Z</time>
      </trkpt>
      <trkpt lat="42.67543" lon="1.41399">
        <ele>2636.072266</ele>
        <time>2012-08-07T10:44:21Z</time>
      </trkpt>
      <trkpt lat="42.67534" lon="1.41403">
        <ele>2641.359375</ele>
        <time>2012-08-07T10:44:36Z</time>
      </trkpt>
      <trkpt lat="42.67527" lon="1.414">
        <ele>2644.243652</ele>
        <time>2012-08-07T10:44:47Z</time>
      </trkpt>
      <trkpt lat="42.67516" lon="1.41392">
        <ele>2637.994629</ele>
        <time>2012-08-07T10:44:57Z</time>
      </trkpt>
      <trkpt lat="42.67516" lon="1.41394">
        <ele>2632.70752</ele>
        <time>2012-08-07T10:45:05Z</time>
      </trkpt>
      <trkpt lat="42.67512" lon="1.41394">
        <ele>2627.42041</ele>
        <time>2012-08-07T10:45:15Z</time>
      </trkpt>
      <trkpt lat="42.67498" lon="1.41385">
        <ele>2629.343262</ele>
        <time>2012-08-07T10:45:32Z</time>
      </trkpt>
      <trkpt lat="42.67496" lon="1.41385">
        <ele>2630.304199</ele>
        <time>2012-08-07T10:45:34Z</time>
      </trkpt>
      <trkpt lat="42.67486" lon="1.41381">
        <ele>2635.591309</ele>
        <time>2012-08-07T10:45:52Z</time>
      </trkpt>
      <trkpt lat="42.67482" lon="1.41381">
        <ele>2635.11084</ele>
        <time>2012-08-07T10:46:10Z</time>
      </trkpt>
      <trkpt lat="42.67483" lon="1.41366">
        <ele>2636.552734</ele>
        <time>2012-08-07T10:47:45Z</time>
      </trkpt>
      <trkpt lat="42.67489" lon="1.4137">
        <ele>2638.475586</ele>
        <time>2012-08-07T10:49:43Z</time>
      </trkpt>
      <trkpt lat="42.67489" lon="1.4137">
        <ele>2638.956055</ele>
        <time>2012-08-07T10:50:52Z</time>
      </trkpt>
      <trkpt lat="42.67492" lon="1.41368">
        <ele>2642.80127</ele>
        <time>2012-08-07T11:11:19Z</time>
      </trkpt>
      <trkpt lat="42.6749" lon="1.4137">
        <ele>2643.281738</ele>
        <time>2012-08-07T11:11:29Z</time>
      </trkpt>
      <trkpt lat="42.6749" lon="1.4137">
        <ele>2643.762695</ele>
        <time>2012-08-07T11:12:20Z</time>
      </trkpt>
      <trkpt lat="42.67493" lon="1.4137">
        <ele>2644.243652</ele>
        <time>2012-08-07T11:12:48Z</time>
      </trkpt>
      <trkpt lat="42.67494" lon="1.41361">
        <ele>2645.685547</ele>
        <time>2012-08-07T11:13:21Z</time>
      </trkpt>
      <trkpt lat="42.67489" lon="1.41353">
        <ele>2647.12793</ele>
        <time>2012-08-07T11:13:36Z</time>
      </trkpt>
      <trkpt lat="42.67489" lon="1.41347">
        <ele>2647.608398</ele>
        <time>2012-08-07T11:13:59Z</time>
      </trkpt>
      <trkpt lat="42.67488" lon="1.41341">
        <ele>2648.088867</ele>
        <time>2012-08-07T11:14:14Z</time>
      </trkpt>
      <trkpt lat="42.67481" lon="1.41326">
        <ele>2649.530762</ele>
        <time>2012-08-07T11:14:38Z</time>
      </trkpt>
      <trkpt lat="42.6748" lon="1.41318">
        <ele>2652.895508</ele>
        <time>2012-08-07T11:14:51Z</time>
      </trkpt>
      <trkpt lat="42.67482" lon="1.41308">
        <ele>2655.298828</ele>
        <time>2012-08-07T11:15:09Z</time>
      </trkpt>
      <trkpt lat="42.67484" lon="1.41302">
        <ele>2653.375977</ele>
        <time>2012-08-07T11:15:25Z</time>
      </trkpt>
      <trkpt lat="42.67485" lon="1.41299">
        <ele>2652.895508</ele>
        <time>2012-08-07T11:15:27Z</time>
      </trkpt>
      <trkpt lat="42.675" lon="1.41281">
        <ele>2650.492188</ele>
        <time>2012-08-07T11:15:46Z</time>
      </trkpt>
      <trkpt lat="42.67505" lon="1.41275">
        <ele>2650.011719</ele>
        <time>2012-08-07T11:15:53Z</time>
      </trkpt>
      <trkpt lat="42.67506" lon="1.41262">
        <ele>2649.050293</ele>
        <time>2012-08-07T11:16:06Z</time>
      </trkpt>
      <trkpt lat="42.67507" lon="1.4126">
        <ele>2648.569824</ele>
        <time>2012-08-07T11:16:08Z</time>
      </trkpt>
      <trkpt lat="42.67508" lon="1.41255">
        <ele>2650.011719</ele>
        <time>2012-08-07T11:16:27Z</time>
      </trkpt>
      <trkpt lat="42.67508" lon="1.41253">
        <ele>2651.453613</ele>
        <time>2012-08-07T11:16:32Z</time>
      </trkpt>
      <trkpt lat="42.67511" lon="1.41241">
        <ele>2658.182617</ele>
        <time>2012-08-07T11:16:49Z</time>
      </trkpt>
      <trkpt lat="42.6751" lon="1.41231">
        <ele>2661.066406</ele>
        <time>2012-08-07T11:17:07Z</time>
      </trkpt>
      <trkpt lat="42.6751" lon="1.4122">
        <ele>2663.469727</ele>
        <time>2012-08-07T11:17:23Z</time>
      </trkpt>
      <trkpt lat="42.67513" lon="1.41208">
        <ele>2663.950684</ele>
        <time>2012-08-07T11:17:40Z</time>
      </trkpt>
      <trkpt lat="42.6752" lon="1.41193">
        <ele>2663.469727</ele>
        <time>2012-08-07T11:19:05Z</time>
      </trkpt>
      <trkpt lat="42.6753" lon="1.41192">
        <ele>2663.950684</ele>
        <time>2012-08-07T11:20:09Z</time>
      </trkpt>
      <trkpt lat="42.67541" lon="1.41195">
        <ele>2669.718262</ele>
        <time>2012-08-07T11:20:44Z</time>
      </trkpt>
      <trkpt lat="42.67549" lon="1.412">
        <ele>2684.138184</ele>
        <time>2012-08-07T11:21:30Z</time>
      </trkpt>
      <trkpt lat="42.67552" lon="1.41197">
        <ele>2687.022461</ele>
        <time>2012-08-07T11:21:49Z</time>
      </trkpt>
      <trkpt lat="42.67552" lon="1.41189">
        <ele>2689.425293</ele>
        <time>2012-08-07T11:22:29Z</time>
      </trkpt>
      <trkpt lat="42.67552" lon="1.41185">
        <ele>2691.828613</ele>
        <time>2012-08-07T11:22:50Z</time>
      </trkpt>
      <trkpt lat="42.67553" lon="1.4118">
        <ele>2700</ele>
        <time>2012-08-07T11:23:55Z</time>
      </trkpt>
      <trkpt lat="42.67552" lon="1.41178">
        <ele>2701.922363</ele>
        <time>2012-08-07T11:24:20Z</time>
      </trkpt>
      <trkpt lat="42.67556" lon="1.41172">
        <ele>2705.767578</ele>
        <time>2012-08-07T11:25:52Z</time>
      </trkpt>
      <trkpt lat="42.67558" lon="1.41168">
        <ele>2707.209473</ele>
        <time>2012-08-07T11:26:35Z</time>
      </trkpt>
      <trkpt lat="42.67562" lon="1.41161">
        <ele>2711.055176</ele>
        <time>2012-08-07T11:27:36Z</time>
      </trkpt>
      <trkpt lat="42.67564" lon="1.4116">
        <ele>2714.419922</ele>
        <time>2012-08-07T11:31:01Z</time>
      </trkpt>
      <trkpt lat="42.67567" lon="1.41152">
        <ele>2717.303711</ele>
        <time>2012-08-07T11:31:45Z</time>
      </trkpt>
      <trkpt lat="42.6757" lon="1.41142">
        <ele>2724.994141</ele>
        <time>2012-08-07T11:32:13Z</time>
      </trkpt>
      <trkpt lat="42.67574" lon="1.41137">
        <ele>2729.800781</ele>
        <time>2012-08-07T11:32:41Z</time>
      </trkpt>
      <trkpt lat="42.67577" lon="1.41133">
        <ele>2731.242676</ele>
        <time>2012-08-07T11:32:53Z</time>
      </trkpt>
      <trkpt lat="42.67583" lon="1.41127">
        <ele>2735.087891</ele>
        <time>2012-08-07T11:33:26Z</time>
      </trkpt>
      <trkpt lat="42.67589" lon="1.41116">
        <ele>2743.740234</ele>
        <time>2012-08-07T11:33:59Z</time>
      </trkpt>
      <trkpt lat="42.67594" lon="1.41118">
        <ele>2746.624023</ele>
        <time>2012-08-07T11:34:17Z</time>
      </trkpt>
      <trkpt lat="42.67597" lon="1.41111">
        <ele>2749.507812</ele>
        <time>2012-08-07T11:34:38Z</time>
      </trkpt>
      <trkpt lat="42.67604" lon="1.41096">
        <ele>2751.430664</ele>
        <time>2012-08-07T11:36:16Z</time>
      </trkpt>
      <trkpt lat="42.67604" lon="1.41086">
        <ele>2754.79541</ele>
        <time>2012-08-07T11:36:32Z</time>
      </trkpt>
      <trkpt lat="42.67601" lon="1.41074">
        <ele>2757.679199</ele>
        <time>2012-08-07T11:36:46Z</time>
      </trkpt>
      <trkpt lat="42.67596" lon="1.41066">
        <ele>2762.48584</ele>
        <time>2012-08-07T11:37:01Z</time>
      </trkpt>
      <trkpt lat="42.67592" lon="1.41068">
        <ele>2768.253418</ele>
        <time>2012-08-07T11:37:21Z</time>
      </trkpt>
      <trkpt lat="42.67581" lon="1.41065">
        <ele>2769.214844</ele>
        <time>2012-08-07T11:37:55Z</time>
      </trkpt>
      <trkpt lat="42.67573" lon="1.41068">
        <ele>2771.618164</ele>
        <time>2012-08-07T11:38:22Z</time>
      </trkpt>
      <trkpt lat="42.67588" lon="1.41058">
        <ele>2773.541016</ele>
        <time>2012-08-07T11:38:28Z</time>
      </trkpt>
      <trkpt lat="42.67587" lon="1.41065">
        <ele>2776.424805</ele>
        <time>2012-08-07T11:39:07Z</time>
      </trkpt>
      <trkpt lat="42.67571" lon="1.41069">
        <ele>2780.750977</ele>
        <time>2012-08-07T11:42:27Z</time>
      </trkpt>
      <trkpt lat="42.67567" lon="1.41066">
        <ele>2783.154297</ele>
        <time>2012-08-07T11:42:52Z</time>
      </trkpt>
      <trkpt lat="42.67562" lon="1.41068">
        <ele>2789.883301</ele>
        <time>2012-08-07T11:43:12Z</time>
      </trkpt>
      <trkpt lat="42.67559" lon="1.41066">
        <ele>2792.76709</ele>
        <time>2012-08-07T11:43:45Z</time>
      </trkpt>
      <trkpt lat="42.67556" lon="1.41062">
        <ele>2793.248047</ele>
        <time>2012-08-07T11:44:12Z</time>
      </trkpt>
      <trkpt lat="42.67558" lon="1.41055">
        <ele>2795.17041</ele>
        <time>2012-08-07T11:44:44Z</time>
      </trkpt>
      <trkpt lat="42.67557" lon="1.41046">
        <ele>2799.015625</ele>
        <time>2012-08-07T11:45:15Z</time>
      </trkpt>
      <trkpt lat="42.67554" lon="1.41043">
        <ele>2802.86084</ele>
        <time>2012-08-07T11:45:54Z</time>
      </trkpt>
      <trkpt lat="42.67549" lon="1.41035">
        <ele>2805.745117</ele>
        <time>2012-08-07T11:46:32Z</time>
      </trkpt>
      <trkpt lat="42.67547" lon="1.41029">
        <ele>2811.032227</ele>
        <time>2012-08-07T11:47:06Z</time>
      </trkpt>
      <trkpt lat="42.67544" lon="1.41026">
        <ele>2814.396973</ele>
        <time>2012-08-07T11:47:26Z</time>
      </trkpt>
      <trkpt lat="42.6754" lon="1.41023">
        <ele>2816.800293</ele>
        <time>2012-08-07T11:48:06Z</time>
      </trkpt>
      <trkpt lat="42.67537" lon="1.41015">
        <ele>2821.606934</ele>
        <time>2012-08-07T11:48:39Z</time>
      </trkpt>
      <trkpt lat="42.67537" lon="1.41012">
        <ele>2824.010254</ele>
        <time>2012-08-07T11:48:56Z</time>
      </trkpt>
      <trkpt lat="42.67537" lon="1.41005">
        <ele>2826.413086</ele>
        <time>2012-08-07T11:49:05Z</time>
      </trkpt>
      <trkpt lat="42.67539" lon="1.40997">
        <ele>2829.777832</ele>
        <time>2012-08-07T11:49:47Z</time>
      </trkpt>
      <trkpt lat="42.67536" lon="1.40991">
        <ele>2831.700684</ele>
        <time>2012-08-07T11:50:09Z</time>
      </trkpt>
      <trkpt lat="42.67533" lon="1.40994">
        <ele>2833.623047</ele>
        <time>2012-08-07T11:50:26Z</time>
      </trkpt>
      <trkpt lat="42.67529" lon="1.40994">
        <ele>2834.584473</ele>
        <time>2012-08-07T11:51:02Z</time>
      </trkpt>
      <trkpt lat="42.67525" lon="1.40994">
        <ele>2838.430176</ele>
        <time>2012-08-07T11:51:29Z</time>
      </trkpt>
      <trkpt lat="42.67517" lon="1.40995">
        <ele>2845.639648</ele>
        <time>2012-08-07T11:52:20Z</time>
      </trkpt>
      <trkpt lat="42.67513" lon="1.40985">
        <ele>2849.96582</ele>
        <time>2012-08-07T11:53:11Z</time>
      </trkpt>
      <trkpt lat="42.67509" lon="1.40984">
        <ele>2852.849609</ele>
        <time>2012-08-07T11:53:34Z</time>
      </trkpt>
      <trkpt lat="42.67505" lon="1.40982">
        <ele>2858.617188</ele>
        <time>2012-08-07T11:54:12Z</time>
      </trkpt>
      <trkpt lat="42.67501" lon="1.40975">
        <ele>2867.269043</ele>
        <time>2012-08-07T11:55:04Z</time>
      </trkpt>
      <trkpt lat="42.67489" lon="1.40982">
        <ele>2875.921387</ele>
        <time>2012-08-07T11:55:55Z</time>
      </trkpt>
      <trkpt lat="42.67485" lon="1.40993">
        <ele>2879.286133</ele>
        <time>2012-08-07T11:56:17Z</time>
      </trkpt>
      <trkpt lat="42.67481" lon="1.41001">
        <ele>2882.650391</ele>
        <time>2012-08-07T11:56:36Z</time>
      </trkpt>
      <trkpt lat="42.67478" lon="1.41002">
        <ele>2885.534668</ele>
        <time>2012-08-07T11:56:59Z</time>
      </trkpt>
      <trkpt lat="42.67477" lon="1.41002">
        <ele>2886.495605</ele>
        <time>2012-08-07T11:58:58Z</time>
      </trkpt>
      <trkpt lat="42.67471" lon="1.41004">
        <ele>2889.379395</ele>
        <time>2012-08-07T12:01:09Z</time>
      </trkpt>
      <trkpt lat="42.67465" lon="1.4099">
        <ele>2898.512207</ele>
        <time>2012-08-07T12:02:05Z</time>
      </trkpt>
      <trkpt lat="42.67456" lon="1.40994">
        <ele>2901.876953</ele>
        <time>2012-08-07T12:02:34Z</time>
      </trkpt>
      <trkpt lat="42.67455" lon="1.40989">
        <ele>2906.203125</ele>
        <time>2012-08-07T12:03:04Z</time>
      </trkpt>
      <trkpt lat="42.67456" lon="1.40987">
        <ele>2906.683594</ele>
        <time>2012-08-07T12:03:12Z</time>
      </trkpt>
      <trkpt lat="42.67458" lon="1.40981">
        <ele>2907.64502</ele>
        <time>2012-08-07T12:03:54Z</time>
      </trkpt>
      <trkpt lat="42.67457" lon="1.40977">
        <ele>2915.815918</ele>
        <time>2012-08-07T12:04:28Z</time>
      </trkpt>
      <trkpt lat="42.67453" lon="1.40981">
        <ele>2920.141602</ele>
        <time>2012-08-07T12:05:05Z</time>
      </trkpt>
      <trkpt lat="42.67447" lon="1.40979">
        <ele>2923.506348</ele>
        <time>2012-08-07T12:05:28Z</time>
      </trkpt>
      <trkpt lat="42.67439" lon="1.40984">
        <ele>2928.312988</ele>
        <time>2012-08-07T12:05:47Z</time>
      </trkpt>
      <trkpt lat="42.67436" lon="1.40968">
        <ele>2936.484375</ele>
        <time>2012-08-07T12:09:28Z</time>
      </trkpt>
      <trkpt lat="42.67432" lon="1.40962">
        <ele>2943.213379</ele>
        <time>2012-08-07T12:09:53Z</time>
      </trkpt>
      <trkpt lat="42.67428" lon="1.40953">
        <ele>2945.616699</ele>
        <time>2012-08-07T12:10:15Z</time>
      </trkpt>
      <trkpt lat="42.67432" lon="1.40946">
        <ele>2949.942871</ele>
        <time>2012-08-07T12:10:33Z</time>
      </trkpt>
      <trkpt lat="42.67435" lon="1.40933">
        <ele>2952.346191</ele>
        <time>2012-08-07T12:10:51Z</time>
      </trkpt>
      <trkpt lat="42.67438" lon="1.40917">
        <ele>2954.749512</ele>
        <time>2012-08-07T12:11:08Z</time>
      </trkpt>
      <trkpt lat="42.67436" lon="1.40904">
        <ele>2958.11377</ele>
        <time>2012-08-07T12:11:24Z</time>
      </trkpt>
      <trkpt lat="42.67439" lon="1.4089">
        <ele>2959.555664</ele>
        <time>2012-08-07T12:11:39Z</time>
      </trkpt>
      <trkpt lat="42.67439" lon="1.4089">
        <ele>2960.036621</ele>
        <time>2012-08-07T12:11:40Z</time>
      </trkpt>
      <trkpt lat="42.67436" lon="1.40877">
        <ele>2962.439941</ele>
        <time>2012-08-07T12:11:54Z</time>
      </trkpt>
      <trkpt lat="42.6743" lon="1.40866">
        <ele>2965.324219</ele>
        <time>2012-08-07T12:12:10Z</time>
      </trkpt>
      <trkpt lat="42.6742" lon="1.40864">
        <ele>2969.169434</ele>
        <time>2012-08-07T12:12:28Z</time>
      </trkpt>
      <trkpt lat="42.67412" lon="1.40863">
        <ele>2971.572754</ele>
        <time>2012-08-07T12:12:44Z</time>
      </trkpt>
      <trkpt lat="42.67404" lon="1.40858">
        <ele>2974.937012</ele>
        <time>2012-08-07T12:12:58Z</time>
      </trkpt>
      <trkpt lat="42.67398" lon="1.40857">
        <ele>2979.263184</ele>
        <time>2012-08-07T12:13:19Z</time>
      </trkpt>
      <trkpt lat="42.67393" lon="1.40851">
        <ele>2982.146973</ele>
        <time>2012-08-07T12:13:36Z</time>
      </trkpt>
      <trkpt lat="42.67387" lon="1.40848">
        <ele>2982.627441</ele>
        <time>2012-08-07T12:13:50Z</time>
      </trkpt>
      <trkpt lat="42.67379" lon="1.40845">
        <ele>2984.550293</ele>
        <time>2012-08-07T12:14:09Z</time>
      </trkpt>
      <trkpt lat="42.6737" lon="1.40838">
        <ele>2986.472656</ele>
        <time>2012-08-07T12:14:26Z</time>
      </trkpt>
      <trkpt lat="42.67364" lon="1.40835">
        <ele>2988.395508</ele>
        <time>2012-08-07T12:14:42Z</time>
      </trkpt>
      <trkpt lat="42.67349" lon="1.40822">
        <ele>2994.644043</ele>
        <time>2012-08-07T12:15:26Z</time>
      </trkpt>
      <trkpt lat="42.67341" lon="1.40817">
        <ele>2998.008789</ele>
        <time>2012-08-07T12:15:40Z</time>
      </trkpt>
      <trkpt lat="42.67339" lon="1.40817">
        <ele>2998.970215</ele>
        <time>2012-08-07T12:15:43Z</time>
      </trkpt>
      <trkpt lat="42.67331" lon="1.4081">
        <ele>3001.373535</ele>
        <time>2012-08-07T12:15:58Z</time>
      </trkpt>
      <trkpt lat="42.67325" lon="1.40803">
        <ele>3003.776855</ele>
        <time>2012-08-07T12:16:11Z</time>
      </trkpt>
      <trkpt lat="42.67316" lon="1.40804">
        <ele>3007.62207</ele>
        <time>2012-08-07T12:16:29Z</time>
      </trkpt>
      <trkpt lat="42.67309" lon="1.408">
        <ele>3012.428223</ele>
        <time>2012-08-07T12:16:50Z</time>
      </trkpt>
      <trkpt lat="42.67303" lon="1.40797">
        <ele>3015.792969</ele>
        <time>2012-08-07T12:17:26Z</time>
      </trkpt>
      <trkpt lat="42.67297" lon="1.40795">
        <ele>3017.234863</ele>
        <time>2012-08-07T12:17:37Z</time>
      </trkpt>
      <trkpt lat="42.67289" lon="1.40797">
        <ele>3020.118652</ele>
        <time>2012-08-07T12:17:51Z</time>
      </trkpt>
      <trkpt lat="42.67276" lon="1.40794">
        <ele>3023.483398</ele>
        <time>2012-08-07T12:18:11Z</time>
      </trkpt>
      <trkpt lat="42.67269" lon="1.40798">
        <ele>3024.925293</ele>
        <time>2012-08-07T12:18:20Z</time>
      </trkpt>
      <trkpt lat="42.67258" lon="1.40801">
        <ele>3026.848145</ele>
        <time>2012-08-07T12:18:44Z</time>
      </trkpt>
      <trkpt lat="42.67249" lon="1.408">
        <ele>3029.251953</ele>
        <time>2012-08-07T12:19:05Z</time>
      </trkpt>
      <trkpt lat="42.67245" lon="1.4079">
        <ele>3031.655273</ele>
        <time>2012-08-07T12:19:20Z</time>
      </trkpt>
      <trkpt lat="42.67246" lon="1.40786">
        <ele>3032.135742</ele>
        <time>2012-08-07T12:19:24Z</time>
      </trkpt>
      <trkpt lat="42.67239" lon="1.40781">
        <ele>3035.019531</ele>
        <time>2012-08-07T12:19:45Z</time>
      </trkpt>
      <trkpt lat="42.67238" lon="1.40772">
        <ele>3038.384277</ele>
        <time>2012-08-07T12:20:01Z</time>
      </trkpt>
      <trkpt lat="42.67232" lon="1.40753">
        <ele>3043.671387</ele>
        <time>2012-08-07T12:20:41Z</time>
      </trkpt>
      <trkpt lat="42.67229" lon="1.4074">
        <ele>3046.555176</ele>
        <time>2012-08-07T12:21:02Z</time>
      </trkpt>
      <trkpt lat="42.6723" lon="1.4073">
        <ele>3047.99707</ele>
        <time>2012-08-07T12:21:35Z</time>
      </trkpt>
      <trkpt lat="42.67224" lon="1.40726">
        <ele>3051.361816</ele>
        <time>2012-08-07T12:21:52Z</time>
      </trkpt>
      <trkpt lat="42.67225" lon="1.40713">
        <ele>3057.610352</ele>
        <time>2012-08-07T12:22:19Z</time>
      </trkpt>
      <trkpt lat="42.67219" lon="1.40703">
        <ele>3062.41748</ele>
        <time>2012-08-07T12:22:38Z</time>
      </trkpt>
      <trkpt lat="42.67218" lon="1.40688">
        <ele>3062.897949</ele>
        <time>2012-08-07T12:22:59Z</time>
      </trkpt>
      <trkpt lat="42.67218" lon="1.40675">
        <ele>3063.859375</ele>
        <time>2012-08-07T12:23:18Z</time>
      </trkpt>
      <trkpt lat="42.67215" lon="1.40662">
        <ele>3066.262207</ele>
        <time>2012-08-07T12:23:35Z</time>
      </trkpt>
      <trkpt lat="42.67209" lon="1.40656">
        <ele>3068.665527</ele>
        <time>2012-08-07T12:23:52Z</time>
      </trkpt>
      <trkpt lat="42.67205" lon="1.40637">
        <ele>3072.991699</ele>
        <time>2012-08-07T12:24:22Z</time>
      </trkpt>
      <trkpt lat="42.67197" lon="1.40629">
        <ele>3076.355957</ele>
        <time>2012-08-07T12:24:40Z</time>
      </trkpt>
      <trkpt lat="42.67192" lon="1.40625">
        <ele>3077.317383</ele>
        <time>2012-08-07T12:24:58Z</time>
      </trkpt>
      <trkpt lat="42.67189" lon="1.4063">
        <ele>3077.79834</ele>
        <time>2012-08-07T12:25:47Z</time>
      </trkpt>
      <trkpt lat="42.67192" lon="1.40631">
        <ele>3078.278809</ele>
        <time>2012-08-07T12:26:56Z</time>
      </trkpt>
      <trkpt lat="42.67191" lon="1.4063">
        <ele>3078.759277</ele>
        <time>2012-08-07T12:27:41Z</time>
      </trkpt>
      <trkpt lat="42.67191" lon="1.40634">
        <ele>3078.759277</ele>
        <time>2012-08-07T12:28:21Z</time>
      </trkpt>
      <trkpt lat="42.67193" lon="1.40626">
        <ele>3077.317383</ele>
        <time>2012-08-07T12:28:45Z</time>
      </trkpt>
      <trkpt lat="42.67192" lon="1.40625">
        <ele>3076.836914</ele>
        <time>2012-08-07T12:29:04Z</time>
      </trkpt>
      <trkpt lat="42.67193" lon="1.40625">
        <ele>3076.836914</ele>
        <time>2012-08-07T12:34:16Z</time>
      </trkpt>
      <trkpt lat="42.67196" lon="1.40626">
        <ele>3077.79834</ele>
        <time>2012-08-07T12:34:37Z</time>
      </trkpt>
      <trkpt lat="42.67194" lon="1.40621">
        <ele>3078.759277</ele>
        <time>2012-08-07T12:34:46Z</time>
      </trkpt>
      <trkpt lat="42.67195" lon="1.40594">
        <ele>3077.317383</ele>
        <time>2012-08-07T12:35:05Z</time>
      </trkpt>
      <trkpt lat="42.67194" lon="1.40576">
        <ele>3075.875488</ele>
        <time>2012-08-07T12:35:20Z</time>
      </trkpt>
      <trkpt lat="42.67195" lon="1.40568">
        <ele>3074.914062</ele>
        <time>2012-08-07T12:35:28Z</time>
      </trkpt>
      <trkpt lat="42.67199" lon="1.40557">
        <ele>3073.472168</ele>
        <time>2012-08-07T12:35:42Z</time>
      </trkpt>
      <trkpt lat="42.67202" lon="1.40544">
        <ele>3071.549805</ele>
        <time>2012-08-07T12:35:57Z</time>
      </trkpt>
      <trkpt lat="42.67203" lon="1.40537">
        <ele>3070.588379</ele>
        <time>2012-08-07T12:36:06Z</time>
      </trkpt>
      <trkpt lat="42.67201" lon="1.40522">
        <ele>3070.10791</ele>
        <time>2012-08-07T12:36:28Z</time>
      </trkpt>
      <trkpt lat="42.67198" lon="1.40509">
        <ele>3072.510742</ele>
        <time>2012-08-07T12:36:50Z</time>
      </trkpt>
      <trkpt lat="42.67198" lon="1.40494">
        <ele>3071.068848</ele>
        <time>2012-08-07T12:37:03Z</time>
      </trkpt>
      <trkpt lat="42.67198" lon="1.40481">
        <ele>3070.588379</ele>
        <time>2012-08-07T12:37:18Z</time>
      </trkpt>
      <trkpt lat="42.67199" lon="1.40469">
        <ele>3070.10791</ele>
        <time>2012-08-07T12:37:32Z</time>
      </trkpt>
      <trkpt lat="42.67201" lon="1.40461">
        <ele>3068.185059</ele>
        <time>2012-08-07T12:38:03Z</time>
      </trkpt>
      <trkpt lat="42.67201" lon="1.40456">
        <ele>3066.743164</ele>
        <time>2012-08-07T12:38:10Z</time>
      </trkpt>
      <trkpt lat="42.672" lon="1.40452">
        <ele>3066.262207</ele>
        <time>2012-08-07T12:38:15Z</time>
      </trkpt>
      <trkpt lat="42.67194" lon="1.40435">
        <ele>3064.339844</ele>
        <time>2012-08-07T12:38:31Z</time>
      </trkpt>
      <trkpt lat="42.67191" lon="1.40423">
        <ele>3060.494629</ele>
        <time>2012-08-07T12:38:48Z</time>
      </trkpt>
      <trkpt lat="42.67187" lon="1.40413">
        <ele>3057.610352</ele>
        <time>2012-08-07T12:39:07Z</time>
      </trkpt>
      <trkpt lat="42.67188" lon="1.40404">
        <ele>3054.726562</ele>
        <time>2012-08-07T12:39:22Z</time>
      </trkpt>
      <trkpt lat="42.67185" lon="1.40394">
        <ele>3052.803711</ele>
        <time>2012-08-07T12:39:44Z</time>
      </trkpt>
      <trkpt lat="42.67181" lon="1.40382">
        <ele>3050.880859</ele>
        <time>2012-08-07T12:40:02Z</time>
      </trkpt>
      <trkpt lat="42.67178" lon="1.40367">
        <ele>3044.632812</ele>
        <time>2012-08-07T12:40:22Z</time>
      </trkpt>
      <trkpt lat="42.67177" lon="1.40353">
        <ele>3041.268066</ele>
        <time>2012-08-07T12:40:39Z</time>
      </trkpt>
      <trkpt lat="42.67177" lon="1.40341">
        <ele>3039.345703</ele>
        <time>2012-08-07T12:40:58Z</time>
      </trkpt>
      <trkpt lat="42.67176" lon="1.40323">
        <ele>3037.90332</ele>
        <time>2012-08-07T12:41:14Z</time>
      </trkpt>
      <trkpt lat="42.67176" lon="1.40313">
        <ele>3036.942383</ele>
        <time>2012-08-07T12:41:25Z</time>
      </trkpt>
      <trkpt lat="42.67175" lon="1.40304">
        <ele>3035.980957</ele>
        <time>2012-08-07T12:41:44Z</time>
      </trkpt>
      <trkpt lat="42.67174" lon="1.40301">
        <ele>3035.5</ele>
        <time>2012-08-07T12:41:47Z</time>
      </trkpt>
      <trkpt lat="42.67181" lon="1.40288">
        <ele>3033.577637</ele>
        <time>2012-08-07T12:42:06Z</time>
      </trkpt>
      <trkpt lat="42.67181" lon="1.40284">
        <ele>3033.097168</ele>
        <time>2012-08-07T12:42:09Z</time>
      </trkpt>
      <trkpt lat="42.67174" lon="1.40271">
        <ele>3030.693848</ele>
        <time>2012-08-07T12:42:26Z</time>
      </trkpt>
      <trkpt lat="42.67172" lon="1.40261">
        <ele>3028.290527</ele>
        <time>2012-08-07T12:42:42Z</time>
      </trkpt>
      <trkpt lat="42.67165" lon="1.40256">
        <ele>3024.925293</ele>
        <time>2012-08-07T12:42:57Z</time>
      </trkpt>
      <trkpt lat="42.67156" lon="1.40251">
        <ele>3022.521973</ele>
        <time>2012-08-07T12:43:13Z</time>
      </trkpt>
      <trkpt lat="42.67143" lon="1.40254">
        <ele>3017.71582</ele>
        <time>2012-08-07T12:43:35Z</time>
      </trkpt>
      <trkpt lat="42.67133" lon="1.40253">
        <ele>3011.467285</ele>
        <time>2012-08-07T12:43:58Z</time>
      </trkpt>
      <trkpt lat="42.67129" lon="1.40252">
        <ele>3006.660645</ele>
        <time>2012-08-07T12:44:13Z</time>
      </trkpt>
      <trkpt lat="42.67123" lon="1.40253">
        <ele>3003.295898</ele>
        <time>2012-08-07T12:44:26Z</time>
      </trkpt>
      <trkpt lat="42.67116" lon="1.40256">
        <ele>2997.047363</ele>
        <time>2012-08-07T12:44:48Z</time>
      </trkpt>
      <trkpt lat="42.67111" lon="1.40243">
        <ele>2994.644043</ele>
        <time>2012-08-07T12:45:06Z</time>
      </trkpt>
      <trkpt lat="42.67101" lon="1.40238">
        <ele>2989.356445</ele>
        <time>2012-08-07T12:45:35Z</time>
      </trkpt>
      <trkpt lat="42.67095" lon="1.40228">
        <ele>2983.108398</ele>
        <time>2012-08-07T12:45:59Z</time>
      </trkpt>
      <trkpt lat="42.67092" lon="1.40221">
        <ele>2982.627441</ele>
        <time>2012-08-07T12:46:20Z</time>
      </trkpt>
      <trkpt lat="42.67087" lon="1.40224">
        <ele>2981.666016</ele>
        <time>2012-08-07T12:46:24Z</time>
      </trkpt>
      <trkpt lat="42.67081" lon="1.40217">
        <ele>2977.821289</ele>
        <time>2012-08-07T12:46:46Z</time>
      </trkpt>
      <trkpt lat="42.67079" lon="1.40214">
        <ele>2977.821289</ele>
        <time>2012-08-07T12:48:50Z</time>
      </trkpt>
      <trkpt lat="42.67065" lon="1.40213">
        <ele>2979.743652</ele>
        <time>2012-08-07T12:49:03Z</time>
      </trkpt>
      <trkpt lat="42.67056" lon="1.40213">
        <ele>2981.666016</ele>
        <time>2012-08-07T12:49:10Z</time>
      </trkpt>
      <trkpt lat="42.67045" lon="1.40211">
        <ele>2982.146973</ele>
        <time>2012-08-07T12:49:20Z</time>
      </trkpt>
      <trkpt lat="42.6704" lon="1.40208">
        <ele>2981.666016</ele>
        <time>2012-08-07T12:49:25Z</time>
      </trkpt>
      <trkpt lat="42.6703" lon="1.40207">
        <ele>2982.146973</ele>
        <time>2012-08-07T12:49:35Z</time>
      </trkpt>
      <trkpt lat="42.67018" lon="1.40197">
        <ele>2983.108398</ele>
        <time>2012-08-07T12:49:49Z</time>
      </trkpt>
      <trkpt lat="42.67016" lon="1.40197">
        <ele>2985.030762</ele>
        <time>2012-08-07T12:49:53Z</time>
      </trkpt>
      <trkpt lat="42.67013" lon="1.40196">
        <ele>2985.992188</ele>
        <time>2012-08-07T12:49:57Z</time>
      </trkpt>
      <trkpt lat="42.67008" lon="1.40197">
        <ele>2989.837402</ele>
        <time>2012-08-07T12:50:09Z</time>
      </trkpt>
      <trkpt lat="42.66998" lon="1.40193">
        <ele>2994.163086</ele>
        <time>2012-08-07T12:50:24Z</time>
      </trkpt>
      <trkpt lat="42.6699" lon="1.40186">
        <ele>2997.52832</ele>
        <time>2012-08-07T12:50:37Z</time>
      </trkpt>
      <trkpt lat="42.66979" lon="1.40179">
        <ele>3001.854004</ele>
        <time>2012-08-07T12:50:56Z</time>
      </trkpt>
      <trkpt lat="42.66976" lon="1.40177">
        <ele>3002.81543</ele>
        <time>2012-08-07T12:51:04Z</time>
      </trkpt>
      <trkpt lat="42.66973" lon="1.40179">
        <ele>3002.81543</ele>
        <time>2012-08-07T12:51:11Z</time>
      </trkpt>
      <trkpt lat="42.66971" lon="1.40179">
        <ele>3004.737793</ele>
        <time>2012-08-07T12:51:50Z</time>
      </trkpt>
      <trkpt lat="42.66971" lon="1.4017">
        <ele>3005.21875</ele>
        <time>2012-08-07T12:52:14Z</time>
      </trkpt>
      <trkpt lat="42.66969" lon="1.40152">
        <ele>3003.295898</ele>
        <time>2012-08-07T12:52:28Z</time>
      </trkpt>
      <trkpt lat="42.66966" lon="1.4015">
        <ele>3004.257324</ele>
        <time>2012-08-07T12:52:32Z</time>
      </trkpt>
      <trkpt lat="42.66961" lon="1.40139">
        <ele>3007.141113</ele>
        <time>2012-08-07T12:52:46Z</time>
      </trkpt>
      <trkpt lat="42.66961" lon="1.40135">
        <ele>3008.583496</ele>
        <time>2012-08-07T12:52:51Z</time>
      </trkpt>
      <trkpt lat="42.66959" lon="1.40131">
        <ele>3009.544434</ele>
        <time>2012-08-07T12:52:55Z</time>
      </trkpt>
      <trkpt lat="42.66956" lon="1.40128">
        <ele>3010.025391</ele>
        <time>2012-08-07T12:52:59Z</time>
      </trkpt>
      <trkpt lat="42.6695" lon="1.40122">
        <ele>3011.947754</ele>
        <time>2012-08-07T12:53:08Z</time>
      </trkpt>
      <trkpt lat="42.66946" lon="1.40123">
        <ele>3012.90918</ele>
        <time>2012-08-07T12:53:12Z</time>
      </trkpt>
      <trkpt lat="42.66933" lon="1.40108">
        <ele>3018.676758</ele>
        <time>2012-08-07T12:53:28Z</time>
      </trkpt>
      <trkpt lat="42.66932" lon="1.40107">
        <ele>3019.157715</ele>
        <time>2012-08-07T12:53:30Z</time>
      </trkpt>
      <trkpt lat="42.66926" lon="1.40098">
        <ele>3020.118652</ele>
        <time>2012-08-07T12:53:38Z</time>
      </trkpt>
      <trkpt lat="42.66924" lon="1.40093">
        <ele>3020.599609</ele>
        <time>2012-08-07T12:53:43Z</time>
      </trkpt>
      <trkpt lat="42.66919" lon="1.4009">
        <ele>3021.080078</ele>
        <time>2012-08-07T12:53:48Z</time>
      </trkpt>
      <trkpt lat="42.66914" lon="1.40091">
        <ele>3022.041504</ele>
        <time>2012-08-07T12:53:53Z</time>
      </trkpt>
      <trkpt lat="42.6691" lon="1.40088">
        <ele>3023.483398</ele>
        <time>2012-08-07T12:53:57Z</time>
      </trkpt>
      <trkpt lat="42.66907" lon="1.40084">
        <ele>3024.444824</ele>
        <time>2012-08-07T12:54:01Z</time>
      </trkpt>
      <trkpt lat="42.66902" lon="1.4008">
        <ele>3025.40625</ele>
        <time>2012-08-07T12:54:05Z</time>
      </trkpt>
      <trkpt lat="42.66897" lon="1.40076">
        <ele>3026.367188</ele>
        <time>2012-08-07T12:54:11Z</time>
      </trkpt>
      <trkpt lat="42.66897" lon="1.40069">
        <ele>3026.367188</ele>
        <time>2012-08-07T12:54:15Z</time>
      </trkpt>
      <trkpt lat="42.66899" lon="1.40065">
        <ele>3026.367188</ele>
        <time>2012-08-07T12:54:18Z</time>
      </trkpt>
      <trkpt lat="42.66898" lon="1.40061">
        <ele>3026.367188</ele>
        <time>2012-08-07T12:54:21Z</time>
      </trkpt>
      <trkpt lat="42.66897" lon="1.40059">
        <ele>3025.886719</ele>
        <time>2012-08-07T12:54:23Z</time>
      </trkpt>
      <trkpt lat="42.66898" lon="1.40049">
        <ele>3025.40625</ele>
        <time>2012-08-07T12:54:30Z</time>
      </trkpt>
      <trkpt lat="42.6689" lon="1.40045">
        <ele>3026.848145</ele>
        <time>2012-08-07T12:54:37Z</time>
      </trkpt>
      <trkpt lat="42.66888" lon="1.40044">
        <ele>3027.328613</ele>
        <time>2012-08-07T12:54:40Z</time>
      </trkpt>
      <trkpt lat="42.66883" lon="1.40044">
        <ele>3028.770996</ele>
        <time>2012-08-07T12:54:45Z</time>
      </trkpt>
      <trkpt lat="42.66877" lon="1.40041">
        <ele>3029.732422</ele>
        <time>2012-08-07T12:54:51Z</time>
      </trkpt>
      <trkpt lat="42.6687" lon="1.40035">
        <ele>3029.251953</ele>
        <time>2012-08-07T12:54:57Z</time>
      </trkpt>
      <trkpt lat="42.66852" lon="1.40017">
        <ele>3029.251953</ele>
        <time>2012-08-07T12:55:16Z</time>
      </trkpt>
      <trkpt lat="42.66841" lon="1.40002">
        <ele>3026.367188</ele>
        <time>2012-08-07T12:55:28Z</time>
      </trkpt>
      <trkpt lat="42.66842" lon="1.39996">
        <ele>3025.886719</ele>
        <time>2012-08-07T12:55:32Z</time>
      </trkpt>
      <trkpt lat="42.66843" lon="1.39991">
        <ele>3025.886719</ele>
        <time>2012-08-07T12:55:36Z</time>
      </trkpt>
      <trkpt lat="42.66846" lon="1.39979">
        <ele>3025.40625</ele>
        <time>2012-08-07T12:55:45Z</time>
      </trkpt>
      <trkpt lat="42.66846" lon="1.39977">
        <ele>3025.886719</ele>
        <time>2012-08-07T12:55:47Z</time>
      </trkpt>
      <trkpt lat="42.66847" lon="1.39974">
        <ele>3025.886719</ele>
        <time>2012-08-07T12:55:49Z</time>
      </trkpt>
      <trkpt lat="42.66846" lon="1.39959">
        <ele>3029.251953</ele>
        <time>2012-08-07T12:56:00Z</time>
      </trkpt>
      <trkpt lat="42.66848" lon="1.39955">
        <ele>3030.212891</ele>
        <time>2012-08-07T12:56:04Z</time>
      </trkpt>
      <trkpt lat="42.66848" lon="1.39947">
        <ele>3031.174316</ele>
        <time>2012-08-07T12:56:08Z</time>
      </trkpt>
      <trkpt lat="42.66848" lon="1.39942">
        <ele>3031.655273</ele>
        <time>2012-08-07T12:56:11Z</time>
      </trkpt>
      <trkpt lat="42.66851" lon="1.39925">
        <ele>3031.655273</ele>
        <time>2012-08-07T12:56:21Z</time>
      </trkpt>
      <trkpt lat="42.6685" lon="1.39921">
        <ele>3032.135742</ele>
        <time>2012-08-07T12:56:25Z</time>
      </trkpt>
      <trkpt lat="42.66854" lon="1.39907">
        <ele>3035.019531</ele>
        <time>2012-08-07T12:56:38Z</time>
      </trkpt>
      <trkpt lat="42.66856" lon="1.39903">
        <ele>3035.5</ele>
        <time>2012-08-07T12:56:42Z</time>
      </trkpt>
      <trkpt lat="42.66851" lon="1.39895">
        <ele>3038.864746</ele>
        <time>2012-08-07T12:56:58Z</time>
      </trkpt>
      <trkpt lat="42.66845" lon="1.39892">
        <ele>3042.709961</ele>
        <time>2012-08-07T12:57:19Z</time>
      </trkpt>
      <trkpt lat="42.6684" lon="1.39887">
        <ele>3045.59375</ele>
        <time>2012-08-07T12:57:30Z</time>
      </trkpt>
      <trkpt lat="42.66832" lon="1.39884">
        <ele>3049.438965</ele>
        <time>2012-08-07T12:57:41Z</time>
      </trkpt>
      <trkpt lat="42.66827" lon="1.3987">
        <ele>3051.361816</ele>
        <time>2012-08-07T12:57:54Z</time>
      </trkpt>
      <trkpt lat="42.66824" lon="1.39861">
        <ele>3051.842285</ele>
        <time>2012-08-07T12:58:02Z</time>
      </trkpt>
      <trkpt lat="42.66822" lon="1.39845">
        <ele>3052.323242</ele>
        <time>2012-08-07T12:58:16Z</time>
      </trkpt>
      <trkpt lat="42.66816" lon="1.39834">
        <ele>3056.168457</ele>
        <time>2012-08-07T12:58:37Z</time>
      </trkpt>
      <trkpt lat="42.66813" lon="1.39821">
        <ele>3060.494629</ele>
        <time>2012-08-07T12:59:01Z</time>
      </trkpt>
      <trkpt lat="42.66811" lon="1.39811">
        <ele>3064.339844</ele>
        <time>2012-08-07T12:59:20Z</time>
      </trkpt>
      <trkpt lat="42.66806" lon="1.39804">
        <ele>3066.743164</ele>
        <time>2012-08-07T12:59:39Z</time>
      </trkpt>
      <trkpt lat="42.66804" lon="1.39787">
        <ele>3070.10791</ele>
        <time>2012-08-07T13:00:11Z</time>
      </trkpt>
      <trkpt lat="42.66803" lon="1.39782">
        <ele>3076.355957</ele>
        <time>2012-08-07T13:00:27Z</time>
      </trkpt>
      <trkpt lat="42.66795" lon="1.39772">
        <ele>3082.604492</ele>
        <time>2012-08-07T13:00:54Z</time>
      </trkpt>
      <trkpt lat="42.66792" lon="1.39767">
        <ele>3088.372559</ele>
        <time>2012-08-07T13:01:40Z</time>
      </trkpt>
      <trkpt lat="42.66791" lon="1.39765">
        <ele>3088.372559</ele>
        <time>2012-08-07T13:01:46Z</time>
      </trkpt>
      <trkpt lat="42.6679" lon="1.39752">
        <ele>3091.256348</ele>
        <time>2012-08-07T13:02:10Z</time>
      </trkpt>
      <trkpt lat="42.66782" lon="1.39748">
        <ele>3097.98584</ele>
        <time>2012-08-07T13:02:36Z</time>
      </trkpt>
      <trkpt lat="42.66775" lon="1.39744">
        <ele>3102.79248</ele>
        <time>2012-08-07T13:02:58Z</time>
      </trkpt>
      <trkpt lat="42.6677" lon="1.39738">
        <ele>3106.157227</ele>
        <time>2012-08-07T13:03:14Z</time>
      </trkpt>
      <trkpt lat="42.6677" lon="1.3974">
        <ele>3106.157227</ele>
        <time>2012-08-07T13:03:19Z</time>
      </trkpt>
      <trkpt lat="42.66769" lon="1.39751">
        <ele>3105.67627</ele>
        <time>2012-08-07T13:03:34Z</time>
      </trkpt>
      <trkpt lat="42.66762" lon="1.39758">
        <ele>3110.002441</ele>
        <time>2012-08-07T13:03:52Z</time>
      </trkpt>
      <trkpt lat="42.66753" lon="1.3976">
        <ele>3118.653809</ele>
        <time>2012-08-07T13:04:24Z</time>
      </trkpt>
      <trkpt lat="42.66742" lon="1.39762">
        <ele>3126.825684</ele>
        <time>2012-08-07T13:06:35Z</time>
      </trkpt>
      <trkpt lat="42.66742" lon="1.39762">
        <ele>3126.825684</ele>
        <time>2012-08-07T13:06:41Z</time>
      </trkpt>
      <trkpt lat="42.6674" lon="1.39761">
        <ele>3127.786621</ele>
        <time>2012-08-07T13:07:00Z</time>
      </trkpt>
      <trkpt lat="42.66729" lon="1.39765">
        <ele>3134.996582</ele>
        <time>2012-08-07T13:07:50Z</time>
      </trkpt>
      <trkpt lat="42.66727" lon="1.39767">
        <ele>3135.477051</ele>
        <time>2012-08-07T13:08:02Z</time>
      </trkpt>
      <trkpt lat="42.6672" lon="1.3977">
        <ele>3136.919434</ele>
        <time>2012-08-07T13:08:19Z</time>
      </trkpt>
      <trkpt lat="42.66712" lon="1.39778">
        <ele>3138.361328</ele>
        <time>2012-08-07T13:08:38Z</time>
      </trkpt>
      <trkpt lat="42.66706" lon="1.39783">
        <ele>3140.764648</ele>
        <time>2012-08-07T13:09:03Z</time>
      </trkpt>
      <trkpt lat="42.66699" lon="1.3979">
        <ele>3141.725586</ele>
        <time>2012-08-07T13:09:36Z</time>
      </trkpt>
      <trkpt lat="42.66693" lon="1.39794">
        <ele>3143.648438</ele>
        <time>2012-08-07T13:15:31Z</time>
      </trkpt>
      <trkpt lat="42.66693" lon="1.39794">
        <ele>3144.609863</ele>
        <time>2012-08-07T13:17:19Z</time>
      </trkpt>
      <trkpt lat="42.66694" lon="1.39794">
        <ele>3144.609863</ele>
        <time>2012-08-07T13:20:45Z</time>
      </trkpt>
      <trkpt lat="42.66696" lon="1.39794">
        <ele>3143.648438</ele>
        <time>2012-08-07T13:20:56Z</time>
      </trkpt>
      <trkpt lat="42.66705" lon="1.39783">
        <ele>3144.609863</ele>
        <time>2012-08-07T13:21:45Z</time>
      </trkpt>
      <trkpt lat="42.66714" lon="1.39779">
        <ele>3143.16748</ele>
        <time>2012-08-07T13:22:07Z</time>
      </trkpt>
      <trkpt lat="42.66724" lon="1.3977">
        <ele>3142.687012</ele>
        <time>2012-08-07T13:22:30Z</time>
      </trkpt>
      <trkpt lat="42.66737" lon="1.3977">
        <ele>3136.919434</ele>
        <time>2012-08-07T13:23:43Z</time>
      </trkpt>
      <trkpt lat="42.6674" lon="1.39771">
        <ele>3133.074219</ele>
        <time>2012-08-07T13:24:12Z</time>
      </trkpt>
      <trkpt lat="42.6674" lon="1.39767">
        <ele>3123.460449</ele>
        <time>2012-08-07T13:24:38Z</time>
      </trkpt>
      <trkpt lat="42.66745" lon="1.39769">
        <ele>3120.57666</ele>
        <time>2012-08-07T13:25:27Z</time>
      </trkpt>
      <trkpt lat="42.66759" lon="1.39773">
        <ele>3114.808594</ele>
        <time>2012-08-07T13:25:57Z</time>
      </trkpt>
      <trkpt lat="42.66767" lon="1.39772">
        <ele>3110.963379</ele>
        <time>2012-08-07T13:26:17Z</time>
      </trkpt>
      <trkpt lat="42.66783" lon="1.39769">
        <ele>3101.831055</ele>
        <time>2012-08-07T13:27:06Z</time>
      </trkpt>
      <trkpt lat="42.66789" lon="1.39771">
        <ele>3097.505371</ele>
        <time>2012-08-07T13:27:26Z</time>
      </trkpt>
      <trkpt lat="42.66797" lon="1.39772">
        <ele>3090.294922</ele>
        <time>2012-08-07T13:27:50Z</time>
      </trkpt>
      <trkpt lat="42.66803" lon="1.39778">
        <ele>3086.449707</ele>
        <time>2012-08-07T13:28:04Z</time>
      </trkpt>
      <trkpt lat="42.66805" lon="1.39788">
        <ele>3082.604492</ele>
        <time>2012-08-07T13:28:19Z</time>
      </trkpt>
      <trkpt lat="42.66809" lon="1.39799">
        <ele>3077.79834</ele>
        <time>2012-08-07T13:28:39Z</time>
      </trkpt>
      <trkpt lat="42.66813" lon="1.39807">
        <ele>3073.952637</ele>
        <time>2012-08-07T13:28:56Z</time>
      </trkpt>
      <trkpt lat="42.66815" lon="1.39808">
        <ele>3072.510742</ele>
        <time>2012-08-07T13:29:00Z</time>
      </trkpt>
      <trkpt lat="42.66813" lon="1.39818">
        <ele>3069.146484</ele>
        <time>2012-08-07T13:29:14Z</time>
      </trkpt>
      <trkpt lat="42.66816" lon="1.39827">
        <ele>3066.262207</ele>
        <time>2012-08-07T13:29:36Z</time>
      </trkpt>
      <trkpt lat="42.66821" lon="1.39833">
        <ele>3063.378418</ele>
        <time>2012-08-07T13:29:52Z</time>
      </trkpt>
      <trkpt lat="42.66823" lon="1.39841">
        <ele>3061.936523</ele>
        <time>2012-08-07T13:29:59Z</time>
      </trkpt>
      <trkpt lat="42.66825" lon="1.39861">
        <ele>3058.09082</ele>
        <time>2012-08-07T13:30:18Z</time>
      </trkpt>
      <trkpt lat="42.66828" lon="1.3988">
        <ele>3055.207031</ele>
        <time>2012-08-07T13:30:35Z</time>
      </trkpt>
      <trkpt lat="42.66831" lon="1.39888">
        <ele>3053.765137</ele>
        <time>2012-08-07T13:30:44Z</time>
      </trkpt>
      <trkpt lat="42.66844" lon="1.39895">
        <ele>3050.880859</ele>
        <time>2012-08-07T13:31:11Z</time>
      </trkpt>
      <trkpt lat="42.6685" lon="1.39896">
        <ele>3049.919922</ele>
        <time>2012-08-07T13:31:24Z</time>
      </trkpt>
      <trkpt lat="42.66859" lon="1.39906">
        <ele>3046.074707</ele>
        <time>2012-08-07T13:31:42Z</time>
      </trkpt>
      <trkpt lat="42.6686" lon="1.39915">
        <ele>3040.787598</ele>
        <time>2012-08-07T13:31:59Z</time>
      </trkpt>
      <trkpt lat="42.66867" lon="1.39928">
        <ele>3036.461426</ele>
        <time>2012-08-07T13:32:24Z</time>
      </trkpt>
      <trkpt lat="42.66875" lon="1.39929">
        <ele>3033.577637</ele>
        <time>2012-08-07T13:32:39Z</time>
      </trkpt>
      <trkpt lat="42.66885" lon="1.39929">
        <ele>3029.732422</ele>
        <time>2012-08-07T13:32:59Z</time>
      </trkpt>
      <trkpt lat="42.66895" lon="1.39927">
        <ele>3025.886719</ele>
        <time>2012-08-07T13:33:15Z</time>
      </trkpt>
      <trkpt lat="42.66906" lon="1.39925">
        <ele>3022.521973</ele>
        <time>2012-08-07T13:33:36Z</time>
      </trkpt>
      <trkpt lat="42.6691" lon="1.39931">
        <ele>3020.118652</ele>
        <time>2012-08-07T13:34:03Z</time>
      </trkpt>
      <trkpt lat="42.66918" lon="1.3995">
        <ele>3012.428223</ele>
        <time>2012-08-07T13:34:38Z</time>
      </trkpt>
      <trkpt lat="42.6693" lon="1.39945">
        <ele>3006.180176</ele>
        <time>2012-08-07T13:35:01Z</time>
      </trkpt>
      <trkpt lat="42.66938" lon="1.39943">
        <ele>3002.81543</ele>
        <time>2012-08-07T13:35:21Z</time>
      </trkpt>
      <trkpt lat="42.66945" lon="1.39942">
        <ele>3001.854004</ele>
        <time>2012-08-07T13:35:37Z</time>
      </trkpt>
      <trkpt lat="42.66951" lon="1.39929">
        <ele>2998.489746</ele>
        <time>2012-08-07T13:36:07Z</time>
      </trkpt>
      <trkpt lat="42.66953" lon="1.39928">
        <ele>2997.52832</ele>
        <time>2012-08-07T13:36:10Z</time>
      </trkpt>
      <trkpt lat="42.66955" lon="1.39931">
        <ele>2996.566895</ele>
        <time>2012-08-07T13:36:13Z</time>
      </trkpt>
      <trkpt lat="42.66956" lon="1.39939">
        <ele>2994.163086</ele>
        <time>2012-08-07T13:36:19Z</time>
      </trkpt>
      <trkpt lat="42.66964" lon="1.39941">
        <ele>2989.837402</ele>
        <time>2012-08-07T13:36:38Z</time>
      </trkpt>
      <trkpt lat="42.66971" lon="1.39942">
        <ele>2983.588867</ele>
        <time>2012-08-07T13:36:59Z</time>
      </trkpt>
      <trkpt lat="42.66985" lon="1.39938">
        <ele>2976.859863</ele>
        <time>2012-08-07T13:37:32Z</time>
      </trkpt>
      <trkpt lat="42.66985" lon="1.39937">
        <ele>2976.859863</ele>
        <time>2012-08-07T13:37:34Z</time>
      </trkpt>
      <trkpt lat="42.6699" lon="1.39944">
        <ele>2974.456543</ele>
        <time>2012-08-07T13:37:51Z</time>
      </trkpt>
      <trkpt lat="42.66992" lon="1.39947">
        <ele>2973.495117</ele>
        <time>2012-08-07T13:38:02Z</time>
      </trkpt>
      <trkpt lat="42.66994" lon="1.39948">
        <ele>2973.014648</ele>
        <time>2012-08-07T13:38:04Z</time>
      </trkpt>
      <trkpt lat="42.66996" lon="1.39951">
        <ele>2972.053223</ele>
        <time>2012-08-07T13:38:08Z</time>
      </trkpt>
      <trkpt lat="42.66998" lon="1.39954">
        <ele>2971.091797</ele>
        <time>2012-08-07T13:38:13Z</time>
      </trkpt>
      <trkpt lat="42.66999" lon="1.39956">
        <ele>2971.091797</ele>
        <time>2012-08-07T13:38:15Z</time>
      </trkpt>
      <trkpt lat="42.67011" lon="1.39952">
        <ele>2967.727539</ele>
        <time>2012-08-07T13:38:31Z</time>
      </trkpt>
      <trkpt lat="42.67019" lon="1.3995">
        <ele>2963.881836</ele>
        <time>2012-08-07T13:38:56Z</time>
      </trkpt>
      <trkpt lat="42.67027" lon="1.39944">
        <ele>2959.075195</ele>
        <time>2012-08-07T13:39:27Z</time>
      </trkpt>
      <trkpt lat="42.67037" lon="1.39937">
        <ele>2954.268555</ele>
        <time>2012-08-07T13:40:01Z</time>
      </trkpt>
      <trkpt lat="42.67038" lon="1.39933">
        <ele>2954.268555</ele>
        <time>2012-08-07T13:40:06Z</time>
      </trkpt>
      <trkpt lat="42.67041" lon="1.39938">
        <ele>2951.865234</ele>
        <time>2012-08-07T13:40:22Z</time>
      </trkpt>
      <trkpt lat="42.67054" lon="1.39933">
        <ele>2942.73291</ele>
        <time>2012-08-07T13:41:15Z</time>
      </trkpt>
      <trkpt lat="42.67058" lon="1.39932">
        <ele>2940.32959</ele>
        <time>2012-08-07T13:41:28Z</time>
      </trkpt>
      <trkpt lat="42.6707" lon="1.39932">
        <ele>2931.677734</ele>
        <time>2012-08-07T13:42:01Z</time>
      </trkpt>
      <trkpt lat="42.67078" lon="1.39936">
        <ele>2927.832031</ele>
        <time>2012-08-07T13:42:42Z</time>
      </trkpt>
      <trkpt lat="42.67078" lon="1.39942">
        <ele>2926.390137</ele>
        <time>2012-08-07T13:42:59Z</time>
      </trkpt>
      <trkpt lat="42.67083" lon="1.39951">
        <ele>2924.467773</ele>
        <time>2012-08-07T13:43:19Z</time>
      </trkpt>
      <trkpt lat="42.67097" lon="1.39952">
        <ele>2910.528809</ele>
        <time>2012-08-07T13:43:40Z</time>
      </trkpt>
      <trkpt lat="42.6711" lon="1.39955">
        <ele>2897.550781</ele>
        <time>2012-08-07T13:43:59Z</time>
      </trkpt>
      <trkpt lat="42.67113" lon="1.39957">
        <ele>2896.108887</ele>
        <time>2012-08-07T13:44:02Z</time>
      </trkpt>
      <trkpt lat="42.67118" lon="1.39958">
        <ele>2892.744141</ele>
        <time>2012-08-07T13:44:21Z</time>
      </trkpt>
      <trkpt lat="42.67125" lon="1.39961">
        <ele>2890.821777</ele>
        <time>2012-08-07T13:44:53Z</time>
      </trkpt>
      <trkpt lat="42.6713" lon="1.39967">
        <ele>2890.821777</ele>
        <time>2012-08-07T13:45:07Z</time>
      </trkpt>
      <trkpt lat="42.67142" lon="1.39972">
        <ele>2895.147461</ele>
        <time>2012-08-07T13:46:12Z</time>
      </trkpt>
      <trkpt lat="42.67144" lon="1.39972">
        <ele>2899.473145</ele>
        <time>2012-08-07T13:47:04Z</time>
      </trkpt>
      <trkpt lat="42.67146" lon="1.39966">
        <ele>2900.435059</ele>
        <time>2012-08-07T13:47:25Z</time>
      </trkpt>
      <trkpt lat="42.67154" lon="1.3996">
        <ele>2899.473145</ele>
        <time>2012-08-07T13:47:59Z</time>
      </trkpt>
      <trkpt lat="42.67159" lon="1.39963">
        <ele>2897.069824</ele>
        <time>2012-08-07T13:48:31Z</time>
      </trkpt>
      <trkpt lat="42.67169" lon="1.39959">
        <ele>2893.225098</ele>
        <time>2012-08-07T13:49:07Z</time>
      </trkpt>
      <trkpt lat="42.67187" lon="1.39952">
        <ele>2888.418457</ele>
        <time>2012-08-07T13:49:42Z</time>
      </trkpt>
      <trkpt lat="42.67196" lon="1.39954">
        <ele>2886.015137</ele>
        <time>2012-08-07T13:50:08Z</time>
      </trkpt>
      <trkpt lat="42.67202" lon="1.39942">
        <ele>2883.131348</ele>
        <time>2012-08-07T13:50:25Z</time>
      </trkpt>
      <trkpt lat="42.67211" lon="1.39931">
        <ele>2882.169922</ele>
        <time>2012-08-07T13:50:46Z</time>
      </trkpt>
      <trkpt lat="42.67228" lon="1.39927">
        <ele>2879.286133</ele>
        <time>2012-08-07T13:51:25Z</time>
      </trkpt>
      <trkpt lat="42.67243" lon="1.39928">
        <ele>2877.363281</ele>
        <time>2012-08-07T13:51:45Z</time>
      </trkpt>
      <trkpt lat="42.67256" lon="1.39928">
        <ele>2877.844238</ele>
        <time>2012-08-07T13:52:17Z</time>
      </trkpt>
      <trkpt lat="42.67267" lon="1.39936">
        <ele>2873.518066</ele>
        <time>2012-08-07T13:52:38Z</time>
      </trkpt>
      <trkpt lat="42.67274" lon="1.3994">
        <ele>2870.153809</ele>
        <time>2012-08-07T13:52:58Z</time>
      </trkpt>
      <trkpt lat="42.67285" lon="1.39942">
        <ele>2868.230957</ele>
        <time>2012-08-07T13:53:16Z</time>
      </trkpt>
      <trkpt lat="42.67298" lon="1.39947">
        <ele>2864.385254</ele>
        <time>2012-08-07T13:53:46Z</time>
      </trkpt>
      <trkpt lat="42.67307" lon="1.39951">
        <ele>2864.865723</ele>
        <time>2012-08-07T13:54:01Z</time>
      </trkpt>
      <trkpt lat="42.6732" lon="1.39958">
        <ele>2861.501465</ele>
        <time>2012-08-07T13:54:25Z</time>
      </trkpt>
      <trkpt lat="42.67327" lon="1.39972">
        <ele>2858.136719</ele>
        <time>2012-08-07T13:54:49Z</time>
      </trkpt>
      <trkpt lat="42.67328" lon="1.39974">
        <ele>2857.65625</ele>
        <time>2012-08-07T13:54:59Z</time>
      </trkpt>
      <trkpt lat="42.67329" lon="1.39981">
        <ele>2856.214355</ele>
        <time>2012-08-07T13:55:23Z</time>
      </trkpt>
      <trkpt lat="42.67334" lon="1.39976">
        <ele>2854.291504</ele>
        <time>2012-08-07T13:56:47Z</time>
      </trkpt>
      <trkpt lat="42.67337" lon="1.39971">
        <ele>2853.811035</ele>
        <time>2012-08-07T13:56:51Z</time>
      </trkpt>
      <trkpt lat="42.6734" lon="1.39969">
        <ele>2853.811035</ele>
        <time>2012-08-07T13:56:54Z</time>
      </trkpt>
      <trkpt lat="42.6735" lon="1.39969">
        <ele>2851.888184</ele>
        <time>2012-08-07T13:57:03Z</time>
      </trkpt>
      <trkpt lat="42.67353" lon="1.39968">
        <ele>2850.926758</ele>
        <time>2012-08-07T13:57:06Z</time>
      </trkpt>
      <trkpt lat="42.67364" lon="1.39962">
        <ele>2849.004395</ele>
        <time>2012-08-07T13:57:18Z</time>
      </trkpt>
      <trkpt lat="42.67376" lon="1.39957">
        <ele>2849.004395</ele>
        <time>2012-08-07T13:57:32Z</time>
      </trkpt>
      <trkpt lat="42.67386" lon="1.39955">
        <ele>2849.004395</ele>
        <time>2012-08-07T13:57:41Z</time>
      </trkpt>
      <trkpt lat="42.67397" lon="1.39947">
        <ele>2849.004395</ele>
        <time>2012-08-07T13:58:00Z</time>
      </trkpt>
      <trkpt lat="42.67402" lon="1.39942">
        <ele>2847.5625</ele>
        <time>2012-08-07T13:58:11Z</time>
      </trkpt>
      <trkpt lat="42.67414" lon="1.39941">
        <ele>2842.755859</ele>
        <time>2012-08-07T13:58:26Z</time>
      </trkpt>
      <trkpt lat="42.67424" lon="1.39943">
        <ele>2841.794434</ele>
        <time>2012-08-07T13:58:36Z</time>
      </trkpt>
      <trkpt lat="42.67435" lon="1.39943">
        <ele>2839.391602</ele>
        <time>2012-08-07T13:58:53Z</time>
      </trkpt>
      <trkpt lat="42.67439" lon="1.39943">
        <ele>2838.910645</ele>
        <time>2012-08-07T13:58:57Z</time>
      </trkpt>
      <trkpt lat="42.67451" lon="1.39931">
        <ele>2838.430176</ele>
        <time>2012-08-07T13:59:15Z</time>
      </trkpt>
      <trkpt lat="42.6746" lon="1.39919">
        <ele>2839.87207</ele>
        <time>2012-08-07T13:59:26Z</time>
      </trkpt>
      <trkpt lat="42.67464" lon="1.39919">
        <ele>2840.352539</ele>
        <time>2012-08-07T13:59:29Z</time>
      </trkpt>
      <trkpt lat="42.67478" lon="1.39917">
        <ele>2839.391602</ele>
        <time>2012-08-07T13:59:54Z</time>
      </trkpt>
      <trkpt lat="42.67477" lon="1.39917">
        <ele>2839.391602</ele>
        <time>2012-08-07T14:01:09Z</time>
      </trkpt>
      <trkpt lat="42.6748" lon="1.39915">
        <ele>2837.949219</ele>
        <time>2012-08-07T14:02:30Z</time>
      </trkpt>
      <trkpt lat="42.67483" lon="1.39918">
        <ele>2837.46875</ele>
        <time>2012-08-07T14:02:35Z</time>
      </trkpt>
      <trkpt lat="42.67488" lon="1.39916">
        <ele>2836.026855</ele>
        <time>2012-08-07T14:03:02Z</time>
      </trkpt>
      <trkpt lat="42.6749" lon="1.39902">
        <ele>2831.219727</ele>
        <time>2012-08-07T14:03:27Z</time>
      </trkpt>
      <trkpt lat="42.67492" lon="1.39895">
        <ele>2826.413086</ele>
        <time>2012-08-07T14:03:55Z</time>
      </trkpt>
      <trkpt lat="42.67496" lon="1.3989">
        <ele>2823.048828</ele>
        <time>2012-08-07T14:04:11Z</time>
      </trkpt>
      <trkpt lat="42.67506" lon="1.39898">
        <ele>2819.203613</ele>
        <time>2012-08-07T14:04:32Z</time>
      </trkpt>
      <trkpt lat="42.67512" lon="1.39899">
        <ele>2814.877441</ele>
        <time>2012-08-07T14:04:56Z</time>
      </trkpt>
      <trkpt lat="42.67516" lon="1.3989">
        <ele>2811.513184</ele>
        <time>2012-08-07T14:05:20Z</time>
      </trkpt>
      <trkpt lat="42.67521" lon="1.39896">
        <ele>2808.148438</ele>
        <time>2012-08-07T14:05:43Z</time>
      </trkpt>
      <trkpt lat="42.67528" lon="1.39901">
        <ele>2804.303223</ele>
        <time>2012-08-07T14:06:02Z</time>
      </trkpt>
      <trkpt lat="42.67533" lon="1.39909">
        <ele>2800.938477</ele>
        <time>2012-08-07T14:06:15Z</time>
      </trkpt>
      <trkpt lat="42.67533" lon="1.39914">
        <ele>2798.535156</ele>
        <time>2012-08-07T14:06:33Z</time>
      </trkpt>
      <trkpt lat="42.67536" lon="1.39898">
        <ele>2794.208984</ele>
        <time>2012-08-07T14:07:00Z</time>
      </trkpt>
      <trkpt lat="42.67544" lon="1.39887">
        <ele>2785.07666</ele>
        <time>2012-08-07T14:07:41Z</time>
      </trkpt>
      <trkpt lat="42.67549" lon="1.3988">
        <ele>2779.309082</ele>
        <time>2012-08-07T14:08:05Z</time>
      </trkpt>
      <trkpt lat="42.67556" lon="1.39882">
        <ele>2774.502441</ele>
        <time>2012-08-07T14:08:27Z</time>
      </trkpt>
      <trkpt lat="42.67563" lon="1.39888">
        <ele>2768.253418</ele>
        <time>2012-08-07T14:08:48Z</time>
      </trkpt>
      <trkpt lat="42.67566" lon="1.39886">
        <ele>2766.330566</ele>
        <time>2012-08-07T14:08:59Z</time>
      </trkpt>
      <trkpt lat="42.67569" lon="1.39891">
        <ele>2764.408203</ele>
        <time>2012-08-07T14:09:06Z</time>
      </trkpt>
      <trkpt lat="42.67572" lon="1.39882">
        <ele>2760.08252</ele>
        <time>2012-08-07T14:09:18Z</time>
      </trkpt>
      <trkpt lat="42.67573" lon="1.39878">
        <ele>2758.640137</ele>
        <time>2012-08-07T14:09:22Z</time>
      </trkpt>
      <trkpt lat="42.67578" lon="1.39875">
        <ele>2758.159668</ele>
        <time>2012-08-07T14:09:31Z</time>
      </trkpt>
      <trkpt lat="42.67589" lon="1.39876">
        <ele>2756.237305</ele>
        <time>2012-08-07T14:09:50Z</time>
      </trkpt>
      <trkpt lat="42.67603" lon="1.39881">
        <ele>2753.353027</ele>
        <time>2012-08-07T14:10:19Z</time>
      </trkpt>
      <trkpt lat="42.67605" lon="1.39885">
        <ele>2752.39209</ele>
        <time>2012-08-07T14:10:43Z</time>
      </trkpt>
      <trkpt lat="42.67611" lon="1.39887">
        <ele>2751.430664</ele>
        <time>2012-08-07T14:11:05Z</time>
      </trkpt>
      <trkpt lat="42.67615" lon="1.39887">
        <ele>2751.430664</ele>
        <time>2012-08-07T14:11:27Z</time>
      </trkpt>
      <trkpt lat="42.67618" lon="1.39898">
        <ele>2745.182129</ele>
        <time>2012-08-07T14:12:20Z</time>
      </trkpt>
      <trkpt lat="42.6763" lon="1.399">
        <ele>2738.452637</ele>
        <time>2012-08-07T14:13:01Z</time>
      </trkpt>
      <trkpt lat="42.67637" lon="1.399">
        <ele>2736.049316</ele>
        <time>2012-08-07T14:13:21Z</time>
      </trkpt>
      <trkpt lat="42.67642" lon="1.39901">
        <ele>2735.568359</ele>
        <time>2012-08-07T14:13:47Z</time>
      </trkpt>
      <trkpt lat="42.67651" lon="1.39903">
        <ele>2734.126465</ele>
        <time>2012-08-07T14:14:07Z</time>
      </trkpt>
      <trkpt lat="42.67653" lon="1.399">
        <ele>2733.165527</ele>
        <time>2012-08-07T14:14:13Z</time>
      </trkpt>
      <trkpt lat="42.67662" lon="1.39893">
        <ele>2729.320312</ele>
        <time>2012-08-07T14:14:34Z</time>
      </trkpt>
      <trkpt lat="42.67669" lon="1.39892">
        <ele>2726.916992</ele>
        <time>2012-08-07T14:14:48Z</time>
      </trkpt>
      <trkpt lat="42.67676" lon="1.39895">
        <ele>2725.475098</ele>
        <time>2012-08-07T14:14:59Z</time>
      </trkpt>
      <trkpt lat="42.67683" lon="1.39886">
        <ele>2722.59082</ele>
        <time>2012-08-07T14:15:15Z</time>
      </trkpt>
      <trkpt lat="42.67686" lon="1.3989">
        <ele>2719.707031</ele>
        <time>2012-08-07T14:15:27Z</time>
      </trkpt>
      <trkpt lat="42.67692" lon="1.399">
        <ele>2715.381348</ele>
        <time>2012-08-07T14:15:48Z</time>
      </trkpt>
      <trkpt lat="42.67698" lon="1.39907">
        <ele>2712.49707</ele>
        <time>2012-08-07T14:16:06Z</time>
      </trkpt>
      <trkpt lat="42.67699" lon="1.39907">
        <ele>2712.016602</ele>
        <time>2012-08-07T14:16:09Z</time>
      </trkpt>
      <trkpt lat="42.67704" lon="1.399">
        <ele>2710.094238</ele>
        <time>2012-08-07T14:16:28Z</time>
      </trkpt>
      <trkpt lat="42.67704" lon="1.39902">
        <ele>2709.132812</ele>
        <time>2012-08-07T14:16:35Z</time>
      </trkpt>
      <trkpt lat="42.67709" lon="1.39904">
        <ele>2708.171387</ele>
        <time>2012-08-07T14:16:42Z</time>
      </trkpt>
      <trkpt lat="42.67718" lon="1.39903">
        <ele>2707.209473</ele>
        <time>2012-08-07T14:17:07Z</time>
      </trkpt>
      <trkpt lat="42.67724" lon="1.39895">
        <ele>2707.209473</ele>
        <time>2012-08-07T14:17:31Z</time>
      </trkpt>
      <trkpt lat="42.67729" lon="1.39886">
        <ele>2704.325684</ele>
        <time>2012-08-07T14:17:47Z</time>
      </trkpt>
      <trkpt lat="42.67727" lon="1.39879">
        <ele>2701.441895</ele>
        <time>2012-08-07T14:18:15Z</time>
      </trkpt>
      <trkpt lat="42.67723" lon="1.39876">
        <ele>2700.961426</ele>
        <time>2012-08-07T14:18:32Z</time>
      </trkpt>
      <trkpt lat="42.67723" lon="1.39872">
        <ele>2698.558105</ele>
        <time>2012-08-07T14:18:40Z</time>
      </trkpt>
      <trkpt lat="42.67726" lon="1.39865">
        <ele>2695.193359</ele>
        <time>2012-08-07T14:18:50Z</time>
      </trkpt>
      <trkpt lat="42.67729" lon="1.39862">
        <ele>2694.231934</ele>
        <time>2012-08-07T14:18:54Z</time>
      </trkpt>
      <trkpt lat="42.67729" lon="1.39859">
        <ele>2693.751465</ele>
        <time>2012-08-07T14:18:57Z</time>
      </trkpt>
      <trkpt lat="42.67735" lon="1.39849">
        <ele>2693.270996</ele>
        <time>2012-08-07T14:19:12Z</time>
      </trkpt>
      <trkpt lat="42.67742" lon="1.39842">
        <ele>2691.348145</ele>
        <time>2012-08-07T14:19:28Z</time>
      </trkpt>
      <trkpt lat="42.67742" lon="1.39837">
        <ele>2690.386719</ele>
        <time>2012-08-07T14:19:34Z</time>
      </trkpt>
      <trkpt lat="42.67746" lon="1.39831">
        <ele>2689.425293</ele>
        <time>2012-08-07T14:19:43Z</time>
      </trkpt>
      <trkpt lat="42.67752" lon="1.39823">
        <ele>2688.944824</ele>
        <time>2012-08-07T14:19:56Z</time>
      </trkpt>
      <trkpt lat="42.67758" lon="1.39813">
        <ele>2687.50293</ele>
        <time>2012-08-07T14:20:12Z</time>
      </trkpt>
      <trkpt lat="42.67764" lon="1.39806">
        <ele>2684.138184</ele>
        <time>2012-08-07T14:20:29Z</time>
      </trkpt>
      <trkpt lat="42.67768" lon="1.39801">
        <ele>2683.177246</ele>
        <time>2012-08-07T14:20:37Z</time>
      </trkpt>
      <trkpt lat="42.67771" lon="1.39795">
        <ele>2682.21582</ele>
        <time>2012-08-07T14:20:42Z</time>
      </trkpt>
      <trkpt lat="42.67776" lon="1.39788">
        <ele>2681.254395</ele>
        <time>2012-08-07T14:21:14Z</time>
      </trkpt>
      <trkpt lat="42.67779" lon="1.39775">
        <ele>2676.928711</ele>
        <time>2012-08-07T14:21:38Z</time>
      </trkpt>
      <trkpt lat="42.67779" lon="1.39773">
        <ele>2676.447754</ele>
        <time>2012-08-07T14:21:39Z</time>
      </trkpt>
      <trkpt lat="42.6778" lon="1.39762">
        <ele>2672.602051</ele>
        <time>2012-08-07T14:22:01Z</time>
      </trkpt>
      <trkpt lat="42.67789" lon="1.39752">
        <ele>2662.508789</ele>
        <time>2012-08-07T14:22:55Z</time>
      </trkpt>
      <trkpt lat="42.67793" lon="1.39748">
        <ele>2658.663086</ele>
        <time>2012-08-07T14:23:58Z</time>
      </trkpt>
      <trkpt lat="42.67799" lon="1.39738">
        <ele>2652.895508</ele>
        <time>2012-08-07T14:24:18Z</time>
      </trkpt>
      <trkpt lat="42.67802" lon="1.39735">
        <ele>2646.646973</ele>
        <time>2012-08-07T14:24:45Z</time>
      </trkpt>
      <trkpt lat="42.67805" lon="1.39719">
        <ele>2641.839844</ele>
        <time>2012-08-07T14:25:35Z</time>
      </trkpt>
      <trkpt lat="42.67813" lon="1.39721">
        <ele>2631.746582</ele>
        <time>2012-08-07T14:26:03Z</time>
      </trkpt>
      <trkpt lat="42.67823" lon="1.39726">
        <ele>2617.807617</ele>
        <time>2012-08-07T14:26:33Z</time>
      </trkpt>
      <trkpt lat="42.67825" lon="1.39733">
        <ele>2615.404297</ele>
        <time>2012-08-07T14:26:46Z</time>
      </trkpt>
      <trkpt lat="42.67826" lon="1.39745">
        <ele>2615.404297</ele>
        <time>2012-08-07T14:27:04Z</time>
      </trkpt>
      <trkpt lat="42.67832" lon="1.39754">
        <ele>2614.442871</ele>
        <time>2012-08-07T14:27:30Z</time>
      </trkpt>
      <trkpt lat="42.67835" lon="1.39756">
        <ele>2612.52002</ele>
        <time>2012-08-07T14:28:08Z</time>
      </trkpt>
      <trkpt lat="42.67845" lon="1.39757">
        <ele>2610.116699</ele>
        <time>2012-08-07T14:28:53Z</time>
      </trkpt>
      <trkpt lat="42.67854" lon="1.39751">
        <ele>2605.790527</ele>
        <time>2012-08-07T14:29:13Z</time>
      </trkpt>
      <trkpt lat="42.67867" lon="1.39744">
        <ele>2596.177734</ele>
        <time>2012-08-07T14:29:56Z</time>
      </trkpt>
      <trkpt lat="42.6787" lon="1.39744">
        <ele>2595.216309</ele>
        <time>2012-08-07T14:30:28Z</time>
      </trkpt>
      <trkpt lat="42.67882" lon="1.39736">
        <ele>2590.890381</ele>
        <time>2012-08-07T14:30:53Z</time>
      </trkpt>
      <trkpt lat="42.67893" lon="1.39734">
        <ele>2587.044922</ele>
        <time>2012-08-07T14:31:30Z</time>
      </trkpt>
      <trkpt lat="42.67894" lon="1.39733">
        <ele>2587.044922</ele>
        <time>2012-08-07T14:31:31Z</time>
      </trkpt>
      <trkpt lat="42.67897" lon="1.39747">
        <ele>2583.68042</ele>
        <time>2012-08-07T14:31:52Z</time>
      </trkpt>
      <trkpt lat="42.67898" lon="1.3975">
        <ele>2583.199707</ele>
        <time>2012-08-07T14:31:57Z</time>
      </trkpt>
      <trkpt lat="42.67903" lon="1.39763">
        <ele>2582.718994</ele>
        <time>2012-08-07T14:32:14Z</time>
      </trkpt>
      <trkpt lat="42.67904" lon="1.39762">
        <ele>2582.718994</ele>
        <time>2012-08-07T14:32:15Z</time>
      </trkpt>
      <trkpt lat="42.67907" lon="1.39776">
        <ele>2583.199707</ele>
        <time>2012-08-07T14:32:30Z</time>
      </trkpt>
      <trkpt lat="42.67909" lon="1.39785">
        <ele>2583.68042</ele>
        <time>2012-08-07T14:32:44Z</time>
      </trkpt>
      <trkpt lat="42.67909" lon="1.39797">
        <ele>2584.641846</ele>
        <time>2012-08-07T14:32:58Z</time>
      </trkpt>
      <trkpt lat="42.67908" lon="1.39815">
        <ele>2584.161133</ele>
        <time>2012-08-07T14:33:15Z</time>
      </trkpt>
      <trkpt lat="42.6791" lon="1.39821">
        <ele>2584.641846</ele>
        <time>2012-08-07T14:33:22Z</time>
      </trkpt>
      <trkpt lat="42.67921" lon="1.39821">
        <ele>2587.525635</ele>
        <time>2012-08-07T14:33:38Z</time>
      </trkpt>
      <trkpt lat="42.67923" lon="1.39835">
        <ele>2587.525635</ele>
        <time>2012-08-07T14:33:54Z</time>
      </trkpt>
      <trkpt lat="42.67928" lon="1.39845">
        <ele>2586.564209</ele>
        <time>2012-08-07T14:34:08Z</time>
      </trkpt>
      <trkpt lat="42.67929" lon="1.39852">
        <ele>2585.603027</ele>
        <time>2012-08-07T14:34:37Z</time>
      </trkpt>
      <trkpt lat="42.67929" lon="1.39867">
        <ele>2580.796631</ele>
        <time>2012-08-07T14:35:34Z</time>
      </trkpt>
      <trkpt lat="42.67933" lon="1.39871">
        <ele>2578.873779</ele>
        <time>2012-08-07T14:35:46Z</time>
      </trkpt>
      <trkpt lat="42.67943" lon="1.39862">
        <ele>2576.951416</ele>
        <time>2012-08-07T14:36:00Z</time>
      </trkpt>
      <trkpt lat="42.67948" lon="1.39864">
        <ele>2574.067383</ele>
        <time>2012-08-07T14:36:19Z</time>
      </trkpt>
      <trkpt lat="42.6795" lon="1.39862">
        <ele>2573.106201</ele>
        <time>2012-08-07T14:36:22Z</time>
      </trkpt>
      <trkpt lat="42.67956" lon="1.39848">
        <ele>2571.663818</ele>
        <time>2012-08-07T14:36:40Z</time>
      </trkpt>
      <trkpt lat="42.67961" lon="1.39844">
        <ele>2571.183105</ele>
        <time>2012-08-07T14:36:53Z</time>
      </trkpt>
      <trkpt lat="42.67969" lon="1.39839">
        <ele>2565.895996</ele>
        <time>2012-08-07T14:37:33Z</time>
      </trkpt>
      <trkpt lat="42.67973" lon="1.39832">
        <ele>2563.492676</ele>
        <time>2012-08-07T14:37:40Z</time>
      </trkpt>
      <trkpt lat="42.67977" lon="1.39826">
        <ele>2562.531494</ele>
        <time>2012-08-07T14:38:05Z</time>
      </trkpt>
      <trkpt lat="42.67981" lon="1.39823">
        <ele>2563.012207</ele>
        <time>2012-08-07T14:38:54Z</time>
      </trkpt>
      <trkpt lat="42.67985" lon="1.39822">
        <ele>2563.012207</ele>
        <time>2012-08-07T14:38:58Z</time>
      </trkpt>
      <trkpt lat="42.67989" lon="1.39813">
        <ele>2564.454102</ele>
        <time>2012-08-07T14:39:10Z</time>
      </trkpt>
      <trkpt lat="42.6799" lon="1.39804">
        <ele>2565.415527</ele>
        <time>2012-08-07T14:39:18Z</time>
      </trkpt>
      <trkpt lat="42.67991" lon="1.398">
        <ele>2565.415527</ele>
        <time>2012-08-07T14:39:21Z</time>
      </trkpt>
      <trkpt lat="42.67992" lon="1.39788">
        <ele>2566.376709</ele>
        <time>2012-08-07T14:39:36Z</time>
      </trkpt>
      <trkpt lat="42.67995" lon="1.3978">
        <ele>2565.895996</ele>
        <time>2012-08-07T14:39:58Z</time>
      </trkpt>
      <trkpt lat="42.67998" lon="1.39767">
        <ele>2565.895996</ele>
        <time>2012-08-07T14:40:29Z</time>
      </trkpt>
      <trkpt lat="42.68002" lon="1.39757">
        <ele>2563.012207</ele>
        <time>2012-08-07T14:40:49Z</time>
      </trkpt>
      <trkpt lat="42.68006" lon="1.39749">
        <ele>2560.128174</ele>
        <time>2012-08-07T14:41:07Z</time>
      </trkpt>
      <trkpt lat="42.68013" lon="1.39738">
        <ele>2557.725098</ele>
        <time>2012-08-07T14:41:29Z</time>
      </trkpt>
      <trkpt lat="42.6802" lon="1.39726">
        <ele>2553.879639</ele>
        <time>2012-08-07T14:41:49Z</time>
      </trkpt>
      <trkpt lat="42.6803" lon="1.39713">
        <ele>2547.150391</ele>
        <time>2012-08-07T14:42:16Z</time>
      </trkpt>
      <trkpt lat="42.68035" lon="1.39703">
        <ele>2543.305176</ele>
        <time>2012-08-07T14:42:35Z</time>
      </trkpt>
      <trkpt lat="42.68043" lon="1.39687">
        <ele>2538.979004</ele>
        <time>2012-08-07T14:42:56Z</time>
      </trkpt>
      <trkpt lat="42.68044" lon="1.39673">
        <ele>2537.056396</ele>
        <time>2012-08-07T14:43:18Z</time>
      </trkpt>
      <trkpt lat="42.68042" lon="1.39659">
        <ele>2537.056396</ele>
        <time>2012-08-07T14:43:35Z</time>
      </trkpt>
      <trkpt lat="42.68045" lon="1.39648">
        <ele>2538.498535</ele>
        <time>2012-08-07T14:44:05Z</time>
      </trkpt>
      <trkpt lat="42.68046" lon="1.39645">
        <ele>2538.017822</ele>
        <time>2012-08-07T14:44:39Z</time>
      </trkpt>
      <trkpt lat="42.68051" lon="1.39633">
        <ele>2536.575684</ele>
        <time>2012-08-07T14:44:54Z</time>
      </trkpt>
      <trkpt lat="42.6805" lon="1.39629">
        <ele>2536.095215</ele>
        <time>2012-08-07T14:45:37Z</time>
      </trkpt>
      <trkpt lat="42.68054" lon="1.39622">
        <ele>2536.575684</ele>
        <time>2012-08-07T14:45:47Z</time>
      </trkpt>
      <trkpt lat="42.68063" lon="1.39614">
        <ele>2534.65332</ele>
        <time>2012-08-07T14:46:18Z</time>
      </trkpt>
      <trkpt lat="42.68069" lon="1.39603">
        <ele>2533.691895</ele>
        <time>2012-08-07T14:46:31Z</time>
      </trkpt>
      <trkpt lat="42.68074" lon="1.39595">
        <ele>2532.730469</ele>
        <time>2012-08-07T14:46:41Z</time>
      </trkpt>
      <trkpt lat="42.68076" lon="1.39584">
        <ele>2531.769287</ele>
        <time>2012-08-07T14:47:12Z</time>
      </trkpt>
      <trkpt lat="42.68082" lon="1.39572">
        <ele>2528.404785</ele>
        <time>2012-08-07T14:48:38Z</time>
      </trkpt>
      <trkpt lat="42.68081" lon="1.39568">
        <ele>2526.962891</ele>
        <time>2012-08-07T14:48:53Z</time>
      </trkpt>
      <trkpt lat="42.68084" lon="1.39558">
        <ele>2521.19458</ele>
        <time>2012-08-07T14:49:14Z</time>
      </trkpt>
      <trkpt lat="42.68084" lon="1.39554">
        <ele>2517.830078</ele>
        <time>2012-08-07T14:50:12Z</time>
      </trkpt>
      <trkpt lat="42.68086" lon="1.39544">
        <ele>2515.427002</ele>
        <time>2012-08-07T14:53:01Z</time>
      </trkpt>
      <trkpt lat="42.68093" lon="1.39536">
        <ele>2513.984863</ele>
        <time>2012-08-07T14:53:13Z</time>
      </trkpt>
      <trkpt lat="42.68099" lon="1.39527">
        <ele>2512.062256</ele>
        <time>2012-08-07T14:53:28Z</time>
      </trkpt>
      <trkpt lat="42.68099" lon="1.39524">
        <ele>2510.620361</ele>
        <time>2012-08-07T14:53:35Z</time>
      </trkpt>
      <trkpt lat="42.68098" lon="1.39516">
        <ele>2507.255615</ele>
        <time>2012-08-07T14:53:54Z</time>
      </trkpt>
      <trkpt lat="42.68102" lon="1.39512">
        <ele>2504.371582</ele>
        <time>2012-08-07T14:54:35Z</time>
      </trkpt>
      <trkpt lat="42.68101" lon="1.39502">
        <ele>2501.487793</ele>
        <time>2012-08-07T14:54:52Z</time>
      </trkpt>
      <trkpt lat="42.68105" lon="1.3949">
        <ele>2497.161865</ele>
        <time>2012-08-07T14:55:37Z</time>
      </trkpt>
      <trkpt lat="42.68104" lon="1.39487">
        <ele>2493.797363</ele>
        <time>2012-08-07T14:55:56Z</time>
      </trkpt>
      <trkpt lat="42.68101" lon="1.39486">
        <ele>2491.874512</ele>
        <time>2012-08-07T14:56:00Z</time>
      </trkpt>
      <trkpt lat="42.68106" lon="1.39476">
        <ele>2486.106689</ele>
        <time>2012-08-07T14:56:19Z</time>
      </trkpt>
      <trkpt lat="42.68106" lon="1.39468">
        <ele>2481.780762</ele>
        <time>2012-08-07T14:56:36Z</time>
      </trkpt>
      <trkpt lat="42.6811" lon="1.39461">
        <ele>2479.377441</ele>
        <time>2012-08-07T14:56:54Z</time>
      </trkpt>
      <trkpt lat="42.68121" lon="1.39458">
        <ele>2476.974365</ele>
        <time>2012-08-07T14:57:19Z</time>
      </trkpt>
      <trkpt lat="42.68123" lon="1.39455">
        <ele>2476.493652</ele>
        <time>2012-08-07T14:57:22Z</time>
      </trkpt>
      <trkpt lat="42.68132" lon="1.39453">
        <ele>2475.05127</ele>
        <time>2012-08-07T14:57:33Z</time>
      </trkpt>
      <trkpt lat="42.68133" lon="1.39454">
        <ele>2475.05127</ele>
        <time>2012-08-07T14:57:34Z</time>
      </trkpt>
      <trkpt lat="42.68142" lon="1.39457">
        <ele>2475.05127</ele>
        <time>2012-08-07T14:57:50Z</time>
      </trkpt>
      <trkpt lat="42.68149" lon="1.39454">
        <ele>2471.206055</ele>
        <time>2012-08-07T14:58:08Z</time>
      </trkpt>
      <trkpt lat="42.68153" lon="1.39452">
        <ele>2466.880371</ele>
        <time>2012-08-07T14:58:26Z</time>
      </trkpt>
      <trkpt lat="42.68163" lon="1.39449">
        <ele>2462.07373</ele>
        <time>2012-08-07T14:58:43Z</time>
      </trkpt>
      <trkpt lat="42.68173" lon="1.39441">
        <ele>2454.86377</ele>
        <time>2012-08-07T14:59:09Z</time>
      </trkpt>
      <trkpt lat="42.68183" lon="1.39441">
        <ele>2448.134521</ele>
        <time>2012-08-07T14:59:29Z</time>
      </trkpt>
      <trkpt lat="42.68197" lon="1.3943">
        <ele>2442.366699</ele>
        <time>2012-08-07T15:00:19Z</time>
      </trkpt>
      <trkpt lat="42.68198" lon="1.39429">
        <ele>2441.885986</ele>
        <time>2012-08-07T15:00:22Z</time>
      </trkpt>
      <trkpt lat="42.68197" lon="1.39414">
        <ele>2434.67627</ele>
        <time>2012-08-07T15:00:50Z</time>
      </trkpt>
      <trkpt lat="42.68199" lon="1.394">
        <ele>2429.869629</ele>
        <time>2012-08-07T15:01:07Z</time>
      </trkpt>
      <trkpt lat="42.68201" lon="1.39399">
        <ele>2427.466064</ele>
        <time>2012-08-07T15:01:21Z</time>
      </trkpt>
      <trkpt lat="42.68203" lon="1.39392">
        <ele>2425.543457</ele>
        <time>2012-08-07T15:01:40Z</time>
      </trkpt>
      <trkpt lat="42.68205" lon="1.39384">
        <ele>2424.101562</ele>
        <time>2012-08-07T15:01:55Z</time>
      </trkpt>
      <trkpt lat="42.68205" lon="1.39383">
        <ele>2423.62085</ele>
        <time>2012-08-07T15:01:56Z</time>
      </trkpt>
      <trkpt lat="42.68207" lon="1.39381">
        <ele>2423.140381</ele>
        <time>2012-08-07T15:01:58Z</time>
      </trkpt>
      <trkpt lat="42.68211" lon="1.39382">
        <ele>2421.698242</ele>
        <time>2012-08-07T15:02:03Z</time>
      </trkpt>
      <trkpt lat="42.68215" lon="1.39383">
        <ele>2421.217529</ele>
        <time>2012-08-07T15:02:09Z</time>
      </trkpt>
      <trkpt lat="42.68228" lon="1.39385">
        <ele>2417.372314</ele>
        <time>2012-08-07T15:02:23Z</time>
      </trkpt>
      <trkpt lat="42.68232" lon="1.39388">
        <ele>2416.891846</ele>
        <time>2012-08-07T15:02:27Z</time>
      </trkpt>
      <trkpt lat="42.68236" lon="1.3939">
        <ele>2416.411133</ele>
        <time>2012-08-07T15:02:40Z</time>
      </trkpt>
      <trkpt lat="42.68233" lon="1.394">
        <ele>2416.891846</ele>
        <time>2012-08-07T15:02:48Z</time>
      </trkpt>
      <trkpt lat="42.68235" lon="1.39402">
        <ele>2417.853027</ele>
        <time>2012-08-07T15:02:55Z</time>
      </trkpt>
      <trkpt lat="42.6824" lon="1.39396">
        <ele>2417.853027</ele>
        <time>2012-08-07T15:03:13Z</time>
      </trkpt>
      <trkpt lat="42.68254" lon="1.39394">
        <ele>2414.969238</ele>
        <time>2012-08-07T15:03:55Z</time>
      </trkpt>
      <trkpt lat="42.68256" lon="1.39391">
        <ele>2414.488525</ele>
        <time>2012-08-07T15:04:03Z</time>
      </trkpt>
      <trkpt lat="42.68266" lon="1.39383">
        <ele>2417.372314</ele>
        <time>2012-08-07T15:04:27Z</time>
      </trkpt>
      <trkpt lat="42.68268" lon="1.39381">
        <ele>2419.295166</ele>
        <time>2012-08-07T15:04:30Z</time>
      </trkpt>
      <trkpt lat="42.68276" lon="1.39384">
        <ele>2419.775635</ele>
        <time>2012-08-07T15:04:44Z</time>
      </trkpt>
      <trkpt lat="42.68281" lon="1.39381">
        <ele>2425.062744</ele>
        <time>2012-08-07T15:04:58Z</time>
      </trkpt>
      <trkpt lat="42.68284" lon="1.39389">
        <ele>2427.946777</ele>
        <time>2012-08-07T15:05:17Z</time>
      </trkpt>
      <trkpt lat="42.68286" lon="1.39392">
        <ele>2429.388916</ele>
        <time>2012-08-07T15:05:33Z</time>
      </trkpt>
      <trkpt lat="42.68299" lon="1.39405">
        <ele>2427.466064</ele>
        <time>2012-08-07T15:05:47Z</time>
      </trkpt>
      <trkpt lat="42.68308" lon="1.39421">
        <ele>2423.62085</ele>
        <time>2012-08-07T15:05:56Z</time>
      </trkpt>
      <trkpt lat="42.68315" lon="1.39423">
        <ele>2423.140381</ele>
        <time>2012-08-07T15:06:03Z</time>
      </trkpt>
      <trkpt lat="42.6833" lon="1.39422">
        <ele>2420.256348</ele>
        <time>2012-08-07T15:06:18Z</time>
      </trkpt>
      <trkpt lat="42.68332" lon="1.39423">
        <ele>2418.814453</ele>
        <time>2012-08-07T15:06:22Z</time>
      </trkpt>
      <trkpt lat="42.68344" lon="1.39429">
        <ele>2415.93042</ele>
        <time>2012-08-07T15:06:35Z</time>
      </trkpt>
      <trkpt lat="42.68351" lon="1.39421">
        <ele>2418.814453</ele>
        <time>2012-08-07T15:06:49Z</time>
      </trkpt>
      <trkpt lat="42.68368" lon="1.39419">
        <ele>2406.317139</ele>
        <time>2012-08-07T15:07:43Z</time>
      </trkpt>
      <trkpt lat="42.68376" lon="1.39421">
        <ele>2401.510742</ele>
        <time>2012-08-07T15:07:56Z</time>
      </trkpt>
      <trkpt lat="42.68384" lon="1.39424">
        <ele>2397.184814</ele>
        <time>2012-08-07T15:08:05Z</time>
      </trkpt>
      <trkpt lat="42.68385" lon="1.39427">
        <ele>2395.742676</ele>
        <time>2012-08-07T15:08:08Z</time>
      </trkpt>
      <trkpt lat="42.68402" lon="1.39436">
        <ele>2388.532959</ele>
        <time>2012-08-07T15:08:24Z</time>
      </trkpt>
      <trkpt lat="42.68413" lon="1.39442">
        <ele>2386.610107</ele>
        <time>2012-08-07T15:08:35Z</time>
      </trkpt>
      <trkpt lat="42.68424" lon="1.3946">
        <ele>2387.571533</ele>
        <time>2012-08-07T15:08:54Z</time>
      </trkpt>
      <trkpt lat="42.68426" lon="1.39462">
        <ele>2387.571533</ele>
        <time>2012-08-07T15:08:57Z</time>
      </trkpt>
      <trkpt lat="42.68434" lon="1.39462">
        <ele>2387.09082</ele>
        <time>2012-08-07T15:09:08Z</time>
      </trkpt>
      <trkpt lat="42.68445" lon="1.39471">
        <ele>2387.571533</ele>
        <time>2012-08-07T15:09:23Z</time>
      </trkpt>
      <trkpt lat="42.68446" lon="1.39473">
        <ele>2387.571533</ele>
        <time>2012-08-07T15:09:25Z</time>
      </trkpt>
      <trkpt lat="42.68453" lon="1.39479">
        <ele>2387.571533</ele>
        <time>2012-08-07T15:09:34Z</time>
      </trkpt>
      <trkpt lat="42.68464" lon="1.39486">
        <ele>2387.571533</ele>
        <time>2012-08-07T15:09:49Z</time>
      </trkpt>
      <trkpt lat="42.68469" lon="1.3949">
        <ele>2386.610107</ele>
        <time>2012-08-07T15:09:57Z</time>
      </trkpt>
      <trkpt lat="42.68477" lon="1.39505">
        <ele>2384.687744</ele>
        <time>2012-08-07T15:10:14Z</time>
      </trkpt>
      <trkpt lat="42.68484" lon="1.39512">
        <ele>2384.207031</ele>
        <time>2012-08-07T15:10:26Z</time>
      </trkpt>
      <trkpt lat="42.68496" lon="1.39514">
        <ele>2385.168213</ele>
        <time>2012-08-07T15:10:44Z</time>
      </trkpt>
      <trkpt lat="42.68504" lon="1.39516">
        <ele>2384.687744</ele>
        <time>2012-08-07T15:10:55Z</time>
      </trkpt>
      <trkpt lat="42.68506" lon="1.39517">
        <ele>2384.687744</ele>
        <time>2012-08-07T15:10:57Z</time>
      </trkpt>
      <trkpt lat="42.6851" lon="1.39519">
        <ele>2384.687744</ele>
        <time>2012-08-07T15:11:02Z</time>
      </trkpt>
      <trkpt lat="42.68523" lon="1.39531">
        <ele>2385.648926</ele>
        <time>2012-08-07T15:11:23Z</time>
      </trkpt>
      <trkpt lat="42.68527" lon="1.39534">
        <ele>2386.610107</ele>
        <time>2012-08-07T15:11:28Z</time>
      </trkpt>
      <trkpt lat="42.68536" lon="1.39543">
        <ele>2386.610107</ele>
        <time>2012-08-07T15:11:41Z</time>
      </trkpt>
      <trkpt lat="42.6854" lon="1.39546">
        <ele>2386.129639</ele>
        <time>2012-08-07T15:11:47Z</time>
      </trkpt>
      <trkpt lat="42.68552" lon="1.3955">
        <ele>2383.245605</ele>
        <time>2012-08-07T15:12:02Z</time>
      </trkpt>
      <trkpt lat="42.68554" lon="1.3955">
        <ele>2383.245605</ele>
        <time>2012-08-07T15:12:05Z</time>
      </trkpt>
      <trkpt lat="42.68562" lon="1.3956">
        <ele>2382.284424</ele>
        <time>2012-08-07T15:12:18Z</time>
      </trkpt>
      <trkpt lat="42.68571" lon="1.39571">
        <ele>2382.284424</ele>
        <time>2012-08-07T15:12:33Z</time>
      </trkpt>
      <trkpt lat="42.68583" lon="1.39579">
        <ele>2384.687744</ele>
        <time>2012-08-07T15:12:51Z</time>
      </trkpt>
      <trkpt lat="42.68593" lon="1.39584">
        <ele>2385.648926</ele>
        <time>2012-08-07T15:13:07Z</time>
      </trkpt>
      <trkpt lat="42.68596" lon="1.39584">
        <ele>2386.129639</ele>
        <time>2012-08-07T15:13:19Z</time>
      </trkpt>
      <trkpt lat="42.686" lon="1.39581">
        <ele>2387.09082</ele>
        <time>2012-08-07T15:13:24Z</time>
      </trkpt>
      <trkpt lat="42.68613" lon="1.3959">
        <ele>2387.571533</ele>
        <time>2012-08-07T15:13:40Z</time>
      </trkpt>
      <trkpt lat="42.68619" lon="1.39594">
        <ele>2385.168213</ele>
        <time>2012-08-07T15:13:54Z</time>
      </trkpt>
      <trkpt lat="42.68627" lon="1.39597">
        <ele>2382.764893</ele>
        <time>2012-08-07T15:14:05Z</time>
      </trkpt>
      <trkpt lat="42.68641" lon="1.39592">
        <ele>2379.880859</ele>
        <time>2012-08-07T15:14:22Z</time>
      </trkpt>
      <trkpt lat="42.68643" lon="1.39591">
        <ele>2379.400146</ele>
        <time>2012-08-07T15:14:24Z</time>
      </trkpt>
      <trkpt lat="42.68647" lon="1.39592">
        <ele>2379.400146</ele>
        <time>2012-08-07T15:14:28Z</time>
      </trkpt>
      <trkpt lat="42.68649" lon="1.39594">
        <ele>2379.400146</ele>
        <time>2012-08-07T15:14:31Z</time>
      </trkpt>
      <trkpt lat="42.68651" lon="1.39597">
        <ele>2378.919434</ele>
        <time>2012-08-07T15:14:34Z</time>
      </trkpt>
      <trkpt lat="42.68656" lon="1.39606">
        <ele>2378.438965</ele>
        <time>2012-08-07T15:14:43Z</time>
      </trkpt>
      <trkpt lat="42.68658" lon="1.39607">
        <ele>2377.958252</ele>
        <time>2012-08-07T15:14:45Z</time>
      </trkpt>
      <trkpt lat="42.68668" lon="1.39612">
        <ele>2377.477539</ele>
        <time>2012-08-07T15:14:56Z</time>
      </trkpt>
      <trkpt lat="42.68676" lon="1.39615">
        <ele>2377.958252</ele>
        <time>2012-08-07T15:15:06Z</time>
      </trkpt>
      <trkpt lat="42.68686" lon="1.3961">
        <ele>2379.880859</ele>
        <time>2012-08-07T15:15:20Z</time>
      </trkpt>
      <trkpt lat="42.68698" lon="1.3962">
        <ele>2378.438965</ele>
        <time>2012-08-07T15:15:39Z</time>
      </trkpt>
      <trkpt lat="42.687" lon="1.39618">
        <ele>2376.99707</ele>
        <time>2012-08-07T15:15:46Z</time>
      </trkpt>
      <trkpt lat="42.68711" lon="1.39619">
        <ele>2373.151855</ele>
        <time>2012-08-07T15:16:04Z</time>
      </trkpt>
      <trkpt lat="42.68712" lon="1.3962">
        <ele>2373.151855</ele>
        <time>2012-08-07T15:16:07Z</time>
      </trkpt>
      <trkpt lat="42.68716" lon="1.39619">
        <ele>2372.671143</ele>
        <time>2012-08-07T15:16:16Z</time>
      </trkpt>
      <trkpt lat="42.68722" lon="1.39612">
        <ele>2371.229004</ele>
        <time>2012-08-07T15:16:33Z</time>
      </trkpt>
      <trkpt lat="42.68728" lon="1.39611">
        <ele>2368.825928</ele>
        <time>2012-08-07T15:16:48Z</time>
      </trkpt>
      <trkpt lat="42.68733" lon="1.39608">
        <ele>2367.864502</ele>
        <time>2012-08-07T15:16:56Z</time>
      </trkpt>
      <trkpt lat="42.68739" lon="1.39609">
        <ele>2365.941895</ele>
        <time>2012-08-07T15:17:01Z</time>
      </trkpt>
      <trkpt lat="42.68744" lon="1.39608">
        <ele>2365.461426</ele>
        <time>2012-08-07T15:17:16Z</time>
      </trkpt>
      <trkpt lat="42.68746" lon="1.39609">
        <ele>2365.461426</ele>
        <time>2012-08-07T15:17:18Z</time>
      </trkpt>
      <trkpt lat="42.68752" lon="1.39615">
        <ele>2364.5</ele>
        <time>2012-08-07T15:17:26Z</time>
      </trkpt>
      <trkpt lat="42.68762" lon="1.39615">
        <ele>2362.577148</ele>
        <time>2012-08-07T15:17:38Z</time>
      </trkpt>
      <trkpt lat="42.68771" lon="1.39609">
        <ele>2359.693115</ele>
        <time>2012-08-07T15:17:52Z</time>
      </trkpt>
      <trkpt lat="42.68779" lon="1.39606">
        <ele>2357.290039</ele>
        <time>2012-08-07T15:18:09Z</time>
      </trkpt>
      <trkpt lat="42.68785" lon="1.39601">
        <ele>2355.8479</ele>
        <time>2012-08-07T15:18:19Z</time>
      </trkpt>
      <trkpt lat="42.68785" lon="1.39594">
        <ele>2354.886719</ele>
        <time>2012-08-07T15:18:30Z</time>
      </trkpt>
      <trkpt lat="42.6879" lon="1.396">
        <ele>2352.483398</ele>
        <time>2012-08-07T15:18:38Z</time>
      </trkpt>
      <trkpt lat="42.68794" lon="1.39597">
        <ele>2351.041504</ele>
        <time>2012-08-07T15:18:43Z</time>
      </trkpt>
      <trkpt lat="42.68801" lon="1.39597">
        <ele>2347.196045</ele>
        <time>2012-08-07T15:18:55Z</time>
      </trkpt>
      <trkpt lat="42.68807" lon="1.39596">
        <ele>2345.75415</ele>
        <time>2012-08-07T15:19:02Z</time>
      </trkpt>
      <trkpt lat="42.68814" lon="1.39595">
        <ele>2344.312012</ele>
        <time>2012-08-07T15:19:09Z</time>
      </trkpt>
      <trkpt lat="42.68819" lon="1.39594">
        <ele>2342.870117</ele>
        <time>2012-08-07T15:19:15Z</time>
      </trkpt>
      <trkpt lat="42.6882" lon="1.39595">
        <ele>2342.389648</ele>
        <time>2012-08-07T15:19:17Z</time>
      </trkpt>
      <trkpt lat="42.68832" lon="1.39597">
        <ele>2345.273438</ele>
        <time>2012-08-07T15:19:35Z</time>
      </trkpt>
      <trkpt lat="42.68837" lon="1.39594">
        <ele>2343.35083</ele>
        <time>2012-08-07T15:19:49Z</time>
      </trkpt>
      <trkpt lat="42.68846" lon="1.39595">
        <ele>2339.024902</ele>
        <time>2012-08-07T15:20:04Z</time>
      </trkpt>
      <trkpt lat="42.6885" lon="1.39598">
        <ele>2338.063721</ele>
        <time>2012-08-07T15:20:12Z</time>
      </trkpt>
      <trkpt lat="42.68857" lon="1.3959">
        <ele>2336.621582</ele>
        <time>2012-08-07T15:20:24Z</time>
      </trkpt>
      <trkpt lat="42.68858" lon="1.39588">
        <ele>2336.621582</ele>
        <time>2012-08-07T15:20:28Z</time>
      </trkpt>
      <trkpt lat="42.68861" lon="1.39574">
        <ele>2335.179688</ele>
        <time>2012-08-07T15:20:41Z</time>
      </trkpt>
      <trkpt lat="42.68867" lon="1.39565">
        <ele>2333.737793</ele>
        <time>2012-08-07T15:20:53Z</time>
      </trkpt>
      <trkpt lat="42.68871" lon="1.39564">
        <ele>2332.776367</ele>
        <time>2012-08-07T15:21:01Z</time>
      </trkpt>
      <trkpt lat="42.68879" lon="1.39565">
        <ele>2331.814941</ele>
        <time>2012-08-07T15:21:17Z</time>
      </trkpt>
      <trkpt lat="42.68885" lon="1.39571">
        <ele>2328.930908</ele>
        <time>2012-08-07T15:21:28Z</time>
      </trkpt>
      <trkpt lat="42.68888" lon="1.39574">
        <ele>2326.527832</ele>
        <time>2012-08-07T15:21:33Z</time>
      </trkpt>
      <trkpt lat="42.68894" lon="1.39567">
        <ele>2321.240479</ele>
        <time>2012-08-07T15:21:44Z</time>
      </trkpt>
      <trkpt lat="42.68893" lon="1.39563">
        <ele>2319.798584</ele>
        <time>2012-08-07T15:21:47Z</time>
      </trkpt>
      <trkpt lat="42.68897" lon="1.39558">
        <ele>2316.434082</ele>
        <time>2012-08-07T15:22:04Z</time>
      </trkpt>
      <trkpt lat="42.68902" lon="1.39563">
        <ele>2315.472656</ele>
        <time>2012-08-07T15:22:13Z</time>
      </trkpt>
      <trkpt lat="42.68913" lon="1.39561">
        <ele>2312.10791</ele>
        <time>2012-08-07T15:22:28Z</time>
      </trkpt>
      <trkpt lat="42.6892" lon="1.39551">
        <ele>2307.782227</ele>
        <time>2012-08-07T15:22:43Z</time>
      </trkpt>
      <trkpt lat="42.68926" lon="1.39554">
        <ele>2304.41748</ele>
        <time>2012-08-07T15:22:53Z</time>
      </trkpt>
      <trkpt lat="42.68929" lon="1.39557">
        <ele>2302.975586</ele>
        <time>2012-08-07T15:22:57Z</time>
      </trkpt>
      <trkpt lat="42.68936" lon="1.39566">
        <ele>2299.61084</ele>
        <time>2012-08-07T15:23:15Z</time>
      </trkpt>
      <trkpt lat="42.68948" lon="1.39571">
        <ele>2296.726807</ele>
        <time>2012-08-07T15:23:32Z</time>
      </trkpt>
      <trkpt lat="42.6895" lon="1.39571">
        <ele>2296.246338</ele>
        <time>2012-08-07T15:23:34Z</time>
      </trkpt>
      <trkpt lat="42.68953" lon="1.39574">
        <ele>2295.765625</ele>
        <time>2012-08-07T15:23:40Z</time>
      </trkpt>
      <trkpt lat="42.68956" lon="1.39573">
        <ele>2295.284912</ele>
        <time>2012-08-07T15:23:58Z</time>
      </trkpt>
      <trkpt lat="42.68962" lon="1.3956">
        <ele>2295.284912</ele>
        <time>2012-08-07T15:24:14Z</time>
      </trkpt>
      <trkpt lat="42.68969" lon="1.39551">
        <ele>2293.362305</ele>
        <time>2012-08-07T15:24:30Z</time>
      </trkpt>
      <trkpt lat="42.68974" lon="1.39546">
        <ele>2292.401123</ele>
        <time>2012-08-07T15:24:37Z</time>
      </trkpt>
      <trkpt lat="42.68976" lon="1.39547">
        <ele>2291.92041</ele>
        <time>2012-08-07T15:24:39Z</time>
      </trkpt>
      <trkpt lat="42.68985" lon="1.39539">
        <ele>2288.075195</ele>
        <time>2012-08-07T15:24:56Z</time>
      </trkpt>
      <trkpt lat="42.68989" lon="1.39545">
        <ele>2285.191162</ele>
        <time>2012-08-07T15:25:18Z</time>
      </trkpt>
      <trkpt lat="42.68998" lon="1.3954">
        <ele>2281.826416</ele>
        <time>2012-08-07T15:25:33Z</time>
      </trkpt>
      <trkpt lat="42.68998" lon="1.39536">
        <ele>2280.865234</ele>
        <time>2012-08-07T15:25:37Z</time>
      </trkpt>
      <trkpt lat="42.68997" lon="1.39529">
        <ele>2279.423096</ele>
        <time>2012-08-07T15:25:51Z</time>
      </trkpt>
      <trkpt lat="42.69" lon="1.39525">
        <ele>2277.981201</ele>
        <time>2012-08-07T15:25:58Z</time>
      </trkpt>
      <trkpt lat="42.69014" lon="1.39511">
        <ele>2269.32959</ele>
        <time>2012-08-07T15:26:17Z</time>
      </trkpt>
      <trkpt lat="42.69016" lon="1.39509">
        <ele>2267.887207</ele>
        <time>2012-08-07T15:26:22Z</time>
      </trkpt>
      <trkpt lat="42.69024" lon="1.39504">
        <ele>2265.484131</ele>
        <time>2012-08-07T15:26:32Z</time>
      </trkpt>
      <trkpt lat="42.6903" lon="1.39501">
        <ele>2264.522705</ele>
        <time>2012-08-07T15:26:41Z</time>
      </trkpt>
      <trkpt lat="42.69037" lon="1.39495">
        <ele>2262.119385</ele>
        <time>2012-08-07T15:26:50Z</time>
      </trkpt>
      <trkpt lat="42.6904" lon="1.39496">
        <ele>2260.67749</ele>
        <time>2012-08-07T15:26:54Z</time>
      </trkpt>
      <trkpt lat="42.69042" lon="1.39503">
        <ele>2258.754883</ele>
        <time>2012-08-07T15:27:00Z</time>
      </trkpt>
      <trkpt lat="42.69047" lon="1.39504">
        <ele>2255.390381</ele>
        <time>2012-08-07T15:27:09Z</time>
      </trkpt>
      <trkpt lat="42.69053" lon="1.39492">
        <ele>2251.064209</ele>
        <time>2012-08-07T15:27:22Z</time>
      </trkpt>
      <trkpt lat="42.69053" lon="1.39485">
        <ele>2249.622314</ele>
        <time>2012-08-07T15:27:29Z</time>
      </trkpt>
      <trkpt lat="42.69054" lon="1.39483">
        <ele>2249.141602</ele>
        <time>2012-08-07T15:27:31Z</time>
      </trkpt>
      <trkpt lat="42.6906" lon="1.39496">
        <ele>2247.218994</ele>
        <time>2012-08-07T15:27:47Z</time>
      </trkpt>
      <trkpt lat="42.69067" lon="1.39507">
        <ele>2245.296387</ele>
        <time>2012-08-07T15:28:01Z</time>
      </trkpt>
      <trkpt lat="42.69068" lon="1.39508">
        <ele>2245.296387</ele>
        <time>2012-08-07T15:28:02Z</time>
      </trkpt>
      <trkpt lat="42.69072" lon="1.39505">
        <ele>2244.815674</ele>
        <time>2012-08-07T15:28:14Z</time>
      </trkpt>
      <trkpt lat="42.6907" lon="1.39516">
        <ele>2240.970459</ele>
        <time>2012-08-07T15:28:25Z</time>
      </trkpt>
      <trkpt lat="42.69078" lon="1.39515">
        <ele>2239.047852</ele>
        <time>2012-08-07T15:28:40Z</time>
      </trkpt>
      <trkpt lat="42.69087" lon="1.39517">
        <ele>2237.605957</ele>
        <time>2012-08-07T15:28:54Z</time>
      </trkpt>
      <trkpt lat="42.69091" lon="1.39524">
        <ele>2236.644531</ele>
        <time>2012-08-07T15:29:05Z</time>
      </trkpt>
      <trkpt lat="42.69099" lon="1.3952">
        <ele>2236.644531</ele>
        <time>2012-08-07T15:29:13Z</time>
      </trkpt>
      <trkpt lat="42.69107" lon="1.39531">
        <ele>2239.528564</ele>
        <time>2012-08-07T15:29:29Z</time>
      </trkpt>
      <trkpt lat="42.6911" lon="1.39536">
        <ele>2239.528564</ele>
        <time>2012-08-07T15:29:34Z</time>
      </trkpt>
      <trkpt lat="42.69111" lon="1.39538">
        <ele>2239.528564</ele>
        <time>2012-08-07T15:29:36Z</time>
      </trkpt>
      <trkpt lat="42.69113" lon="1.39549">
        <ele>2238.08667</ele>
        <time>2012-08-07T15:29:50Z</time>
      </trkpt>
      <trkpt lat="42.69122" lon="1.39563">
        <ele>2231.837891</ele>
        <time>2012-08-07T15:30:07Z</time>
      </trkpt>
      <trkpt lat="42.69122" lon="1.39564">
        <ele>2231.357178</ele>
        <time>2012-08-07T15:30:09Z</time>
      </trkpt>
      <trkpt lat="42.69123" lon="1.3957">
        <ele>2229.43457</ele>
        <time>2012-08-07T15:30:16Z</time>
      </trkpt>
      <trkpt lat="42.69128" lon="1.39579">
        <ele>2228.473389</ele>
        <time>2012-08-07T15:30:24Z</time>
      </trkpt>
      <trkpt lat="42.69133" lon="1.39588">
        <ele>2227.511963</ele>
        <time>2012-08-07T15:30:31Z</time>
      </trkpt>
      <trkpt lat="42.69133" lon="1.39593">
        <ele>2227.031494</ele>
        <time>2012-08-07T15:30:35Z</time>
      </trkpt>
      <trkpt lat="42.69129" lon="1.39607">
        <ele>2224.147461</ele>
        <time>2012-08-07T15:30:52Z</time>
      </trkpt>
      <trkpt lat="42.69126" lon="1.39623">
        <ele>2222.705566</ele>
        <time>2012-08-07T15:31:09Z</time>
      </trkpt>
      <trkpt lat="42.69121" lon="1.39642">
        <ele>2225.589355</ele>
        <time>2012-08-07T15:31:35Z</time>
      </trkpt>
      <trkpt lat="42.69123" lon="1.39654">
        <ele>2227.031494</ele>
        <time>2012-08-07T15:31:49Z</time>
      </trkpt>
      <trkpt lat="42.69127" lon="1.39667">
        <ele>2228.473389</ele>
        <time>2012-08-07T15:32:11Z</time>
      </trkpt>
      <trkpt lat="42.69127" lon="1.39661">
        <ele>2230.395996</ele>
        <time>2012-08-07T15:32:33Z</time>
      </trkpt>
      <trkpt lat="42.69128" lon="1.39655">
        <ele>2231.837891</ele>
        <time>2012-08-07T15:33:05Z</time>
      </trkpt>
      <trkpt lat="42.69131" lon="1.39655">
        <ele>2231.357178</ele>
        <time>2012-08-07T15:33:40Z</time>
      </trkpt>
    </trkseg>
  </trk>
</gpx>